<?xml version="1.0" encoding="UTF-8" standalone="no" ?>
<gpx xmlns="http://www.topografix.com/GPX/1/1" xmlns:xsi="http://www.w3.org/2001/XMLSchema-instance" xsi:schemaLocation="http://www.topografix.com/GPX/1/1 http://www.topografix.com/GPX/1/1/gpx.xsd" version="1.1" creator="VisuGPX - https://www.visugpx.com">
  <metadata>
    <name>Balade Audiernaise</name>
    <desc><![CDATA[Parking et départ de la rando, parking rue Amiral Guépratte, suivre le GR 34 vers la Pte de Lervily, puis quitter le sentier côtier à droite en direction de le Créac\'h. A partir de cet endroit, suivre le tracé, il n\'y a plus de balisage, ce parcours est le résultat de mon imagination.
ch]]></desc>
  </metadata>
  <trk>
    <name><![CDATA[Audierne]]></name>
    <trkseg>
      <trkpt lat="48.01671" lon="-4.538">
        <ele>4.94</ele>
        <time>2014-01-20T13:17:16Z</time>
      </trkpt>
      <trkpt lat="48.01676" lon="-4.53806">
        <ele>4.46</ele>
        <time>2014-01-20T13:17:38Z</time>
      </trkpt>
      <trkpt lat="48.01674" lon="-4.53807">
        <ele>5.42</ele>
        <time>2014-01-20T13:17:54Z</time>
      </trkpt>
      <trkpt lat="48.01669" lon="-4.53803">
        <ele>4.94</ele>
        <time>2014-01-20T13:18:03Z</time>
      </trkpt>
      <trkpt lat="48.01657" lon="-4.53806">
        <ele>2.54</ele>
        <time>2014-01-20T13:18:13Z</time>
      </trkpt>
      <trkpt lat="48.0165" lon="-4.53808">
        <ele>1.58</ele>
        <time>2014-01-20T13:18:18Z</time>
      </trkpt>
      <trkpt lat="48.01636" lon="-4.53815">
        <ele>2.54</ele>
        <time>2014-01-20T13:18:29Z</time>
      </trkpt>
      <trkpt lat="48.01631" lon="-4.53816">
        <ele>2.06</ele>
        <time>2014-01-20T13:18:33Z</time>
      </trkpt>
      <trkpt lat="48.01619" lon="-4.53816">
        <ele>0.14</ele>
        <time>2014-01-20T13:18:43Z</time>
      </trkpt>
      <trkpt lat="48.01609" lon="-4.53817">
        <ele>-0.34</ele>
        <time>2014-01-20T13:18:51Z</time>
      </trkpt>
      <trkpt lat="48.01595" lon="-4.53828">
        <ele>-1.3</ele>
        <time>2014-01-20T13:19:04Z</time>
      </trkpt>
      <trkpt lat="48.01584" lon="-4.53835">
        <ele>-0.34</ele>
        <time>2014-01-20T13:19:12Z</time>
      </trkpt>
      <trkpt lat="48.01579" lon="-4.53838">
        <ele>-0.34</ele>
        <time>2014-01-20T13:19:16Z</time>
      </trkpt>
      <trkpt lat="48.01577" lon="-4.53839">
        <ele>0.14</ele>
        <time>2014-01-20T13:19:18Z</time>
      </trkpt>
      <trkpt lat="48.01571" lon="-4.53843">
        <ele>0.62</ele>
        <time>2014-01-20T13:19:22Z</time>
      </trkpt>
      <trkpt lat="48.01559" lon="-4.53854">
        <ele>0.14</ele>
        <time>2014-01-20T13:19:33Z</time>
      </trkpt>
      <trkpt lat="48.01549" lon="-4.53864">
        <ele>0.62</ele>
        <time>2014-01-20T13:19:43Z</time>
      </trkpt>
      <trkpt lat="48.01537" lon="-4.53875">
        <ele>0.14</ele>
        <time>2014-01-20T13:19:54Z</time>
      </trkpt>
      <trkpt lat="48.01521" lon="-4.53886">
        <ele>-0.82</ele>
        <time>2014-01-20T13:20:07Z</time>
      </trkpt>
      <trkpt lat="48.01508" lon="-4.53894">
        <ele>1.1</ele>
        <time>2014-01-20T13:20:16Z</time>
      </trkpt>
      <trkpt lat="48.01495" lon="-4.53904">
        <ele>1.1</ele>
        <time>2014-01-20T13:20:27Z</time>
      </trkpt>
      <trkpt lat="48.01482" lon="-4.53914">
        <ele>0.62</ele>
        <time>2014-01-20T13:20:38Z</time>
      </trkpt>
      <trkpt lat="48.01467" lon="-4.53925">
        <ele>2.54</ele>
        <time>2014-01-20T13:20:50Z</time>
      </trkpt>
      <trkpt lat="48.01458" lon="-4.53931">
        <ele>1.1</ele>
        <time>2014-01-20T13:20:58Z</time>
      </trkpt>
      <trkpt lat="48.01444" lon="-4.53944">
        <ele>1.58</ele>
        <time>2014-01-20T13:21:10Z</time>
      </trkpt>
      <trkpt lat="48.01432" lon="-4.5395">
        <ele>2.54</ele>
        <time>2014-01-20T13:21:19Z</time>
      </trkpt>
      <trkpt lat="48.01419" lon="-4.53962">
        <ele>2.54</ele>
        <time>2014-01-20T13:21:30Z</time>
      </trkpt>
      <trkpt lat="48.01404" lon="-4.53974">
        <ele>3.02</ele>
        <time>2014-01-20T13:21:43Z</time>
      </trkpt>
      <trkpt lat="48.014" lon="-4.53978">
        <ele>3.98</ele>
        <time>2014-01-20T13:21:53Z</time>
      </trkpt>
      <trkpt lat="48.01386" lon="-4.5399">
        <ele>3.5</ele>
        <time>2014-01-20T13:22:04Z</time>
      </trkpt>
      <trkpt lat="48.01373" lon="-4.54001">
        <ele>4.46</ele>
        <time>2014-01-20T13:22:15Z</time>
      </trkpt>
      <trkpt lat="48.01365" lon="-4.54019">
        <ele>3.98</ele>
        <time>2014-01-20T13:22:26Z</time>
      </trkpt>
      <trkpt lat="48.01354" lon="-4.54038">
        <ele>4.46</ele>
        <time>2014-01-20T13:22:38Z</time>
      </trkpt>
      <trkpt lat="48.01343" lon="-4.54061">
        <ele>3.5</ele>
        <time>2014-01-20T13:22:53Z</time>
      </trkpt>
      <trkpt lat="48.01342" lon="-4.54063">
        <ele>3.5</ele>
        <time>2014-01-20T13:22:54Z</time>
      </trkpt>
      <trkpt lat="48.01337" lon="-4.5407">
        <ele>3.5</ele>
        <time>2014-01-20T13:22:59Z</time>
      </trkpt>
      <trkpt lat="48.01329" lon="-4.54082">
        <ele>3.02</ele>
        <time>2014-01-20T13:23:07Z</time>
      </trkpt>
      <trkpt lat="48.01324" lon="-4.54088">
        <ele>3.02</ele>
        <time>2014-01-20T13:23:12Z</time>
      </trkpt>
      <trkpt lat="48.0131" lon="-4.54109">
        <ele>5.42</ele>
        <time>2014-01-20T13:23:26Z</time>
      </trkpt>
      <trkpt lat="48.01299" lon="-4.54122">
        <ele>4.94</ele>
        <time>2014-01-20T13:23:37Z</time>
      </trkpt>
      <trkpt lat="48.01284" lon="-4.54137">
        <ele>6.87</ele>
        <time>2014-01-20T13:23:50Z</time>
      </trkpt>
      <trkpt lat="48.01279" lon="-4.54144">
        <ele>7.35</ele>
        <time>2014-01-20T13:23:55Z</time>
      </trkpt>
      <trkpt lat="48.01272" lon="-4.54159">
        <ele>8.31</ele>
        <time>2014-01-20T13:24:05Z</time>
      </trkpt>
      <trkpt lat="48.01272" lon="-4.54176">
        <ele>9.27</ele>
        <time>2014-01-20T13:24:15Z</time>
      </trkpt>
      <trkpt lat="48.01283" lon="-4.54189">
        <ele>10.71</ele>
        <time>2014-01-20T13:24:27Z</time>
      </trkpt>
      <trkpt lat="48.0129" lon="-4.54197">
        <ele>11.19</ele>
        <time>2014-01-20T13:24:35Z</time>
      </trkpt>
      <trkpt lat="48.01295" lon="-4.54203">
        <ele>10.23</ele>
        <time>2014-01-20T13:24:41Z</time>
      </trkpt>
      <trkpt lat="48.01308" lon="-4.54209">
        <ele>10.23</ele>
        <time>2014-01-20T13:24:52Z</time>
      </trkpt>
      <trkpt lat="48.01319" lon="-4.54211">
        <ele>10.71</ele>
        <time>2014-01-20T13:25:02Z</time>
      </trkpt>
      <trkpt lat="48.01321" lon="-4.54212">
        <ele>10.71</ele>
        <time>2014-01-20T13:25:08Z</time>
      </trkpt>
      <trkpt lat="48.01316" lon="-4.54215">
        <ele>10.71</ele>
        <time>2014-01-20T13:25:12Z</time>
      </trkpt>
      <trkpt lat="48.01302" lon="-4.54218">
        <ele>11.19</ele>
        <time>2014-01-20T13:25:24Z</time>
      </trkpt>
      <trkpt lat="48.01299" lon="-4.54218">
        <ele>11.67</ele>
        <time>2014-01-20T13:25:27Z</time>
      </trkpt>
      <trkpt lat="48.01305" lon="-4.54228">
        <ele>9.75</ele>
        <time>2014-01-20T13:25:35Z</time>
      </trkpt>
      <trkpt lat="48.01312" lon="-4.54243">
        <ele>6.87</ele>
        <time>2014-01-20T13:25:45Z</time>
      </trkpt>
      <trkpt lat="48.01319" lon="-4.54259">
        <ele>4.46</ele>
        <time>2014-01-20T13:25:55Z</time>
      </trkpt>
      <trkpt lat="48.01321" lon="-4.54265">
        <ele>3.98</ele>
        <time>2014-01-20T13:25:58Z</time>
      </trkpt>
      <trkpt lat="48.01329" lon="-4.54282">
        <ele>3.02</ele>
        <time>2014-01-20T13:26:08Z</time>
      </trkpt>
      <trkpt lat="48.01341" lon="-4.54296">
        <ele>4.94</ele>
        <time>2014-01-20T13:26:19Z</time>
      </trkpt>
      <trkpt lat="48.01348" lon="-4.54306">
        <ele>6.87</ele>
        <time>2014-01-20T13:26:28Z</time>
      </trkpt>
      <trkpt lat="48.01348" lon="-4.54307">
        <ele>6.87</ele>
        <time>2014-01-20T13:26:29Z</time>
      </trkpt>
      <trkpt lat="48.01354" lon="-4.54317">
        <ele>6.87</ele>
        <time>2014-01-20T13:26:38Z</time>
      </trkpt>
      <trkpt lat="48.01364" lon="-4.54328">
        <ele>5.42</ele>
        <time>2014-01-20T13:26:48Z</time>
      </trkpt>
      <trkpt lat="48.01375" lon="-4.54333">
        <ele>5.42</ele>
        <time>2014-01-20T13:26:57Z</time>
      </trkpt>
      <trkpt lat="48.01387" lon="-4.54337">
        <ele>8.31</ele>
        <time>2014-01-20T13:27:05Z</time>
      </trkpt>
      <trkpt lat="48.01403" lon="-4.54331">
        <ele>10.23</ele>
        <time>2014-01-20T13:27:17Z</time>
      </trkpt>
      <trkpt lat="48.01404" lon="-4.54331">
        <ele>10.23</ele>
        <time>2014-01-20T13:27:18Z</time>
      </trkpt>
      <trkpt lat="48.01406" lon="-4.54332">
        <ele>10.71</ele>
        <time>2014-01-20T13:27:20Z</time>
      </trkpt>
      <trkpt lat="48.01413" lon="-4.54328">
        <ele>14.56</ele>
        <time>2014-01-20T13:27:27Z</time>
      </trkpt>
      <trkpt lat="48.01416" lon="-4.54326">
        <ele>15.52</ele>
        <time>2014-01-20T13:27:29Z</time>
      </trkpt>
      <trkpt lat="48.01418" lon="-4.54325">
        <ele>16</ele>
        <time>2014-01-20T13:27:31Z</time>
      </trkpt>
      <trkpt lat="48.01423" lon="-4.54321">
        <ele>16.96</ele>
        <time>2014-01-20T13:27:36Z</time>
      </trkpt>
      <trkpt lat="48.0143" lon="-4.54318">
        <ele>17.92</ele>
        <time>2014-01-20T13:27:43Z</time>
      </trkpt>
      <trkpt lat="48.01436" lon="-4.54321">
        <ele>16.48</ele>
        <time>2014-01-20T13:27:49Z</time>
      </trkpt>
      <trkpt lat="48.01439" lon="-4.54329">
        <ele>15.52</ele>
        <time>2014-01-20T13:27:54Z</time>
      </trkpt>
      <trkpt lat="48.01439" lon="-4.54342">
        <ele>15.04</ele>
        <time>2014-01-20T13:28:02Z</time>
      </trkpt>
      <trkpt lat="48.01432" lon="-4.54359">
        <ele>16.96</ele>
        <time>2014-01-20T13:28:13Z</time>
      </trkpt>
      <trkpt lat="48.01427" lon="-4.54371">
        <ele>19.36</ele>
        <time>2014-01-20T13:28:19Z</time>
      </trkpt>
      <trkpt lat="48.01427" lon="-4.54377">
        <ele>19.36</ele>
        <time>2014-01-20T13:28:22Z</time>
      </trkpt>
      <trkpt lat="48.01425" lon="-4.54387">
        <ele>18.88</ele>
        <time>2014-01-20T13:28:28Z</time>
      </trkpt>
      <trkpt lat="48.01426" lon="-4.54402">
        <ele>17.92</ele>
        <time>2014-01-20T13:28:37Z</time>
      </trkpt>
      <trkpt lat="48.01432" lon="-4.5442">
        <ele>19.36</ele>
        <time>2014-01-20T13:28:47Z</time>
      </trkpt>
      <trkpt lat="48.01432" lon="-4.54421">
        <ele>19.36</ele>
        <time>2014-01-20T13:28:48Z</time>
      </trkpt>
      <trkpt lat="48.01434" lon="-4.54422">
        <ele>19.36</ele>
        <time>2014-01-20T13:28:51Z</time>
      </trkpt>
      <trkpt lat="48.01435" lon="-4.54444">
        <ele>17.92</ele>
        <time>2014-01-20T13:29:02Z</time>
      </trkpt>
      <trkpt lat="48.01436" lon="-4.54448">
        <ele>17.44</ele>
        <time>2014-01-20T13:29:04Z</time>
      </trkpt>
      <trkpt lat="48.01442" lon="-4.5446">
        <ele>15.52</ele>
        <time>2014-01-20T13:29:13Z</time>
      </trkpt>
      <trkpt lat="48.01443" lon="-4.54461">
        <ele>15.04</ele>
        <time>2014-01-20T13:29:14Z</time>
      </trkpt>
      <trkpt lat="48.01449" lon="-4.54476">
        <ele>15.52</ele>
        <time>2014-01-20T13:29:22Z</time>
      </trkpt>
      <trkpt lat="48.01452" lon="-4.54483">
        <ele>15.52</ele>
        <time>2014-01-20T13:29:27Z</time>
      </trkpt>
      <trkpt lat="48.01452" lon="-4.54496">
        <ele>15.52</ele>
        <time>2014-01-20T13:29:34Z</time>
      </trkpt>
      <trkpt lat="48.01458" lon="-4.54515">
        <ele>15.52</ele>
        <time>2014-01-20T13:29:44Z</time>
      </trkpt>
      <trkpt lat="48.01459" lon="-4.54516">
        <ele>15.52</ele>
        <time>2014-01-20T13:29:45Z</time>
      </trkpt>
      <trkpt lat="48.01461" lon="-4.54536">
        <ele>14.56</ele>
        <time>2014-01-20T13:29:54Z</time>
      </trkpt>
      <trkpt lat="48.01463" lon="-4.54539">
        <ele>14.56</ele>
        <time>2014-01-20T13:29:56Z</time>
      </trkpt>
      <trkpt lat="48.01466" lon="-4.54549">
        <ele>14.08</ele>
        <time>2014-01-20T13:30:02Z</time>
      </trkpt>
      <trkpt lat="48.01467" lon="-4.54552">
        <ele>14.08</ele>
        <time>2014-01-20T13:30:04Z</time>
      </trkpt>
      <trkpt lat="48.0147" lon="-4.54561">
        <ele>13.6</ele>
        <time>2014-01-20T13:30:10Z</time>
      </trkpt>
      <trkpt lat="48.0148" lon="-4.54579">
        <ele>15.04</ele>
        <time>2014-01-20T13:30:21Z</time>
      </trkpt>
      <trkpt lat="48.01483" lon="-4.54587">
        <ele>15.52</ele>
        <time>2014-01-20T13:30:26Z</time>
      </trkpt>
      <trkpt lat="48.01486" lon="-4.54598">
        <ele>15.52</ele>
        <time>2014-01-20T13:30:32Z</time>
      </trkpt>
      <trkpt lat="48.0149" lon="-4.54607">
        <ele>16.96</ele>
        <time>2014-01-20T13:30:37Z</time>
      </trkpt>
      <trkpt lat="48.01499" lon="-4.54632">
        <ele>17.92</ele>
        <time>2014-01-20T13:30:51Z</time>
      </trkpt>
      <trkpt lat="48.015" lon="-4.54634">
        <ele>19.84</ele>
        <time>2014-01-20T13:30:53Z</time>
      </trkpt>
      <trkpt lat="48.01503" lon="-4.5464">
        <ele>19.84</ele>
        <time>2014-01-20T13:30:57Z</time>
      </trkpt>
      <trkpt lat="48.01505" lon="-4.54648">
        <ele>19.84</ele>
        <time>2014-01-20T13:31:01Z</time>
      </trkpt>
      <trkpt lat="48.01511" lon="-4.54669">
        <ele>20.32</ele>
        <time>2014-01-20T13:31:12Z</time>
      </trkpt>
      <trkpt lat="48.01514" lon="-4.54681">
        <ele>21.29</ele>
        <time>2014-01-20T13:31:18Z</time>
      </trkpt>
      <trkpt lat="48.01517" lon="-4.54691">
        <ele>20.81</ele>
        <time>2014-01-20T13:31:24Z</time>
      </trkpt>
      <trkpt lat="48.0152" lon="-4.547">
        <ele>20.32</ele>
        <time>2014-01-20T13:31:29Z</time>
      </trkpt>
      <trkpt lat="48.01522" lon="-4.54712">
        <ele>20.32</ele>
        <time>2014-01-20T13:31:35Z</time>
      </trkpt>
      <trkpt lat="48.01524" lon="-4.54724">
        <ele>19.84</ele>
        <time>2014-01-20T13:31:41Z</time>
      </trkpt>
      <trkpt lat="48.01524" lon="-4.5473">
        <ele>19.36</ele>
        <time>2014-01-20T13:31:44Z</time>
      </trkpt>
      <trkpt lat="48.01529" lon="-4.54748">
        <ele>19.36</ele>
        <time>2014-01-20T13:31:53Z</time>
      </trkpt>
      <trkpt lat="48.0153" lon="-4.54751">
        <ele>19.36</ele>
        <time>2014-01-20T13:31:55Z</time>
      </trkpt>
      <trkpt lat="48.0153" lon="-4.54758">
        <ele>18.88</ele>
        <time>2014-01-20T13:31:58Z</time>
      </trkpt>
      <trkpt lat="48.01537" lon="-4.54775">
        <ele>19.36</ele>
        <time>2014-01-20T13:32:07Z</time>
      </trkpt>
      <trkpt lat="48.01538" lon="-4.54777">
        <ele>19.36</ele>
        <time>2014-01-20T13:32:08Z</time>
      </trkpt>
      <trkpt lat="48.01542" lon="-4.54796">
        <ele>20.81</ele>
        <time>2014-01-20T13:32:17Z</time>
      </trkpt>
      <trkpt lat="48.01543" lon="-4.548">
        <ele>21.29</ele>
        <time>2014-01-20T13:32:19Z</time>
      </trkpt>
      <trkpt lat="48.01545" lon="-4.54811">
        <ele>22.73</ele>
        <time>2014-01-20T13:32:25Z</time>
      </trkpt>
      <trkpt lat="48.01541" lon="-4.54814">
        <ele>23.21</ele>
        <time>2014-01-20T13:32:28Z</time>
      </trkpt>
      <trkpt lat="48.01534" lon="-4.54829">
        <ele>26.09</ele>
        <time>2014-01-20T13:32:38Z</time>
      </trkpt>
      <trkpt lat="48.01527" lon="-4.54841">
        <ele>28.02</ele>
        <time>2014-01-20T13:32:48Z</time>
      </trkpt>
      <trkpt lat="48.01515" lon="-4.54868">
        <ele>25.61</ele>
        <time>2014-01-20T13:33:02Z</time>
      </trkpt>
      <trkpt lat="48.01505" lon="-4.54873">
        <ele>24.65</ele>
        <time>2014-01-20T13:33:10Z</time>
      </trkpt>
      <trkpt lat="48.01491" lon="-4.5488">
        <ele>22.73</ele>
        <time>2014-01-20T13:33:22Z</time>
      </trkpt>
      <trkpt lat="48.01484" lon="-4.54885">
        <ele>21.77</ele>
        <time>2014-01-20T13:33:27Z</time>
      </trkpt>
      <trkpt lat="48.01469" lon="-4.5489">
        <ele>21.29</ele>
        <time>2014-01-20T13:33:40Z</time>
      </trkpt>
      <trkpt lat="48.01467" lon="-4.54891">
        <ele>20.81</ele>
        <time>2014-01-20T13:33:41Z</time>
      </trkpt>
      <trkpt lat="48.01451" lon="-4.54897">
        <ele>18.88</ele>
        <time>2014-01-20T13:33:54Z</time>
      </trkpt>
      <trkpt lat="48.01438" lon="-4.54904">
        <ele>17.44</ele>
        <time>2014-01-20T13:34:04Z</time>
      </trkpt>
      <trkpt lat="48.01428" lon="-4.54914">
        <ele>16.96</ele>
        <time>2014-01-20T13:34:13Z</time>
      </trkpt>
      <trkpt lat="48.0142" lon="-4.54919">
        <ele>16</ele>
        <time>2014-01-20T13:34:19Z</time>
      </trkpt>
      <trkpt lat="48.01405" lon="-4.54923">
        <ele>15.04</ele>
        <time>2014-01-20T13:34:31Z</time>
      </trkpt>
      <trkpt lat="48.01392" lon="-4.54924">
        <ele>13.6</ele>
        <time>2014-01-20T13:34:41Z</time>
      </trkpt>
      <trkpt lat="48.0139" lon="-4.54924">
        <ele>13.6</ele>
        <time>2014-01-20T13:34:42Z</time>
      </trkpt>
      <trkpt lat="48.01378" lon="-4.54923">
        <ele>12.63</ele>
        <time>2014-01-20T13:34:53Z</time>
      </trkpt>
      <trkpt lat="48.01375" lon="-4.54924">
        <ele>12.63</ele>
        <time>2014-01-20T13:34:55Z</time>
      </trkpt>
      <trkpt lat="48.01361" lon="-4.54924">
        <ele>11.19</ele>
        <time>2014-01-20T13:35:05Z</time>
      </trkpt>
      <trkpt lat="48.01346" lon="-4.54925">
        <ele>9.27</ele>
        <time>2014-01-20T13:35:16Z</time>
      </trkpt>
      <trkpt lat="48.01344" lon="-4.54925">
        <ele>8.79</ele>
        <time>2014-01-20T13:35:17Z</time>
      </trkpt>
      <trkpt lat="48.01327" lon="-4.54925">
        <ele>6.39</ele>
        <time>2014-01-20T13:35:30Z</time>
      </trkpt>
      <trkpt lat="48.01326" lon="-4.54925">
        <ele>6.39</ele>
        <time>2014-01-20T13:35:31Z</time>
      </trkpt>
      <trkpt lat="48.0131" lon="-4.54923">
        <ele>5.91</ele>
        <time>2014-01-20T13:35:43Z</time>
      </trkpt>
      <trkpt lat="48.01293" lon="-4.54922">
        <ele>6.87</ele>
        <time>2014-01-20T13:35:55Z</time>
      </trkpt>
      <trkpt lat="48.01286" lon="-4.54923">
        <ele>7.35</ele>
        <time>2014-01-20T13:36:00Z</time>
      </trkpt>
      <trkpt lat="48.01284" lon="-4.54923">
        <ele>6.87</ele>
        <time>2014-01-20T13:36:02Z</time>
      </trkpt>
      <trkpt lat="48.01278" lon="-4.54922">
        <ele>6.39</ele>
        <time>2014-01-20T13:36:07Z</time>
      </trkpt>
      <trkpt lat="48.01271" lon="-4.54925">
        <ele>5.42</ele>
        <time>2014-01-20T13:36:12Z</time>
      </trkpt>
      <trkpt lat="48.01259" lon="-4.54936">
        <ele>6.87</ele>
        <time>2014-01-20T13:36:22Z</time>
      </trkpt>
      <trkpt lat="48.01256" lon="-4.54938">
        <ele>6.87</ele>
        <time>2014-01-20T13:36:25Z</time>
      </trkpt>
      <trkpt lat="48.01241" lon="-4.5495">
        <ele>8.79</ele>
        <time>2014-01-20T13:36:37Z</time>
      </trkpt>
      <trkpt lat="48.01233" lon="-4.54954">
        <ele>9.27</ele>
        <time>2014-01-20T13:36:44Z</time>
      </trkpt>
      <trkpt lat="48.01228" lon="-4.54965">
        <ele>10.71</ele>
        <time>2014-01-20T13:36:51Z</time>
      </trkpt>
      <trkpt lat="48.01226" lon="-4.54968">
        <ele>10.71</ele>
        <time>2014-01-20T13:36:54Z</time>
      </trkpt>
      <trkpt lat="48.01219" lon="-4.54975">
        <ele>9.75</ele>
        <time>2014-01-20T13:37:00Z</time>
      </trkpt>
      <trkpt lat="48.01204" lon="-4.54989">
        <ele>8.79</ele>
        <time>2014-01-20T13:37:12Z</time>
      </trkpt>
      <trkpt lat="48.01203" lon="-4.54991">
        <ele>8.79</ele>
        <time>2014-01-20T13:37:13Z</time>
      </trkpt>
      <trkpt lat="48.01198" lon="-4.55006">
        <ele>7.83</ele>
        <time>2014-01-20T13:37:22Z</time>
      </trkpt>
      <trkpt lat="48.01193" lon="-4.55021">
        <ele>6.39</ele>
        <time>2014-01-20T13:37:32Z</time>
      </trkpt>
      <trkpt lat="48.01191" lon="-4.55027">
        <ele>5.91</ele>
        <time>2014-01-20T13:37:35Z</time>
      </trkpt>
      <trkpt lat="48.0119" lon="-4.55038">
        <ele>5.42</ele>
        <time>2014-01-20T13:37:43Z</time>
      </trkpt>
      <trkpt lat="48.01189" lon="-4.55047">
        <ele>4.94</ele>
        <time>2014-01-20T13:37:50Z</time>
      </trkpt>
      <trkpt lat="48.01186" lon="-4.55061">
        <ele>8.31</ele>
        <time>2014-01-20T13:37:57Z</time>
      </trkpt>
      <trkpt lat="48.01185" lon="-4.55068">
        <ele>9.27</ele>
        <time>2014-01-20T13:38:00Z</time>
      </trkpt>
      <trkpt lat="48.01183" lon="-4.55071">
        <ele>9.75</ele>
        <time>2014-01-20T13:38:02Z</time>
      </trkpt>
      <trkpt lat="48.01183" lon="-4.5508">
        <ele>10.23</ele>
        <time>2014-01-20T13:38:07Z</time>
      </trkpt>
      <trkpt lat="48.01182" lon="-4.55085">
        <ele>10.23</ele>
        <time>2014-01-20T13:38:10Z</time>
      </trkpt>
      <trkpt lat="48.01182" lon="-4.55091">
        <ele>9.27</ele>
        <time>2014-01-20T13:38:13Z</time>
      </trkpt>
      <trkpt lat="48.01182" lon="-4.55096">
        <ele>8.79</ele>
        <time>2014-01-20T13:38:16Z</time>
      </trkpt>
      <trkpt lat="48.01182" lon="-4.55114">
        <ele>7.35</ele>
        <time>2014-01-20T13:38:26Z</time>
      </trkpt>
      <trkpt lat="48.0118" lon="-4.55121">
        <ele>7.35</ele>
        <time>2014-01-20T13:38:30Z</time>
      </trkpt>
      <trkpt lat="48.0118" lon="-4.55126">
        <ele>7.35</ele>
        <time>2014-01-20T13:38:33Z</time>
      </trkpt>
      <trkpt lat="48.01179" lon="-4.55135">
        <ele>7.83</ele>
        <time>2014-01-20T13:38:38Z</time>
      </trkpt>
      <trkpt lat="48.01176" lon="-4.55153">
        <ele>8.79</ele>
        <time>2014-01-20T13:38:47Z</time>
      </trkpt>
      <trkpt lat="48.01174" lon="-4.55161">
        <ele>8.79</ele>
        <time>2014-01-20T13:38:51Z</time>
      </trkpt>
      <trkpt lat="48.01171" lon="-4.55174">
        <ele>9.27</ele>
        <time>2014-01-20T13:38:59Z</time>
      </trkpt>
      <trkpt lat="48.01157" lon="-4.55193">
        <ele>12.15</ele>
        <time>2014-01-20T13:39:12Z</time>
      </trkpt>
      <trkpt lat="48.01144" lon="-4.55209">
        <ele>14.56</ele>
        <time>2014-01-20T13:39:23Z</time>
      </trkpt>
      <trkpt lat="48.01137" lon="-4.55213">
        <ele>14.56</ele>
        <time>2014-01-20T13:39:28Z</time>
      </trkpt>
      <trkpt lat="48.01125" lon="-4.55228">
        <ele>13.6</ele>
        <time>2014-01-20T13:39:40Z</time>
      </trkpt>
      <trkpt lat="48.01117" lon="-4.55236">
        <ele>13.6</ele>
        <time>2014-01-20T13:39:47Z</time>
      </trkpt>
      <trkpt lat="48.0111" lon="-4.55248">
        <ele>14.08</ele>
        <time>2014-01-20T13:39:55Z</time>
      </trkpt>
      <trkpt lat="48.01098" lon="-4.55261">
        <ele>13.6</ele>
        <time>2014-01-20T13:40:07Z</time>
      </trkpt>
      <trkpt lat="48.01097" lon="-4.55262">
        <ele>13.6</ele>
        <time>2014-01-20T13:40:08Z</time>
      </trkpt>
      <trkpt lat="48.01089" lon="-4.55276">
        <ele>15.04</ele>
        <time>2014-01-20T13:40:17Z</time>
      </trkpt>
      <trkpt lat="48.0108" lon="-4.5529">
        <ele>13.6</ele>
        <time>2014-01-20T13:40:26Z</time>
      </trkpt>
      <trkpt lat="48.01071" lon="-4.55311">
        <ele>14.08</ele>
        <time>2014-01-20T13:40:37Z</time>
      </trkpt>
      <trkpt lat="48.01065" lon="-4.55327">
        <ele>13.6</ele>
        <time>2014-01-20T13:40:46Z</time>
      </trkpt>
      <trkpt lat="48.01058" lon="-4.55345">
        <ele>14.08</ele>
        <time>2014-01-20T13:40:57Z</time>
      </trkpt>
      <trkpt lat="48.01051" lon="-4.55364">
        <ele>13.6</ele>
        <time>2014-01-20T13:41:08Z</time>
      </trkpt>
      <trkpt lat="48.01044" lon="-4.55384">
        <ele>14.56</ele>
        <time>2014-01-20T13:41:19Z</time>
      </trkpt>
      <trkpt lat="48.01038" lon="-4.55406">
        <ele>15.52</ele>
        <time>2014-01-20T13:41:31Z</time>
      </trkpt>
      <trkpt lat="48.01034" lon="-4.55423">
        <ele>15.52</ele>
        <time>2014-01-20T13:41:40Z</time>
      </trkpt>
      <trkpt lat="48.01034" lon="-4.55428">
        <ele>15.04</ele>
        <time>2014-01-20T13:41:42Z</time>
      </trkpt>
      <trkpt lat="48.01032" lon="-4.55438">
        <ele>14.56</ele>
        <time>2014-01-20T13:41:47Z</time>
      </trkpt>
      <trkpt lat="48.01029" lon="-4.55458">
        <ele>12.63</ele>
        <time>2014-01-20T13:41:57Z</time>
      </trkpt>
      <trkpt lat="48.01029" lon="-4.55475">
        <ele>10.23</ele>
        <time>2014-01-20T13:42:05Z</time>
      </trkpt>
      <trkpt lat="48.01029" lon="-4.55479">
        <ele>9.75</ele>
        <time>2014-01-20T13:42:07Z</time>
      </trkpt>
      <trkpt lat="48.01029" lon="-4.55486">
        <ele>8.79</ele>
        <time>2014-01-20T13:42:11Z</time>
      </trkpt>
      <trkpt lat="48.0103" lon="-4.55492">
        <ele>7.35</ele>
        <time>2014-01-20T13:42:14Z</time>
      </trkpt>
      <trkpt lat="48.0103" lon="-4.55497">
        <ele>6.87</ele>
        <time>2014-01-20T13:42:17Z</time>
      </trkpt>
      <trkpt lat="48.01031" lon="-4.55502">
        <ele>6.87</ele>
        <time>2014-01-20T13:42:20Z</time>
      </trkpt>
      <trkpt lat="48.01029" lon="-4.55522">
        <ele>6.87</ele>
        <time>2014-01-20T13:42:31Z</time>
      </trkpt>
      <trkpt lat="48.01027" lon="-4.55543">
        <ele>6.87</ele>
        <time>2014-01-20T13:42:41Z</time>
      </trkpt>
      <trkpt lat="48.01024" lon="-4.55551">
        <ele>8.31</ele>
        <time>2014-01-20T13:42:45Z</time>
      </trkpt>
      <trkpt lat="48.01014" lon="-4.55571">
        <ele>8.31</ele>
        <time>2014-01-20T13:42:57Z</time>
      </trkpt>
      <trkpt lat="48.01007" lon="-4.55581">
        <ele>8.31</ele>
        <time>2014-01-20T13:43:04Z</time>
      </trkpt>
      <trkpt lat="48.00999" lon="-4.55594">
        <ele>8.31</ele>
        <time>2014-01-20T13:43:13Z</time>
      </trkpt>
      <trkpt lat="48.0099" lon="-4.55609">
        <ele>7.35</ele>
        <time>2014-01-20T13:43:23Z</time>
      </trkpt>
      <trkpt lat="48.00982" lon="-4.55623">
        <ele>5.42</ele>
        <time>2014-01-20T13:43:33Z</time>
      </trkpt>
      <trkpt lat="48.00977" lon="-4.55625">
        <ele>4.94</ele>
        <time>2014-01-20T13:43:38Z</time>
      </trkpt>
      <trkpt lat="48.00975" lon="-4.55626">
        <ele>4.46</ele>
        <time>2014-01-20T13:43:40Z</time>
      </trkpt>
      <trkpt lat="48.0097" lon="-4.55624">
        <ele>4.46</ele>
        <time>2014-01-20T13:43:44Z</time>
      </trkpt>
      <trkpt lat="48.00967" lon="-4.55624">
        <ele>4.46</ele>
        <time>2014-01-20T13:43:46Z</time>
      </trkpt>
      <trkpt lat="48.0096" lon="-4.55628">
        <ele>2.54</ele>
        <time>2014-01-20T13:43:52Z</time>
      </trkpt>
      <trkpt lat="48.00942" lon="-4.55634">
        <ele>2.54</ele>
        <time>2014-01-20T13:44:05Z</time>
      </trkpt>
      <trkpt lat="48.0093" lon="-4.55634">
        <ele>4.46</ele>
        <time>2014-01-20T13:44:14Z</time>
      </trkpt>
      <trkpt lat="48.00923" lon="-4.55631">
        <ele>5.42</ele>
        <time>2014-01-20T13:44:19Z</time>
      </trkpt>
      <trkpt lat="48.00909" lon="-4.5562">
        <ele>6.87</ele>
        <time>2014-01-20T13:44:31Z</time>
      </trkpt>
      <trkpt lat="48.00901" lon="-4.55608">
        <ele>7.83</ele>
        <time>2014-01-20T13:44:40Z</time>
      </trkpt>
      <trkpt lat="48.0089" lon="-4.55602">
        <ele>6.87</ele>
        <time>2014-01-20T13:44:49Z</time>
      </trkpt>
      <trkpt lat="48.0088" lon="-4.55597">
        <ele>5.42</ele>
        <time>2014-01-20T13:44:58Z</time>
      </trkpt>
      <trkpt lat="48.00868" lon="-4.55602">
        <ele>3.98</ele>
        <time>2014-01-20T13:45:09Z</time>
      </trkpt>
      <trkpt lat="48.00864" lon="-4.55606">
        <ele>3.98</ele>
        <time>2014-01-20T13:45:13Z</time>
      </trkpt>
      <trkpt lat="48.0086" lon="-4.55621">
        <ele>4.94</ele>
        <time>2014-01-20T13:45:22Z</time>
      </trkpt>
      <trkpt lat="48.00846" lon="-4.55627">
        <ele>4.94</ele>
        <time>2014-01-20T13:45:34Z</time>
      </trkpt>
      <trkpt lat="48.00832" lon="-4.55636">
        <ele>3.5</ele>
        <time>2014-01-20T13:45:45Z</time>
      </trkpt>
      <trkpt lat="48.00823" lon="-4.55649">
        <ele>1.58</ele>
        <time>2014-01-20T13:45:55Z</time>
      </trkpt>
      <trkpt lat="48.00815" lon="-4.55668">
        <ele>2.54</ele>
        <time>2014-01-20T13:46:06Z</time>
      </trkpt>
      <trkpt lat="48.00804" lon="-4.55685">
        <ele>4.94</ele>
        <time>2014-01-20T13:46:17Z</time>
      </trkpt>
      <trkpt lat="48.00793" lon="-4.55702">
        <ele>5.91</ele>
        <time>2014-01-20T13:46:28Z</time>
      </trkpt>
      <trkpt lat="48.00783" lon="-4.55712">
        <ele>6.87</ele>
        <time>2014-01-20T13:46:38Z</time>
      </trkpt>
      <trkpt lat="48.00782" lon="-4.55714">
        <ele>6.87</ele>
        <time>2014-01-20T13:46:39Z</time>
      </trkpt>
      <trkpt lat="48.00774" lon="-4.55719">
        <ele>6.39</ele>
        <time>2014-01-20T13:46:45Z</time>
      </trkpt>
      <trkpt lat="48.00763" lon="-4.55736">
        <ele>7.35</ele>
        <time>2014-01-20T13:46:57Z</time>
      </trkpt>
      <trkpt lat="48.00763" lon="-4.55737">
        <ele>7.35</ele>
        <time>2014-01-20T13:46:58Z</time>
      </trkpt>
      <trkpt lat="48.00754" lon="-4.55742">
        <ele>7.35</ele>
        <time>2014-01-20T13:47:05Z</time>
      </trkpt>
      <trkpt lat="48.00744" lon="-4.55746">
        <ele>6.87</ele>
        <time>2014-01-20T13:47:13Z</time>
      </trkpt>
      <trkpt lat="48.00737" lon="-4.55745">
        <ele>5.42</ele>
        <time>2014-01-20T13:47:19Z</time>
      </trkpt>
      <trkpt lat="48.0073" lon="-4.55746">
        <ele>4.46</ele>
        <time>2014-01-20T13:47:25Z</time>
      </trkpt>
      <trkpt lat="48.00719" lon="-4.55746">
        <ele>3.98</ele>
        <time>2014-01-20T13:47:33Z</time>
      </trkpt>
      <trkpt lat="48.00711" lon="-4.55743">
        <ele>3.98</ele>
        <time>2014-01-20T13:47:39Z</time>
      </trkpt>
      <trkpt lat="48.00703" lon="-4.55743">
        <ele>3.5</ele>
        <time>2014-01-20T13:47:45Z</time>
      </trkpt>
      <trkpt lat="48.00693" lon="-4.55741">
        <ele>4.46</ele>
        <time>2014-01-20T13:47:52Z</time>
      </trkpt>
      <trkpt lat="48.00686" lon="-4.55742">
        <ele>3.02</ele>
        <time>2014-01-20T13:47:57Z</time>
      </trkpt>
      <trkpt lat="48.0067" lon="-4.55746">
        <ele>2.06</ele>
        <time>2014-01-20T13:48:09Z</time>
      </trkpt>
      <trkpt lat="48.00669" lon="-4.55746">
        <ele>1.58</ele>
        <time>2014-01-20T13:48:10Z</time>
      </trkpt>
      <trkpt lat="48.00663" lon="-4.55743">
        <ele>2.54</ele>
        <time>2014-01-20T13:48:15Z</time>
      </trkpt>
      <trkpt lat="48.00646" lon="-4.55743">
        <ele>2.06</ele>
        <time>2014-01-20T13:48:27Z</time>
      </trkpt>
      <trkpt lat="48.00633" lon="-4.55743">
        <ele>2.06</ele>
        <time>2014-01-20T13:48:37Z</time>
      </trkpt>
      <trkpt lat="48.0063" lon="-4.55741">
        <ele>2.06</ele>
        <time>2014-01-20T13:48:40Z</time>
      </trkpt>
      <trkpt lat="48.00619" lon="-4.55728">
        <ele>2.54</ele>
        <time>2014-01-20T13:48:51Z</time>
      </trkpt>
      <trkpt lat="48.00608" lon="-4.55714">
        <ele>2.54</ele>
        <time>2014-01-20T13:49:02Z</time>
      </trkpt>
      <trkpt lat="48.00606" lon="-4.55713">
        <ele>2.06</ele>
        <time>2014-01-20T13:49:04Z</time>
      </trkpt>
      <trkpt lat="48.00597" lon="-4.55706">
        <ele>0.62</ele>
        <time>2014-01-20T13:49:12Z</time>
      </trkpt>
      <trkpt lat="48.00595" lon="-4.5571">
        <ele>-1.79</ele>
        <time>2014-01-20T13:49:17Z</time>
      </trkpt>
      <trkpt lat="48.00585" lon="-4.55702">
        <ele>-1.79</ele>
        <time>2014-01-20T13:49:25Z</time>
      </trkpt>
      <trkpt lat="48.00575" lon="-4.557">
        <ele>-1.3</ele>
        <time>2014-01-20T13:49:32Z</time>
      </trkpt>
      <trkpt lat="48.00569" lon="-4.55697">
        <ele>-0.82</ele>
        <time>2014-01-20T13:49:36Z</time>
      </trkpt>
      <trkpt lat="48.00555" lon="-4.55696">
        <ele>-0.34</ele>
        <time>2014-01-20T13:49:46Z</time>
      </trkpt>
      <trkpt lat="48.00551" lon="-4.55697">
        <ele>-0.34</ele>
        <time>2014-01-20T13:49:50Z</time>
      </trkpt>
      <trkpt lat="48.0054" lon="-4.55692">
        <ele>1.1</ele>
        <time>2014-01-20T13:49:57Z</time>
      </trkpt>
      <trkpt lat="48.00524" lon="-4.55686">
        <ele>2.54</ele>
        <time>2014-01-20T13:50:08Z</time>
      </trkpt>
      <trkpt lat="48.0052" lon="-4.55686">
        <ele>3.5</ele>
        <time>2014-01-20T13:50:12Z</time>
      </trkpt>
      <trkpt lat="48.00506" lon="-4.55697">
        <ele>6.39</ele>
        <time>2014-01-20T13:50:24Z</time>
      </trkpt>
      <trkpt lat="48.00505" lon="-4.55699">
        <ele>6.39</ele>
        <time>2014-01-20T13:50:26Z</time>
      </trkpt>
      <trkpt lat="48.00497" lon="-4.55715">
        <ele>6.39</ele>
        <time>2014-01-20T13:50:36Z</time>
      </trkpt>
      <trkpt lat="48.00493" lon="-4.55729">
        <ele>7.35</ele>
        <time>2014-01-20T13:50:44Z</time>
      </trkpt>
      <trkpt lat="48.00489" lon="-4.55744">
        <ele>6.39</ele>
        <time>2014-01-20T13:50:52Z</time>
      </trkpt>
      <trkpt lat="48.00478" lon="-4.55758">
        <ele>6.39</ele>
        <time>2014-01-20T13:51:03Z</time>
      </trkpt>
      <trkpt lat="48.00467" lon="-4.55769">
        <ele>5.42</ele>
        <time>2014-01-20T13:51:12Z</time>
      </trkpt>
      <trkpt lat="48.00457" lon="-4.55776">
        <ele>5.42</ele>
        <time>2014-01-20T13:51:21Z</time>
      </trkpt>
      <trkpt lat="48.00451" lon="-4.55779">
        <ele>4.46</ele>
        <time>2014-01-20T13:51:26Z</time>
      </trkpt>
      <trkpt lat="48.00441" lon="-4.55782">
        <ele>4.46</ele>
        <time>2014-01-20T13:51:34Z</time>
      </trkpt>
      <trkpt lat="48.00428" lon="-4.55787">
        <ele>4.94</ele>
        <time>2014-01-20T13:51:44Z</time>
      </trkpt>
      <trkpt lat="48.00415" lon="-4.55794">
        <ele>4.94</ele>
        <time>2014-01-20T13:51:54Z</time>
      </trkpt>
      <trkpt lat="48.00411" lon="-4.55809">
        <ele>4.94</ele>
        <time>2014-01-20T13:52:03Z</time>
      </trkpt>
      <trkpt lat="48.00412" lon="-4.55816">
        <ele>4.94</ele>
        <time>2014-01-20T13:52:08Z</time>
      </trkpt>
      <trkpt lat="48.00409" lon="-4.55823">
        <ele>5.42</ele>
        <time>2014-01-20T13:52:12Z</time>
      </trkpt>
      <trkpt lat="48.00408" lon="-4.55831">
        <ele>5.91</ele>
        <time>2014-01-20T13:52:16Z</time>
      </trkpt>
      <trkpt lat="48.00402" lon="-4.55847">
        <ele>5.42</ele>
        <time>2014-01-20T13:52:27Z</time>
      </trkpt>
      <trkpt lat="48.00401" lon="-4.5585">
        <ele>5.42</ele>
        <time>2014-01-20T13:52:29Z</time>
      </trkpt>
      <trkpt lat="48.00396" lon="-4.55865">
        <ele>5.42</ele>
        <time>2014-01-20T13:52:38Z</time>
      </trkpt>
      <trkpt lat="48.00391" lon="-4.55875">
        <ele>5.91</ele>
        <time>2014-01-20T13:52:45Z</time>
      </trkpt>
      <trkpt lat="48.00389" lon="-4.5588">
        <ele>5.91</ele>
        <time>2014-01-20T13:52:48Z</time>
      </trkpt>
      <trkpt lat="48.00382" lon="-4.55894">
        <ele>4.94</ele>
        <time>2014-01-20T13:52:57Z</time>
      </trkpt>
      <trkpt lat="48.0038" lon="-4.55899">
        <ele>4.46</ele>
        <time>2014-01-20T13:53:00Z</time>
      </trkpt>
      <trkpt lat="48.00375" lon="-4.5591">
        <ele>4.46</ele>
        <time>2014-01-20T13:53:08Z</time>
      </trkpt>
      <trkpt lat="48.00367" lon="-4.55927">
        <ele>4.94</ele>
        <time>2014-01-20T13:53:20Z</time>
      </trkpt>
      <trkpt lat="48.00361" lon="-4.55934">
        <ele>5.42</ele>
        <time>2014-01-20T13:53:26Z</time>
      </trkpt>
      <trkpt lat="48.00352" lon="-4.55948">
        <ele>4.46</ele>
        <time>2014-01-20T13:53:36Z</time>
      </trkpt>
      <trkpt lat="48.00346" lon="-4.55956">
        <ele>4.46</ele>
        <time>2014-01-20T13:53:45Z</time>
      </trkpt>
      <trkpt lat="48.00337" lon="-4.55961">
        <ele>3.02</ele>
        <time>2014-01-20T13:53:54Z</time>
      </trkpt>
      <trkpt lat="48.00333" lon="-4.55965">
        <ele>3.02</ele>
        <time>2014-01-20T13:53:59Z</time>
      </trkpt>
      <trkpt lat="48.00328" lon="-4.5597">
        <ele>3.02</ele>
        <time>2014-01-20T13:54:04Z</time>
      </trkpt>
      <trkpt lat="48.00323" lon="-4.55973">
        <ele>3.02</ele>
        <time>2014-01-20T13:54:09Z</time>
      </trkpt>
      <trkpt lat="48.00312" lon="-4.55984">
        <ele>3.02</ele>
        <time>2014-01-20T13:54:20Z</time>
      </trkpt>
      <trkpt lat="48.00308" lon="-4.55987">
        <ele>3.02</ele>
        <time>2014-01-20T13:54:31Z</time>
      </trkpt>
      <trkpt lat="48.00308" lon="-4.55987">
        <ele>3.5</ele>
        <time>2014-01-20T13:54:42Z</time>
      </trkpt>
      <trkpt lat="48.00306" lon="-4.55988">
        <ele>4.46</ele>
        <time>2014-01-20T13:54:51Z</time>
      </trkpt>
      <trkpt lat="48.00305" lon="-4.55988">
        <ele>4.94</ele>
        <time>2014-01-20T13:55:00Z</time>
      </trkpt>
      <trkpt lat="48.00306" lon="-4.55988">
        <ele>5.42</ele>
        <time>2014-01-20T13:55:19Z</time>
      </trkpt>
      <trkpt lat="48.00303" lon="-4.55989">
        <ele>5.42</ele>
        <time>2014-01-20T13:55:23Z</time>
      </trkpt>
      <trkpt lat="48.003" lon="-4.55993">
        <ele>5.91</ele>
        <time>2014-01-20T13:55:26Z</time>
      </trkpt>
      <trkpt lat="48.00297" lon="-4.55993">
        <ele>5.42</ele>
        <time>2014-01-20T13:55:28Z</time>
      </trkpt>
      <trkpt lat="48.00286" lon="-4.55998">
        <ele>4.46</ele>
        <time>2014-01-20T13:55:38Z</time>
      </trkpt>
      <trkpt lat="48.00273" lon="-4.56004">
        <ele>3.98</ele>
        <time>2014-01-20T13:55:48Z</time>
      </trkpt>
      <trkpt lat="48.00269" lon="-4.56005">
        <ele>4.46</ele>
        <time>2014-01-20T13:55:51Z</time>
      </trkpt>
      <trkpt lat="48.00263" lon="-4.56018">
        <ele>3.02</ele>
        <time>2014-01-20T13:55:59Z</time>
      </trkpt>
      <trkpt lat="48.00262" lon="-4.5602">
        <ele>2.54</ele>
        <time>2014-01-20T13:56:02Z</time>
      </trkpt>
      <trkpt lat="48.00262" lon="-4.56028">
        <ele>2.06</ele>
        <time>2014-01-20T13:56:06Z</time>
      </trkpt>
      <trkpt lat="48.00262" lon="-4.56035">
        <ele>2.06</ele>
        <time>2014-01-20T13:56:09Z</time>
      </trkpt>
      <trkpt lat="48.00259" lon="-4.56043">
        <ele>1.58</ele>
        <time>2014-01-20T13:56:14Z</time>
      </trkpt>
      <trkpt lat="48.0026" lon="-4.56051">
        <ele>1.58</ele>
        <time>2014-01-20T13:56:19Z</time>
      </trkpt>
      <trkpt lat="48.0026" lon="-4.56066">
        <ele>1.58</ele>
        <time>2014-01-20T13:56:28Z</time>
      </trkpt>
      <trkpt lat="48.0026" lon="-4.56084">
        <ele>-0.82</ele>
        <time>2014-01-20T13:56:39Z</time>
      </trkpt>
      <trkpt lat="48.0026" lon="-4.56095">
        <ele>-3.23</ele>
        <time>2014-01-20T13:56:45Z</time>
      </trkpt>
      <trkpt lat="48.00261" lon="-4.56105">
        <ele>-3.23</ele>
        <time>2014-01-20T13:56:51Z</time>
      </trkpt>
      <trkpt lat="48.0026" lon="-4.56121">
        <ele>-3.23</ele>
        <time>2014-01-20T13:57:00Z</time>
      </trkpt>
      <trkpt lat="48.00259" lon="-4.56122">
        <ele>-3.23</ele>
        <time>2014-01-20T13:57:01Z</time>
      </trkpt>
      <trkpt lat="48.0026" lon="-4.56131">
        <ele>-2.75</ele>
        <time>2014-01-20T13:57:06Z</time>
      </trkpt>
      <trkpt lat="48.00259" lon="-4.56136">
        <ele>-2.75</ele>
        <time>2014-01-20T13:57:09Z</time>
      </trkpt>
      <trkpt lat="48.00257" lon="-4.56158">
        <ele>-2.27</ele>
        <time>2014-01-20T13:57:20Z</time>
      </trkpt>
      <trkpt lat="48.00257" lon="-4.5616">
        <ele>-2.27</ele>
        <time>2014-01-20T13:57:22Z</time>
      </trkpt>
      <trkpt lat="48.0026" lon="-4.56161">
        <ele>-1.3</ele>
        <time>2014-01-20T13:57:31Z</time>
      </trkpt>
      <trkpt lat="48.00259" lon="-4.56164">
        <ele>0.62</ele>
        <time>2014-01-20T13:57:42Z</time>
      </trkpt>
      <trkpt lat="48.00259" lon="-4.56162">
        <ele>0.62</ele>
        <time>2014-01-20T13:57:48Z</time>
      </trkpt>
      <trkpt lat="48.00259" lon="-4.56163">
        <ele>0.62</ele>
        <time>2014-01-20T13:57:59Z</time>
      </trkpt>
      <trkpt lat="48.00259" lon="-4.56163">
        <ele>1.1</ele>
        <time>2014-01-20T13:58:09Z</time>
      </trkpt>
      <trkpt lat="48.00259" lon="-4.56163">
        <ele>1.1</ele>
        <time>2014-01-20T13:58:19Z</time>
      </trkpt>
      <trkpt lat="48.00259" lon="-4.56163">
        <ele>2.06</ele>
        <time>2014-01-20T13:58:26Z</time>
      </trkpt>
      <trkpt lat="48.00261" lon="-4.56163">
        <ele>1.58</ele>
        <time>2014-01-20T13:58:34Z</time>
      </trkpt>
      <trkpt lat="48.00262" lon="-4.56164">
        <ele>0.62</ele>
        <time>2014-01-20T13:58:43Z</time>
      </trkpt>
      <trkpt lat="48.00262" lon="-4.56165">
        <ele>1.1</ele>
        <time>2014-01-20T13:58:52Z</time>
      </trkpt>
      <trkpt lat="48.00262" lon="-4.56165">
        <ele>0.62</ele>
        <time>2014-01-20T13:59:00Z</time>
      </trkpt>
      <trkpt lat="48.00262" lon="-4.56163">
        <ele>0.62</ele>
        <time>2014-01-20T13:59:07Z</time>
      </trkpt>
      <trkpt lat="48.0026" lon="-4.56164">
        <ele>0.62</ele>
        <time>2014-01-20T13:59:18Z</time>
      </trkpt>
      <trkpt lat="48.0026" lon="-4.56167">
        <ele>0.14</ele>
        <time>2014-01-20T13:59:20Z</time>
      </trkpt>
      <trkpt lat="48.00253" lon="-4.56184">
        <ele>0.62</ele>
        <time>2014-01-20T13:59:31Z</time>
      </trkpt>
      <trkpt lat="48.00248" lon="-4.56199">
        <ele>0.14</ele>
        <time>2014-01-20T13:59:40Z</time>
      </trkpt>
      <trkpt lat="48.00246" lon="-4.56203">
        <ele>0.14</ele>
        <time>2014-01-20T13:59:42Z</time>
      </trkpt>
      <trkpt lat="48.00243" lon="-4.56217">
        <ele>0.14</ele>
        <time>2014-01-20T13:59:51Z</time>
      </trkpt>
      <trkpt lat="48.00235" lon="-4.56223">
        <ele>-0.34</ele>
        <time>2014-01-20T13:59:58Z</time>
      </trkpt>
      <trkpt lat="48.00231" lon="-4.56225">
        <ele>-0.34</ele>
        <time>2014-01-20T14:00:01Z</time>
      </trkpt>
      <trkpt lat="48.00222" lon="-4.56237">
        <ele>0.14</ele>
        <time>2014-01-20T14:00:12Z</time>
      </trkpt>
      <trkpt lat="48.00212" lon="-4.56249">
        <ele>0.14</ele>
        <time>2014-01-20T14:00:21Z</time>
      </trkpt>
      <trkpt lat="48.00206" lon="-4.56256">
        <ele>-0.82</ele>
        <time>2014-01-20T14:00:27Z</time>
      </trkpt>
      <trkpt lat="48.00195" lon="-4.56267">
        <ele>2.54</ele>
        <time>2014-01-20T14:00:37Z</time>
      </trkpt>
      <trkpt lat="48.00192" lon="-4.56273">
        <ele>2.54</ele>
        <time>2014-01-20T14:00:41Z</time>
      </trkpt>
      <trkpt lat="48.00188" lon="-4.5628">
        <ele>3.02</ele>
        <time>2014-01-20T14:00:46Z</time>
      </trkpt>
      <trkpt lat="48.00183" lon="-4.56295">
        <ele>3.98</ele>
        <time>2014-01-20T14:00:54Z</time>
      </trkpt>
      <trkpt lat="48.00179" lon="-4.56299">
        <ele>3.02</ele>
        <time>2014-01-20T14:00:58Z</time>
      </trkpt>
      <trkpt lat="48.00169" lon="-4.56314">
        <ele>1.58</ele>
        <time>2014-01-20T14:01:09Z</time>
      </trkpt>
      <trkpt lat="48.00164" lon="-4.56324">
        <ele>1.1</ele>
        <time>2014-01-20T14:01:16Z</time>
      </trkpt>
      <trkpt lat="48.00154" lon="-4.56331">
        <ele>1.1</ele>
        <time>2014-01-20T14:01:25Z</time>
      </trkpt>
      <trkpt lat="48.00146" lon="-4.56343">
        <ele>2.06</ele>
        <time>2014-01-20T14:01:34Z</time>
      </trkpt>
      <trkpt lat="48.00135" lon="-4.56357">
        <ele>3.5</ele>
        <time>2014-01-20T14:01:45Z</time>
      </trkpt>
      <trkpt lat="48.00134" lon="-4.56358">
        <ele>3.98</ele>
        <time>2014-01-20T14:01:46Z</time>
      </trkpt>
      <trkpt lat="48.00125" lon="-4.5637">
        <ele>3.98</ele>
        <time>2014-01-20T14:01:55Z</time>
      </trkpt>
      <trkpt lat="48.00114" lon="-4.56384">
        <ele>3.98</ele>
        <time>2014-01-20T14:02:06Z</time>
      </trkpt>
      <trkpt lat="48.00106" lon="-4.56397">
        <ele>3.98</ele>
        <time>2014-01-20T14:02:15Z</time>
      </trkpt>
      <trkpt lat="48.00103" lon="-4.56403">
        <ele>3.98</ele>
        <time>2014-01-20T14:02:19Z</time>
      </trkpt>
      <trkpt lat="48.00098" lon="-4.56412">
        <ele>5.91</ele>
        <time>2014-01-20T14:02:25Z</time>
      </trkpt>
      <trkpt lat="48.00092" lon="-4.56418">
        <ele>6.39</ele>
        <time>2014-01-20T14:02:31Z</time>
      </trkpt>
      <trkpt lat="48.00082" lon="-4.5643">
        <ele>6.39</ele>
        <time>2014-01-20T14:02:40Z</time>
      </trkpt>
      <trkpt lat="48.0007" lon="-4.56444">
        <ele>4.46</ele>
        <time>2014-01-20T14:02:51Z</time>
      </trkpt>
      <trkpt lat="48.00067" lon="-4.56449">
        <ele>4.46</ele>
        <time>2014-01-20T14:02:55Z</time>
      </trkpt>
      <trkpt lat="48.00056" lon="-4.56459">
        <ele>4.94</ele>
        <time>2014-01-20T14:03:05Z</time>
      </trkpt>
      <trkpt lat="48.00048" lon="-4.56464">
        <ele>7.35</ele>
        <time>2014-01-20T14:03:12Z</time>
      </trkpt>
      <trkpt lat="48.0004" lon="-4.5647">
        <ele>7.35</ele>
        <time>2014-01-20T14:03:19Z</time>
      </trkpt>
      <trkpt lat="48.0003" lon="-4.56478">
        <ele>6.87</ele>
        <time>2014-01-20T14:03:29Z</time>
      </trkpt>
      <trkpt lat="48.00019" lon="-4.56494">
        <ele>8.79</ele>
        <time>2014-01-20T14:03:41Z</time>
      </trkpt>
      <trkpt lat="48.00018" lon="-4.56496">
        <ele>7.35</ele>
        <time>2014-01-20T14:03:43Z</time>
      </trkpt>
      <trkpt lat="48.00016" lon="-4.56502">
        <ele>5.42</ele>
        <time>2014-01-20T14:03:47Z</time>
      </trkpt>
      <trkpt lat="48.00013" lon="-4.56508">
        <ele>3.98</ele>
        <time>2014-01-20T14:03:57Z</time>
      </trkpt>
      <trkpt lat="48.00013" lon="-4.56508">
        <ele>3.98</ele>
        <time>2014-01-20T14:04:01Z</time>
      </trkpt>
      <trkpt lat="48.00013" lon="-4.5651">
        <ele>3.98</ele>
        <time>2014-01-20T14:04:08Z</time>
      </trkpt>
      <trkpt lat="48.00013" lon="-4.5651">
        <ele>4.46</ele>
        <time>2014-01-20T14:04:28Z</time>
      </trkpt>
      <trkpt lat="48.00013" lon="-4.56509">
        <ele>4.46</ele>
        <time>2014-01-20T14:04:29Z</time>
      </trkpt>
      <trkpt lat="48.00009" lon="-4.56517">
        <ele>4.46</ele>
        <time>2014-01-20T14:04:37Z</time>
      </trkpt>
      <trkpt lat="48.00011" lon="-4.5652">
        <ele>4.94</ele>
        <time>2014-01-20T14:04:41Z</time>
      </trkpt>
      <trkpt lat="48.00012" lon="-4.56526">
        <ele>5.91</ele>
        <time>2014-01-20T14:04:46Z</time>
      </trkpt>
      <trkpt lat="48.00007" lon="-4.56544">
        <ele>4.46</ele>
        <time>2014-01-20T14:04:57Z</time>
      </trkpt>
      <trkpt lat="48.00004" lon="-4.56559">
        <ele>5.42</ele>
        <time>2014-01-20T14:05:05Z</time>
      </trkpt>
      <trkpt lat="48" lon="-4.56577">
        <ele>5.91</ele>
        <time>2014-01-20T14:05:16Z</time>
      </trkpt>
      <trkpt lat="48" lon="-4.56579">
        <ele>5.91</ele>
        <time>2014-01-20T14:05:18Z</time>
      </trkpt>
      <trkpt lat="48.00001" lon="-4.56587">
        <ele>6.87</ele>
        <time>2014-01-20T14:05:24Z</time>
      </trkpt>
      <trkpt lat="47.99996" lon="-4.56591">
        <ele>7.83</ele>
        <time>2014-01-20T14:05:28Z</time>
      </trkpt>
      <trkpt lat="47.99996" lon="-4.56598">
        <ele>7.35</ele>
        <time>2014-01-20T14:05:31Z</time>
      </trkpt>
      <trkpt lat="47.99998" lon="-4.56605">
        <ele>6.87</ele>
        <time>2014-01-20T14:05:35Z</time>
      </trkpt>
      <trkpt lat="48.00001" lon="-4.56618">
        <ele>5.91</ele>
        <time>2014-01-20T14:05:42Z</time>
      </trkpt>
      <trkpt lat="48.00003" lon="-4.56626">
        <ele>5.91</ele>
        <time>2014-01-20T14:05:46Z</time>
      </trkpt>
      <trkpt lat="48.00005" lon="-4.5663">
        <ele>5.42</ele>
        <time>2014-01-20T14:05:48Z</time>
      </trkpt>
      <trkpt lat="48.00005" lon="-4.56634">
        <ele>5.42</ele>
        <time>2014-01-20T14:05:50Z</time>
      </trkpt>
      <trkpt lat="48.00009" lon="-4.56651">
        <ele>4.46</ele>
        <time>2014-01-20T14:05:59Z</time>
      </trkpt>
      <trkpt lat="48.00009" lon="-4.56652">
        <ele>4.46</ele>
        <time>2014-01-20T14:06:00Z</time>
      </trkpt>
      <trkpt lat="48.0001" lon="-4.56662">
        <ele>3.98</ele>
        <time>2014-01-20T14:06:05Z</time>
      </trkpt>
      <trkpt lat="48.00014" lon="-4.56672">
        <ele>4.46</ele>
        <time>2014-01-20T14:06:12Z</time>
      </trkpt>
      <trkpt lat="48.00017" lon="-4.56685">
        <ele>5.42</ele>
        <time>2014-01-20T14:06:20Z</time>
      </trkpt>
      <trkpt lat="48.00018" lon="-4.56687">
        <ele>5.42</ele>
        <time>2014-01-20T14:06:21Z</time>
      </trkpt>
      <trkpt lat="48.0002" lon="-4.56693">
        <ele>5.91</ele>
        <time>2014-01-20T14:06:26Z</time>
      </trkpt>
      <trkpt lat="48.0003" lon="-4.56709">
        <ele>6.39</ele>
        <time>2014-01-20T14:06:38Z</time>
      </trkpt>
      <trkpt lat="48.00035" lon="-4.56722">
        <ele>5.91</ele>
        <time>2014-01-20T14:06:46Z</time>
      </trkpt>
      <trkpt lat="48.00036" lon="-4.56729">
        <ele>5.91</ele>
        <time>2014-01-20T14:06:50Z</time>
      </trkpt>
      <trkpt lat="48.00041" lon="-4.56756">
        <ele>4.94</ele>
        <time>2014-01-20T14:07:05Z</time>
      </trkpt>
      <trkpt lat="48.00044" lon="-4.56776">
        <ele>3.5</ele>
        <time>2014-01-20T14:07:16Z</time>
      </trkpt>
      <trkpt lat="48.00042" lon="-4.56804">
        <ele>2.06</ele>
        <time>2014-01-20T14:07:30Z</time>
      </trkpt>
      <trkpt lat="48.0004" lon="-4.56825">
        <ele>1.1</ele>
        <time>2014-01-20T14:07:43Z</time>
      </trkpt>
      <trkpt lat="48.0004" lon="-4.56852">
        <ele>1.58</ele>
        <time>2014-01-20T14:07:56Z</time>
      </trkpt>
      <trkpt lat="48.00041" lon="-4.56866">
        <ele>3.98</ele>
        <time>2014-01-20T14:08:04Z</time>
      </trkpt>
      <trkpt lat="48.00043" lon="-4.56874">
        <ele>3.5</ele>
        <time>2014-01-20T14:08:08Z</time>
      </trkpt>
      <trkpt lat="48.00047" lon="-4.56877">
        <ele>3.5</ele>
        <time>2014-01-20T14:08:12Z</time>
      </trkpt>
      <trkpt lat="48.0005" lon="-4.56885">
        <ele>3.02</ele>
        <time>2014-01-20T14:08:17Z</time>
      </trkpt>
      <trkpt lat="48.00053" lon="-4.56889">
        <ele>2.54</ele>
        <time>2014-01-20T14:08:20Z</time>
      </trkpt>
      <trkpt lat="48.00055" lon="-4.56895">
        <ele>2.54</ele>
        <time>2014-01-20T14:08:24Z</time>
      </trkpt>
      <trkpt lat="48.00058" lon="-4.56897">
        <ele>2.06</ele>
        <time>2014-01-20T14:08:27Z</time>
      </trkpt>
      <trkpt lat="48.0006" lon="-4.56902">
        <ele>2.06</ele>
        <time>2014-01-20T14:08:33Z</time>
      </trkpt>
      <trkpt lat="48.00062" lon="-4.56904">
        <ele>2.54</ele>
        <time>2014-01-20T14:08:36Z</time>
      </trkpt>
      <trkpt lat="48.00067" lon="-4.56912">
        <ele>2.54</ele>
        <time>2014-01-20T14:08:42Z</time>
      </trkpt>
      <trkpt lat="48.00071" lon="-4.56917">
        <ele>2.54</ele>
        <time>2014-01-20T14:08:47Z</time>
      </trkpt>
      <trkpt lat="48.00075" lon="-4.56919">
        <ele>1.58</ele>
        <time>2014-01-20T14:08:50Z</time>
      </trkpt>
      <trkpt lat="48.00084" lon="-4.56931">
        <ele>2.54</ele>
        <time>2014-01-20T14:08:59Z</time>
      </trkpt>
      <trkpt lat="48.00085" lon="-4.56932">
        <ele>3.02</ele>
        <time>2014-01-20T14:09:00Z</time>
      </trkpt>
      <trkpt lat="48.00092" lon="-4.5694">
        <ele>3.02</ele>
        <time>2014-01-20T14:09:07Z</time>
      </trkpt>
      <trkpt lat="48.001" lon="-4.56953">
        <ele>5.91</ele>
        <time>2014-01-20T14:09:17Z</time>
      </trkpt>
      <trkpt lat="48.00103" lon="-4.5696">
        <ele>4.94</ele>
        <time>2014-01-20T14:09:21Z</time>
      </trkpt>
      <trkpt lat="48.00112" lon="-4.56973">
        <ele>3.98</ele>
        <time>2014-01-20T14:09:30Z</time>
      </trkpt>
      <trkpt lat="48.00121" lon="-4.5698">
        <ele>3.02</ele>
        <time>2014-01-20T14:09:38Z</time>
      </trkpt>
      <trkpt lat="48.0013" lon="-4.56987">
        <ele>3.02</ele>
        <time>2014-01-20T14:09:46Z</time>
      </trkpt>
      <trkpt lat="48.00134" lon="-4.56993">
        <ele>3.02</ele>
        <time>2014-01-20T14:09:50Z</time>
      </trkpt>
      <trkpt lat="48.0014" lon="-4.57001">
        <ele>3.02</ele>
        <time>2014-01-20T14:09:56Z</time>
      </trkpt>
      <trkpt lat="48.00151" lon="-4.57007">
        <ele>3.02</ele>
        <time>2014-01-20T14:10:06Z</time>
      </trkpt>
      <trkpt lat="48.0016" lon="-4.57016">
        <ele>3.02</ele>
        <time>2014-01-20T14:10:15Z</time>
      </trkpt>
      <trkpt lat="48.00164" lon="-4.57021">
        <ele>3.5</ele>
        <time>2014-01-20T14:10:20Z</time>
      </trkpt>
      <trkpt lat="48.00171" lon="-4.57031">
        <ele>3.5</ele>
        <time>2014-01-20T14:10:28Z</time>
      </trkpt>
      <trkpt lat="48.00175" lon="-4.57035">
        <ele>3.02</ele>
        <time>2014-01-20T14:10:32Z</time>
      </trkpt>
      <trkpt lat="48.0018" lon="-4.57036">
        <ele>2.54</ele>
        <time>2014-01-20T14:10:36Z</time>
      </trkpt>
      <trkpt lat="48.00187" lon="-4.57048">
        <ele>2.54</ele>
        <time>2014-01-20T14:10:44Z</time>
      </trkpt>
      <trkpt lat="48.0019" lon="-4.57049">
        <ele>3.02</ele>
        <time>2014-01-20T14:10:46Z</time>
      </trkpt>
      <trkpt lat="48.00193" lon="-4.57052">
        <ele>3.5</ele>
        <time>2014-01-20T14:10:49Z</time>
      </trkpt>
      <trkpt lat="48.00208" lon="-4.57056">
        <ele>4.94</ele>
        <time>2014-01-20T14:11:00Z</time>
      </trkpt>
      <trkpt lat="48.00218" lon="-4.5707">
        <ele>4.94</ele>
        <time>2014-01-20T14:11:11Z</time>
      </trkpt>
      <trkpt lat="48.00221" lon="-4.57073">
        <ele>4.46</ele>
        <time>2014-01-20T14:11:14Z</time>
      </trkpt>
      <trkpt lat="48.0023" lon="-4.57087">
        <ele>3.5</ele>
        <time>2014-01-20T14:11:25Z</time>
      </trkpt>
      <trkpt lat="48.00234" lon="-4.57092">
        <ele>3.5</ele>
        <time>2014-01-20T14:11:28Z</time>
      </trkpt>
      <trkpt lat="48.00241" lon="-4.571">
        <ele>3.5</ele>
        <time>2014-01-20T14:11:35Z</time>
      </trkpt>
      <trkpt lat="48.00243" lon="-4.57102">
        <ele>2.54</ele>
        <time>2014-01-20T14:11:37Z</time>
      </trkpt>
      <trkpt lat="48.00249" lon="-4.5711">
        <ele>1.1</ele>
        <time>2014-01-20T14:11:45Z</time>
      </trkpt>
      <trkpt lat="48.00258" lon="-4.57125">
        <ele>0.14</ele>
        <time>2014-01-20T14:11:57Z</time>
      </trkpt>
      <trkpt lat="48.0026" lon="-4.57131">
        <ele>1.1</ele>
        <time>2014-01-20T14:12:01Z</time>
      </trkpt>
      <trkpt lat="48.00263" lon="-4.57137">
        <ele>0.62</ele>
        <time>2014-01-20T14:12:05Z</time>
      </trkpt>
      <trkpt lat="48.00267" lon="-4.57142">
        <ele>0.62</ele>
        <time>2014-01-20T14:12:09Z</time>
      </trkpt>
      <trkpt lat="48.00272" lon="-4.57141">
        <ele>2.06</ele>
        <time>2014-01-20T14:12:14Z</time>
      </trkpt>
      <trkpt lat="48.00282" lon="-4.57147">
        <ele>3.98</ele>
        <time>2014-01-20T14:12:22Z</time>
      </trkpt>
      <trkpt lat="48.00289" lon="-4.57154">
        <ele>4.94</ele>
        <time>2014-01-20T14:12:29Z</time>
      </trkpt>
      <trkpt lat="48.00302" lon="-4.5716">
        <ele>4.46</ele>
        <time>2014-01-20T14:12:39Z</time>
      </trkpt>
      <trkpt lat="48.00307" lon="-4.57162">
        <ele>4.94</ele>
        <time>2014-01-20T14:12:43Z</time>
      </trkpt>
      <trkpt lat="48.0031" lon="-4.57162">
        <ele>5.42</ele>
        <time>2014-01-20T14:12:45Z</time>
      </trkpt>
      <trkpt lat="48.00313" lon="-4.57166">
        <ele>5.91</ele>
        <time>2014-01-20T14:12:49Z</time>
      </trkpt>
      <trkpt lat="48.00316" lon="-4.5718">
        <ele>5.91</ele>
        <time>2014-01-20T14:12:59Z</time>
      </trkpt>
      <trkpt lat="48.00316" lon="-4.57185">
        <ele>5.42</ele>
        <time>2014-01-20T14:13:02Z</time>
      </trkpt>
      <trkpt lat="48.00317" lon="-4.57187">
        <ele>4.94</ele>
        <time>2014-01-20T14:13:04Z</time>
      </trkpt>
      <trkpt lat="48.00319" lon="-4.57191">
        <ele>4.94</ele>
        <time>2014-01-20T14:13:07Z</time>
      </trkpt>
      <trkpt lat="48.00321" lon="-4.57198">
        <ele>3.98</ele>
        <time>2014-01-20T14:13:12Z</time>
      </trkpt>
      <trkpt lat="48.00326" lon="-4.57207">
        <ele>3.5</ele>
        <time>2014-01-20T14:13:19Z</time>
      </trkpt>
      <trkpt lat="48.0033" lon="-4.57214">
        <ele>3.5</ele>
        <time>2014-01-20T14:13:27Z</time>
      </trkpt>
      <trkpt lat="48.00332" lon="-4.57221">
        <ele>3.98</ele>
        <time>2014-01-20T14:13:31Z</time>
      </trkpt>
      <trkpt lat="48.00336" lon="-4.57227">
        <ele>3.98</ele>
        <time>2014-01-20T14:13:37Z</time>
      </trkpt>
      <trkpt lat="48.00338" lon="-4.57232">
        <ele>4.46</ele>
        <time>2014-01-20T14:13:40Z</time>
      </trkpt>
      <trkpt lat="48.00339" lon="-4.57234">
        <ele>4.46</ele>
        <time>2014-01-20T14:13:42Z</time>
      </trkpt>
      <trkpt lat="48.0034" lon="-4.57238">
        <ele>4.46</ele>
        <time>2014-01-20T14:13:45Z</time>
      </trkpt>
      <trkpt lat="48.0035" lon="-4.57246">
        <ele>3.02</ele>
        <time>2014-01-20T14:13:56Z</time>
      </trkpt>
      <trkpt lat="48.00353" lon="-4.57247">
        <ele>2.54</ele>
        <time>2014-01-20T14:13:59Z</time>
      </trkpt>
      <trkpt lat="48.00362" lon="-4.57258">
        <ele>3.5</ele>
        <time>2014-01-20T14:14:09Z</time>
      </trkpt>
      <trkpt lat="48.00372" lon="-4.57269">
        <ele>4.46</ele>
        <time>2014-01-20T14:14:20Z</time>
      </trkpt>
      <trkpt lat="48.00373" lon="-4.57271">
        <ele>5.42</ele>
        <time>2014-01-20T14:14:22Z</time>
      </trkpt>
      <trkpt lat="48.00377" lon="-4.57274">
        <ele>6.39</ele>
        <time>2014-01-20T14:14:25Z</time>
      </trkpt>
      <trkpt lat="48.00379" lon="-4.57277">
        <ele>6.87</ele>
        <time>2014-01-20T14:14:28Z</time>
      </trkpt>
      <trkpt lat="48.00381" lon="-4.57278">
        <ele>7.35</ele>
        <time>2014-01-20T14:14:30Z</time>
      </trkpt>
      <trkpt lat="48.0039" lon="-4.57287">
        <ele>8.79</ele>
        <time>2014-01-20T14:14:39Z</time>
      </trkpt>
      <trkpt lat="48.004" lon="-4.57297">
        <ele>9.27</ele>
        <time>2014-01-20T14:14:49Z</time>
      </trkpt>
      <trkpt lat="48.00412" lon="-4.57309">
        <ele>10.71</ele>
        <time>2014-01-20T14:15:00Z</time>
      </trkpt>
      <trkpt lat="48.00425" lon="-4.57316">
        <ele>11.19</ele>
        <time>2014-01-20T14:15:11Z</time>
      </trkpt>
      <trkpt lat="48.00436" lon="-4.57316">
        <ele>11.19</ele>
        <time>2014-01-20T14:15:20Z</time>
      </trkpt>
      <trkpt lat="48.00447" lon="-4.57314">
        <ele>9.27</ele>
        <time>2014-01-20T14:15:31Z</time>
      </trkpt>
      <trkpt lat="48.00462" lon="-4.5731">
        <ele>8.79</ele>
        <time>2014-01-20T14:15:46Z</time>
      </trkpt>
      <trkpt lat="48.00477" lon="-4.57309">
        <ele>9.75</ele>
        <time>2014-01-20T14:15:57Z</time>
      </trkpt>
      <trkpt lat="48.00494" lon="-4.57306">
        <ele>13.6</ele>
        <time>2014-01-20T14:16:14Z</time>
      </trkpt>
      <trkpt lat="48.00508" lon="-4.57302">
        <ele>14.08</ele>
        <time>2014-01-20T14:16:28Z</time>
      </trkpt>
      <trkpt lat="48.00528" lon="-4.57302">
        <ele>16.48</ele>
        <time>2014-01-20T14:16:44Z</time>
      </trkpt>
      <trkpt lat="48.00534" lon="-4.57304">
        <ele>17.44</ele>
        <time>2014-01-20T14:16:49Z</time>
      </trkpt>
      <trkpt lat="48.00548" lon="-4.57312">
        <ele>20.81</ele>
        <time>2014-01-20T14:17:02Z</time>
      </trkpt>
      <trkpt lat="48.00561" lon="-4.57323">
        <ele>21.29</ele>
        <time>2014-01-20T14:17:16Z</time>
      </trkpt>
      <trkpt lat="48.00574" lon="-4.57332">
        <ele>23.69</ele>
        <time>2014-01-20T14:17:27Z</time>
      </trkpt>
      <trkpt lat="48.0059" lon="-4.57345">
        <ele>26.09</ele>
        <time>2014-01-20T14:17:43Z</time>
      </trkpt>
      <trkpt lat="48.00596" lon="-4.5735">
        <ele>26.57</ele>
        <time>2014-01-20T14:17:49Z</time>
      </trkpt>
      <trkpt lat="48.00601" lon="-4.57357">
        <ele>28.5</ele>
        <time>2014-01-20T14:17:54Z</time>
      </trkpt>
      <trkpt lat="48.00615" lon="-4.5736">
        <ele>28.98</ele>
        <time>2014-01-20T14:18:05Z</time>
      </trkpt>
      <trkpt lat="48.00624" lon="-4.57358">
        <ele>29.46</ele>
        <time>2014-01-20T14:18:13Z</time>
      </trkpt>
      <trkpt lat="48.00643" lon="-4.57358">
        <ele>30.9</ele>
        <time>2014-01-20T14:18:27Z</time>
      </trkpt>
      <trkpt lat="48.00661" lon="-4.5736">
        <ele>32.82</ele>
        <time>2014-01-20T14:18:41Z</time>
      </trkpt>
      <trkpt lat="48.00676" lon="-4.57363">
        <ele>32.34</ele>
        <time>2014-01-20T14:18:54Z</time>
      </trkpt>
      <trkpt lat="48.00693" lon="-4.57365">
        <ele>33.78</ele>
        <time>2014-01-20T14:19:06Z</time>
      </trkpt>
      <trkpt lat="48.00703" lon="-4.57367">
        <ele>34.26</ele>
        <time>2014-01-20T14:19:13Z</time>
      </trkpt>
      <trkpt lat="48.00709" lon="-4.57367">
        <ele>33.78</ele>
        <time>2014-01-20T14:19:17Z</time>
      </trkpt>
      <trkpt lat="48.00719" lon="-4.57368">
        <ele>34.26</ele>
        <time>2014-01-20T14:19:26Z</time>
      </trkpt>
      <trkpt lat="48.0073" lon="-4.5737">
        <ele>36.19</ele>
        <time>2014-01-20T14:19:34Z</time>
      </trkpt>
      <trkpt lat="48.00735" lon="-4.57372">
        <ele>36.19</ele>
        <time>2014-01-20T14:19:38Z</time>
      </trkpt>
      <trkpt lat="48.00742" lon="-4.57376">
        <ele>36.67</ele>
        <time>2014-01-20T14:19:46Z</time>
      </trkpt>
      <trkpt lat="48.00744" lon="-4.57377">
        <ele>36.67</ele>
        <time>2014-01-20T14:19:48Z</time>
      </trkpt>
      <trkpt lat="48.00757" lon="-4.57379">
        <ele>37.15</ele>
        <time>2014-01-20T14:19:57Z</time>
      </trkpt>
      <trkpt lat="48.00762" lon="-4.57378">
        <ele>37.15</ele>
        <time>2014-01-20T14:20:01Z</time>
      </trkpt>
      <trkpt lat="48.00775" lon="-4.57375">
        <ele>37.63</ele>
        <time>2014-01-20T14:20:11Z</time>
      </trkpt>
      <trkpt lat="48.00779" lon="-4.57374">
        <ele>38.59</ele>
        <time>2014-01-20T14:20:14Z</time>
      </trkpt>
      <trkpt lat="48.00792" lon="-4.5737">
        <ele>40.03</ele>
        <time>2014-01-20T14:20:24Z</time>
      </trkpt>
      <trkpt lat="48.00801" lon="-4.57367">
        <ele>40.51</ele>
        <time>2014-01-20T14:20:31Z</time>
      </trkpt>
      <trkpt lat="48.00812" lon="-4.57364">
        <ele>40.03</ele>
        <time>2014-01-20T14:20:40Z</time>
      </trkpt>
      <trkpt lat="48.00824" lon="-4.57359">
        <ele>40.03</ele>
        <time>2014-01-20T14:20:49Z</time>
      </trkpt>
      <trkpt lat="48.00827" lon="-4.57359">
        <ele>40.03</ele>
        <time>2014-01-20T14:20:51Z</time>
      </trkpt>
      <trkpt lat="48.00841" lon="-4.57355">
        <ele>41.47</ele>
        <time>2014-01-20T14:21:02Z</time>
      </trkpt>
      <trkpt lat="48.00851" lon="-4.5735">
        <ele>40.03</ele>
        <time>2014-01-20T14:21:11Z</time>
      </trkpt>
      <trkpt lat="48.00862" lon="-4.57345">
        <ele>38.11</ele>
        <time>2014-01-20T14:21:21Z</time>
      </trkpt>
      <trkpt lat="48.00875" lon="-4.5734">
        <ele>39.07</ele>
        <time>2014-01-20T14:21:31Z</time>
      </trkpt>
      <trkpt lat="48.00876" lon="-4.5734">
        <ele>39.07</ele>
        <time>2014-01-20T14:21:32Z</time>
      </trkpt>
      <trkpt lat="48.00886" lon="-4.57337">
        <ele>40.51</ele>
        <time>2014-01-20T14:21:39Z</time>
      </trkpt>
      <trkpt lat="48.00902" lon="-4.57333">
        <ele>41.95</ele>
        <time>2014-01-20T14:21:51Z</time>
      </trkpt>
      <trkpt lat="48.00906" lon="-4.57331">
        <ele>41.95</ele>
        <time>2014-01-20T14:21:54Z</time>
      </trkpt>
      <trkpt lat="48.00918" lon="-4.57318">
        <ele>42.92</ele>
        <time>2014-01-20T14:22:05Z</time>
      </trkpt>
      <trkpt lat="48.00925" lon="-4.5731">
        <ele>43.4</ele>
        <time>2014-01-20T14:22:12Z</time>
      </trkpt>
      <trkpt lat="48.00932" lon="-4.57301">
        <ele>43.88</ele>
        <time>2014-01-20T14:22:19Z</time>
      </trkpt>
      <trkpt lat="48.00946" lon="-4.57288">
        <ele>44.36</ele>
        <time>2014-01-20T14:22:31Z</time>
      </trkpt>
      <trkpt lat="48.00956" lon="-4.5728">
        <ele>44.84</ele>
        <time>2014-01-20T14:22:40Z</time>
      </trkpt>
      <trkpt lat="48.00967" lon="-4.57274">
        <ele>43.4</ele>
        <time>2014-01-20T14:22:49Z</time>
      </trkpt>
      <trkpt lat="48.00978" lon="-4.57263">
        <ele>43.4</ele>
        <time>2014-01-20T14:22:59Z</time>
      </trkpt>
      <trkpt lat="48.0099" lon="-4.57249">
        <ele>43.88</ele>
        <time>2014-01-20T14:23:10Z</time>
      </trkpt>
      <trkpt lat="48.00994" lon="-4.57244">
        <ele>43.4</ele>
        <time>2014-01-20T14:23:13Z</time>
      </trkpt>
      <trkpt lat="48.01" lon="-4.57241">
        <ele>42.92</ele>
        <time>2014-01-20T14:23:18Z</time>
      </trkpt>
      <trkpt lat="48.01005" lon="-4.57238">
        <ele>43.4</ele>
        <time>2014-01-20T14:23:22Z</time>
      </trkpt>
      <trkpt lat="48.01007" lon="-4.57237">
        <ele>42.92</ele>
        <time>2014-01-20T14:23:24Z</time>
      </trkpt>
      <trkpt lat="48.01013" lon="-4.57236">
        <ele>43.4</ele>
        <time>2014-01-20T14:23:28Z</time>
      </trkpt>
      <trkpt lat="48.0103" lon="-4.57236">
        <ele>43.88</ele>
        <time>2014-01-20T14:23:41Z</time>
      </trkpt>
      <trkpt lat="48.01037" lon="-4.57236">
        <ele>42.92</ele>
        <time>2014-01-20T14:23:46Z</time>
      </trkpt>
      <trkpt lat="48.01042" lon="-4.57238">
        <ele>41.95</ele>
        <time>2014-01-20T14:23:50Z</time>
      </trkpt>
      <trkpt lat="48.01055" lon="-4.57239">
        <ele>41.47</ele>
        <time>2014-01-20T14:23:59Z</time>
      </trkpt>
      <trkpt lat="48.01064" lon="-4.57238">
        <ele>42.92</ele>
        <time>2014-01-20T14:24:06Z</time>
      </trkpt>
      <trkpt lat="48.0107" lon="-4.57234">
        <ele>42.44</ele>
        <time>2014-01-20T14:24:10Z</time>
      </trkpt>
      <trkpt lat="48.01084" lon="-4.57225">
        <ele>44.84</ele>
        <time>2014-01-20T14:24:21Z</time>
      </trkpt>
      <trkpt lat="48.01097" lon="-4.57211">
        <ele>43.4</ele>
        <time>2014-01-20T14:24:34Z</time>
      </trkpt>
      <trkpt lat="48.01098" lon="-4.5721">
        <ele>43.4</ele>
        <time>2014-01-20T14:24:35Z</time>
      </trkpt>
      <trkpt lat="48.01101" lon="-4.57204">
        <ele>42.44</ele>
        <time>2014-01-20T14:24:39Z</time>
      </trkpt>
      <trkpt lat="48.01112" lon="-4.57187">
        <ele>42.92</ele>
        <time>2014-01-20T14:24:50Z</time>
      </trkpt>
      <trkpt lat="48.01121" lon="-4.57173">
        <ele>41.47</ele>
        <time>2014-01-20T14:25:01Z</time>
      </trkpt>
      <trkpt lat="48.01129" lon="-4.57161">
        <ele>40.51</ele>
        <time>2014-01-20T14:25:09Z</time>
      </trkpt>
      <trkpt lat="48.01136" lon="-4.57152">
        <ele>40.51</ele>
        <time>2014-01-20T14:25:15Z</time>
      </trkpt>
      <trkpt lat="48.01144" lon="-4.57143">
        <ele>40.99</ele>
        <time>2014-01-20T14:25:22Z</time>
      </trkpt>
      <trkpt lat="48.01148" lon="-4.57137">
        <ele>40.51</ele>
        <time>2014-01-20T14:25:26Z</time>
      </trkpt>
      <trkpt lat="48.01152" lon="-4.57127">
        <ele>40.51</ele>
        <time>2014-01-20T14:25:31Z</time>
      </trkpt>
      <trkpt lat="48.01156" lon="-4.57121">
        <ele>40.03</ele>
        <time>2014-01-20T14:25:36Z</time>
      </trkpt>
      <trkpt lat="48.01163" lon="-4.57099">
        <ele>39.55</ele>
        <time>2014-01-20T14:25:48Z</time>
      </trkpt>
      <trkpt lat="48.01166" lon="-4.57086">
        <ele>40.03</ele>
        <time>2014-01-20T14:25:55Z</time>
      </trkpt>
      <trkpt lat="48.01168" lon="-4.57075">
        <ele>40.99</ele>
        <time>2014-01-20T14:26:00Z</time>
      </trkpt>
      <trkpt lat="48.01168" lon="-4.57062">
        <ele>40.99</ele>
        <time>2014-01-20T14:26:06Z</time>
      </trkpt>
      <trkpt lat="48.01172" lon="-4.57038">
        <ele>40.51</ele>
        <time>2014-01-20T14:26:19Z</time>
      </trkpt>
      <trkpt lat="48.01173" lon="-4.57034">
        <ele>41.47</ele>
        <time>2014-01-20T14:26:22Z</time>
      </trkpt>
      <trkpt lat="48.01175" lon="-4.57015">
        <ele>43.4</ele>
        <time>2014-01-20T14:26:31Z</time>
      </trkpt>
      <trkpt lat="48.01176" lon="-4.57002">
        <ele>43.4</ele>
        <time>2014-01-20T14:26:38Z</time>
      </trkpt>
      <trkpt lat="48.0118" lon="-4.56979">
        <ele>44.36</ele>
        <time>2014-01-20T14:26:50Z</time>
      </trkpt>
      <trkpt lat="48.01185" lon="-4.56953">
        <ele>45.8</ele>
        <time>2014-01-20T14:27:04Z</time>
      </trkpt>
      <trkpt lat="48.01186" lon="-4.56938">
        <ele>46.28</ele>
        <time>2014-01-20T14:27:12Z</time>
      </trkpt>
      <trkpt lat="48.01187" lon="-4.5694">
        <ele>46.28</ele>
        <time>2014-01-20T14:27:14Z</time>
      </trkpt>
      <trkpt lat="48.01196" lon="-4.56948">
        <ele>45.32</ele>
        <time>2014-01-20T14:27:23Z</time>
      </trkpt>
      <trkpt lat="48.01205" lon="-4.56951">
        <ele>44.84</ele>
        <time>2014-01-20T14:27:30Z</time>
      </trkpt>
      <trkpt lat="48.01212" lon="-4.56936">
        <ele>43.88</ele>
        <time>2014-01-20T14:27:40Z</time>
      </trkpt>
      <trkpt lat="48.01214" lon="-4.5693">
        <ele>43.88</ele>
        <time>2014-01-20T14:27:44Z</time>
      </trkpt>
      <trkpt lat="48.01221" lon="-4.56913">
        <ele>41.47</ele>
        <time>2014-01-20T14:27:54Z</time>
      </trkpt>
      <trkpt lat="48.01225" lon="-4.56905">
        <ele>40.51</ele>
        <time>2014-01-20T14:27:59Z</time>
      </trkpt>
      <trkpt lat="48.0123" lon="-4.56889">
        <ele>40.03</ele>
        <time>2014-01-20T14:28:07Z</time>
      </trkpt>
      <trkpt lat="48.01232" lon="-4.56888">
        <ele>40.51</ele>
        <time>2014-01-20T14:28:09Z</time>
      </trkpt>
      <trkpt lat="48.01237" lon="-4.5687">
        <ele>41.95</ele>
        <time>2014-01-20T14:28:18Z</time>
      </trkpt>
      <trkpt lat="48.01238" lon="-4.56867">
        <ele>41.95</ele>
        <time>2014-01-20T14:28:20Z</time>
      </trkpt>
      <trkpt lat="48.01251" lon="-4.56861">
        <ele>42.44</ele>
        <time>2014-01-20T14:28:31Z</time>
      </trkpt>
      <trkpt lat="48.01264" lon="-4.56861">
        <ele>41.47</ele>
        <time>2014-01-20T14:28:43Z</time>
      </trkpt>
      <trkpt lat="48.01274" lon="-4.56857">
        <ele>39.55</ele>
        <time>2014-01-20T14:28:51Z</time>
      </trkpt>
      <trkpt lat="48.01286" lon="-4.56845">
        <ele>37.15</ele>
        <time>2014-01-20T14:29:02Z</time>
      </trkpt>
      <trkpt lat="48.01287" lon="-4.56842">
        <ele>37.15</ele>
        <time>2014-01-20T14:29:04Z</time>
      </trkpt>
      <trkpt lat="48.01297" lon="-4.56831">
        <ele>36.67</ele>
        <time>2014-01-20T14:29:14Z</time>
      </trkpt>
      <trkpt lat="48.01298" lon="-4.56831">
        <ele>37.63</ele>
        <time>2014-01-20T14:29:38Z</time>
      </trkpt>
      <trkpt lat="48.013" lon="-4.5683">
        <ele>37.63</ele>
        <time>2014-01-20T14:29:40Z</time>
      </trkpt>
      <trkpt lat="48.01307" lon="-4.56819">
        <ele>37.63</ele>
        <time>2014-01-20T14:29:48Z</time>
      </trkpt>
      <trkpt lat="48.01313" lon="-4.56802">
        <ele>38.11</ele>
        <time>2014-01-20T14:29:56Z</time>
      </trkpt>
      <trkpt lat="48.0132" lon="-4.56779">
        <ele>39.07</ele>
        <time>2014-01-20T14:30:07Z</time>
      </trkpt>
      <trkpt lat="48.01323" lon="-4.56763">
        <ele>37.63</ele>
        <time>2014-01-20T14:30:17Z</time>
      </trkpt>
      <trkpt lat="48.01325" lon="-4.5676">
        <ele>37.15</ele>
        <time>2014-01-20T14:30:19Z</time>
      </trkpt>
      <trkpt lat="48.01327" lon="-4.56757">
        <ele>36.67</ele>
        <time>2014-01-20T14:30:21Z</time>
      </trkpt>
      <trkpt lat="48.01325" lon="-4.56741">
        <ele>37.15</ele>
        <time>2014-01-20T14:30:31Z</time>
      </trkpt>
      <trkpt lat="48.01311" lon="-4.56726">
        <ele>37.63</ele>
        <time>2014-01-20T14:30:44Z</time>
      </trkpt>
      <trkpt lat="48.01299" lon="-4.56726">
        <ele>39.55</ele>
        <time>2014-01-20T14:30:55Z</time>
      </trkpt>
      <trkpt lat="48.01291" lon="-4.56718">
        <ele>40.99</ele>
        <time>2014-01-20T14:31:06Z</time>
      </trkpt>
      <trkpt lat="48.0129" lon="-4.56717">
        <ele>41.47</ele>
        <time>2014-01-20T14:31:08Z</time>
      </trkpt>
      <trkpt lat="48.01285" lon="-4.56711">
        <ele>41.95</ele>
        <time>2014-01-20T14:31:13Z</time>
      </trkpt>
      <trkpt lat="48.01274" lon="-4.56702">
        <ele>41.95</ele>
        <time>2014-01-20T14:31:23Z</time>
      </trkpt>
      <trkpt lat="48.01262" lon="-4.56688">
        <ele>41.47</ele>
        <time>2014-01-20T14:31:31Z</time>
      </trkpt>
      <trkpt lat="48.01256" lon="-4.56681">
        <ele>42.44</ele>
        <time>2014-01-20T14:31:39Z</time>
      </trkpt>
      <trkpt lat="48.01255" lon="-4.5668">
        <ele>41.95</ele>
        <time>2014-01-20T14:31:40Z</time>
      </trkpt>
      <trkpt lat="48.01244" lon="-4.56669">
        <ele>42.44</ele>
        <time>2014-01-20T14:31:49Z</time>
      </trkpt>
      <trkpt lat="48.01236" lon="-4.56649">
        <ele>42.44</ele>
        <time>2014-01-20T14:31:59Z</time>
      </trkpt>
      <trkpt lat="48.01234" lon="-4.56643">
        <ele>41.95</ele>
        <time>2014-01-20T14:32:02Z</time>
      </trkpt>
      <trkpt lat="48.01233" lon="-4.56637">
        <ele>41.47</ele>
        <time>2014-01-20T14:32:05Z</time>
      </trkpt>
      <trkpt lat="48.01231" lon="-4.56633">
        <ele>41.47</ele>
        <time>2014-01-20T14:32:07Z</time>
      </trkpt>
      <trkpt lat="48.01221" lon="-4.56618">
        <ele>40.51</ele>
        <time>2014-01-20T14:32:18Z</time>
      </trkpt>
      <trkpt lat="48.01219" lon="-4.56607">
        <ele>40.51</ele>
        <time>2014-01-20T14:32:24Z</time>
      </trkpt>
      <trkpt lat="48.01224" lon="-4.56583">
        <ele>39.55</ele>
        <time>2014-01-20T14:32:36Z</time>
      </trkpt>
      <trkpt lat="48.01233" lon="-4.56568">
        <ele>39.07</ele>
        <time>2014-01-20T14:32:47Z</time>
      </trkpt>
      <trkpt lat="48.01244" lon="-4.56548">
        <ele>38.59</ele>
        <time>2014-01-20T14:33:00Z</time>
      </trkpt>
      <trkpt lat="48.01257" lon="-4.56542">
        <ele>36.67</ele>
        <time>2014-01-20T14:33:11Z</time>
      </trkpt>
      <trkpt lat="48.01264" lon="-4.56544">
        <ele>36.19</ele>
        <time>2014-01-20T14:33:16Z</time>
      </trkpt>
      <trkpt lat="48.01277" lon="-4.56548">
        <ele>33.78</ele>
        <time>2014-01-20T14:33:27Z</time>
      </trkpt>
      <trkpt lat="48.01279" lon="-4.56549">
        <ele>34.74</ele>
        <time>2014-01-20T14:33:37Z</time>
      </trkpt>
      <trkpt lat="48.01289" lon="-4.5655">
        <ele>34.74</ele>
        <time>2014-01-20T14:33:47Z</time>
      </trkpt>
      <trkpt lat="48.01302" lon="-4.5655">
        <ele>33.3</ele>
        <time>2014-01-20T14:33:57Z</time>
      </trkpt>
      <trkpt lat="48.01313" lon="-4.56546">
        <ele>31.38</ele>
        <time>2014-01-20T14:34:06Z</time>
      </trkpt>
      <trkpt lat="48.01327" lon="-4.56537">
        <ele>28.98</ele>
        <time>2014-01-20T14:34:18Z</time>
      </trkpt>
      <trkpt lat="48.0134" lon="-4.56531">
        <ele>25.61</ele>
        <time>2014-01-20T14:34:30Z</time>
      </trkpt>
      <trkpt lat="48.01353" lon="-4.56529">
        <ele>21.29</ele>
        <time>2014-01-20T14:34:42Z</time>
      </trkpt>
      <trkpt lat="48.0136" lon="-4.56529">
        <ele>19.84</ele>
        <time>2014-01-20T14:34:49Z</time>
      </trkpt>
      <trkpt lat="48.0137" lon="-4.56531">
        <ele>20.32</ele>
        <time>2014-01-20T14:34:55Z</time>
      </trkpt>
      <trkpt lat="48.01386" lon="-4.56529">
        <ele>20.81</ele>
        <time>2014-01-20T14:35:07Z</time>
      </trkpt>
      <trkpt lat="48.01393" lon="-4.56528">
        <ele>19.36</ele>
        <time>2014-01-20T14:35:14Z</time>
      </trkpt>
      <trkpt lat="48.01398" lon="-4.56528">
        <ele>19.36</ele>
        <time>2014-01-20T14:35:17Z</time>
      </trkpt>
      <trkpt lat="48.01416" lon="-4.56519">
        <ele>18.4</ele>
        <time>2014-01-20T14:35:31Z</time>
      </trkpt>
      <trkpt lat="48.01417" lon="-4.56519">
        <ele>18.4</ele>
        <time>2014-01-20T14:35:32Z</time>
      </trkpt>
      <trkpt lat="48.01433" lon="-4.56512">
        <ele>21.29</ele>
        <time>2014-01-20T14:35:43Z</time>
      </trkpt>
      <trkpt lat="48.0145" lon="-4.56507">
        <ele>28.98</ele>
        <time>2014-01-20T14:35:53Z</time>
      </trkpt>
      <trkpt lat="48.01468" lon="-4.56502">
        <ele>31.86</ele>
        <time>2014-01-20T14:36:05Z</time>
      </trkpt>
      <trkpt lat="48.01475" lon="-4.56501">
        <ele>31.86</ele>
        <time>2014-01-20T14:36:10Z</time>
      </trkpt>
      <trkpt lat="48.01488" lon="-4.56501">
        <ele>33.78</ele>
        <time>2014-01-20T14:36:20Z</time>
      </trkpt>
      <trkpt lat="48.01502" lon="-4.56503">
        <ele>34.26</ele>
        <time>2014-01-20T14:36:30Z</time>
      </trkpt>
      <trkpt lat="48.01504" lon="-4.56504">
        <ele>34.26</ele>
        <time>2014-01-20T14:36:32Z</time>
      </trkpt>
      <trkpt lat="48.01509" lon="-4.56504">
        <ele>33.3</ele>
        <time>2014-01-20T14:36:36Z</time>
      </trkpt>
      <trkpt lat="48.01527" lon="-4.56506">
        <ele>32.34</ele>
        <time>2014-01-20T14:36:49Z</time>
      </trkpt>
      <trkpt lat="48.0154" lon="-4.56506">
        <ele>32.34</ele>
        <time>2014-01-20T14:36:59Z</time>
      </trkpt>
      <trkpt lat="48.01557" lon="-4.56505">
        <ele>31.86</ele>
        <time>2014-01-20T14:37:11Z</time>
      </trkpt>
      <trkpt lat="48.01558" lon="-4.56505">
        <ele>32.34</ele>
        <time>2014-01-20T14:37:12Z</time>
      </trkpt>
      <trkpt lat="48.01573" lon="-4.56507">
        <ele>32.34</ele>
        <time>2014-01-20T14:37:23Z</time>
      </trkpt>
      <trkpt lat="48.01588" lon="-4.56511">
        <ele>31.38</ele>
        <time>2014-01-20T14:37:34Z</time>
      </trkpt>
      <trkpt lat="48.01604" lon="-4.56514">
        <ele>30.9</ele>
        <time>2014-01-20T14:37:46Z</time>
      </trkpt>
      <trkpt lat="48.01617" lon="-4.56515">
        <ele>30.9</ele>
        <time>2014-01-20T14:37:57Z</time>
      </trkpt>
      <trkpt lat="48.01633" lon="-4.56517">
        <ele>32.34</ele>
        <time>2014-01-20T14:38:09Z</time>
      </trkpt>
      <trkpt lat="48.01651" lon="-4.56516">
        <ele>33.78</ele>
        <time>2014-01-20T14:38:21Z</time>
      </trkpt>
      <trkpt lat="48.01665" lon="-4.56509">
        <ele>34.26</ele>
        <time>2014-01-20T14:38:32Z</time>
      </trkpt>
      <trkpt lat="48.01672" lon="-4.56501">
        <ele>35.23</ele>
        <time>2014-01-20T14:38:38Z</time>
      </trkpt>
      <trkpt lat="48.01676" lon="-4.56496">
        <ele>35.71</ele>
        <time>2014-01-20T14:38:42Z</time>
      </trkpt>
      <trkpt lat="48.0168" lon="-4.56485">
        <ele>36.67</ele>
        <time>2014-01-20T14:38:48Z</time>
      </trkpt>
      <trkpt lat="48.01692" lon="-4.5647">
        <ele>37.63</ele>
        <time>2014-01-20T14:38:59Z</time>
      </trkpt>
      <trkpt lat="48.01704" lon="-4.56466">
        <ele>36.67</ele>
        <time>2014-01-20T14:39:10Z</time>
      </trkpt>
      <trkpt lat="48.01719" lon="-4.56469">
        <ele>38.59</ele>
        <time>2014-01-20T14:39:21Z</time>
      </trkpt>
      <trkpt lat="48.01727" lon="-4.56469">
        <ele>38.59</ele>
        <time>2014-01-20T14:39:27Z</time>
      </trkpt>
      <trkpt lat="48.0174" lon="-4.56472">
        <ele>38.59</ele>
        <time>2014-01-20T14:39:37Z</time>
      </trkpt>
      <trkpt lat="48.01753" lon="-4.56475">
        <ele>40.03</ele>
        <time>2014-01-20T14:39:46Z</time>
      </trkpt>
      <trkpt lat="48.01761" lon="-4.56475">
        <ele>39.07</ele>
        <time>2014-01-20T14:39:52Z</time>
      </trkpt>
      <trkpt lat="48.01778" lon="-4.56477">
        <ele>39.55</ele>
        <time>2014-01-20T14:40:04Z</time>
      </trkpt>
      <trkpt lat="48.01791" lon="-4.56478">
        <ele>38.59</ele>
        <time>2014-01-20T14:40:13Z</time>
      </trkpt>
      <trkpt lat="48.01805" lon="-4.56478">
        <ele>39.07</ele>
        <time>2014-01-20T14:40:24Z</time>
      </trkpt>
      <trkpt lat="48.0182" lon="-4.56477">
        <ele>38.11</ele>
        <time>2014-01-20T14:40:36Z</time>
      </trkpt>
      <trkpt lat="48.01837" lon="-4.56472">
        <ele>39.07</ele>
        <time>2014-01-20T14:40:48Z</time>
      </trkpt>
      <trkpt lat="48.01852" lon="-4.56465">
        <ele>39.55</ele>
        <time>2014-01-20T14:41:00Z</time>
      </trkpt>
      <trkpt lat="48.01856" lon="-4.56461">
        <ele>40.03</ele>
        <time>2014-01-20T14:41:03Z</time>
      </trkpt>
      <trkpt lat="48.01862" lon="-4.56458">
        <ele>40.51</ele>
        <time>2014-01-20T14:41:07Z</time>
      </trkpt>
      <trkpt lat="48.01875" lon="-4.56446">
        <ele>40.99</ele>
        <time>2014-01-20T14:41:18Z</time>
      </trkpt>
      <trkpt lat="48.01877" lon="-4.56445">
        <ele>40.51</ele>
        <time>2014-01-20T14:41:20Z</time>
      </trkpt>
      <trkpt lat="48.01896" lon="-4.56434">
        <ele>40.51</ele>
        <time>2014-01-20T14:41:35Z</time>
      </trkpt>
      <trkpt lat="48.01909" lon="-4.56424">
        <ele>40.03</ele>
        <time>2014-01-20T14:41:47Z</time>
      </trkpt>
      <trkpt lat="48.01919" lon="-4.56415">
        <ele>38.59</ele>
        <time>2014-01-20T14:41:56Z</time>
      </trkpt>
      <trkpt lat="48.01926" lon="-4.56412">
        <ele>40.51</ele>
        <time>2014-01-20T14:42:01Z</time>
      </trkpt>
      <trkpt lat="48.01939" lon="-4.56403">
        <ele>40.99</ele>
        <time>2014-01-20T14:42:11Z</time>
      </trkpt>
      <trkpt lat="48.01955" lon="-4.56392">
        <ele>40.99</ele>
        <time>2014-01-20T14:42:24Z</time>
      </trkpt>
      <trkpt lat="48.01961" lon="-4.56388">
        <ele>41.95</ele>
        <time>2014-01-20T14:42:29Z</time>
      </trkpt>
      <trkpt lat="48.01962" lon="-4.56383">
        <ele>41.47</ele>
        <time>2014-01-20T14:42:33Z</time>
      </trkpt>
      <trkpt lat="48.01953" lon="-4.56376">
        <ele>41.47</ele>
        <time>2014-01-20T14:42:40Z</time>
      </trkpt>
      <trkpt lat="48.01941" lon="-4.56369">
        <ele>40.99</ele>
        <time>2014-01-20T14:42:50Z</time>
      </trkpt>
      <trkpt lat="48.01929" lon="-4.56362">
        <ele>39.55</ele>
        <time>2014-01-20T14:43:00Z</time>
      </trkpt>
      <trkpt lat="48.01928" lon="-4.56361">
        <ele>39.55</ele>
        <time>2014-01-20T14:43:01Z</time>
      </trkpt>
      <trkpt lat="48.01914" lon="-4.56356">
        <ele>39.55</ele>
        <time>2014-01-20T14:43:12Z</time>
      </trkpt>
      <trkpt lat="48.01899" lon="-4.56349">
        <ele>38.59</ele>
        <time>2014-01-20T14:43:23Z</time>
      </trkpt>
      <trkpt lat="48.01882" lon="-4.5634">
        <ele>39.55</ele>
        <time>2014-01-20T14:43:36Z</time>
      </trkpt>
      <trkpt lat="48.01867" lon="-4.56329">
        <ele>41.47</ele>
        <time>2014-01-20T14:43:49Z</time>
      </trkpt>
      <trkpt lat="48.01865" lon="-4.56327">
        <ele>41.47</ele>
        <time>2014-01-20T14:44:00Z</time>
      </trkpt>
      <trkpt lat="48.01855" lon="-4.56314">
        <ele>41.95</ele>
        <time>2014-01-20T14:44:10Z</time>
      </trkpt>
      <trkpt lat="48.01845" lon="-4.5629">
        <ele>41.95</ele>
        <time>2014-01-20T14:44:23Z</time>
      </trkpt>
      <trkpt lat="48.0184" lon="-4.5627">
        <ele>41.47</ele>
        <time>2014-01-20T14:44:34Z</time>
      </trkpt>
      <trkpt lat="48.01836" lon="-4.56243">
        <ele>39.55</ele>
        <time>2014-01-20T14:44:48Z</time>
      </trkpt>
      <trkpt lat="48.01838" lon="-4.56221">
        <ele>39.55</ele>
        <time>2014-01-20T14:44:59Z</time>
      </trkpt>
      <trkpt lat="48.01841" lon="-4.562">
        <ele>40.99</ele>
        <time>2014-01-20T14:45:10Z</time>
      </trkpt>
      <trkpt lat="48.01845" lon="-4.56178">
        <ele>41.47</ele>
        <time>2014-01-20T14:45:20Z</time>
      </trkpt>
      <trkpt lat="48.0185" lon="-4.56156">
        <ele>41.95</ele>
        <time>2014-01-20T14:45:31Z</time>
      </trkpt>
      <trkpt lat="48.01856" lon="-4.5614">
        <ele>41.95</ele>
        <time>2014-01-20T14:45:40Z</time>
      </trkpt>
      <trkpt lat="48.01862" lon="-4.56117">
        <ele>40.51</ele>
        <time>2014-01-20T14:45:53Z</time>
      </trkpt>
      <trkpt lat="48.01869" lon="-4.56097">
        <ele>40.03</ele>
        <time>2014-01-20T14:46:04Z</time>
      </trkpt>
      <trkpt lat="48.01874" lon="-4.56072">
        <ele>38.11</ele>
        <time>2014-01-20T14:46:17Z</time>
      </trkpt>
      <trkpt lat="48.0188" lon="-4.56049">
        <ele>38.11</ele>
        <time>2014-01-20T14:46:29Z</time>
      </trkpt>
      <trkpt lat="48.01881" lon="-4.56043">
        <ele>38.11</ele>
        <time>2014-01-20T14:46:32Z</time>
      </trkpt>
      <trkpt lat="48.01887" lon="-4.56026">
        <ele>39.07</ele>
        <time>2014-01-20T14:46:41Z</time>
      </trkpt>
      <trkpt lat="48.01893" lon="-4.56007">
        <ele>40.03</ele>
        <time>2014-01-20T14:46:51Z</time>
      </trkpt>
      <trkpt lat="48.01898" lon="-4.55981">
        <ele>40.51</ele>
        <time>2014-01-20T14:47:04Z</time>
      </trkpt>
      <trkpt lat="48.019" lon="-4.55971">
        <ele>41.95</ele>
        <time>2014-01-20T14:47:09Z</time>
      </trkpt>
      <trkpt lat="48.01904" lon="-4.55941">
        <ele>41.95</ele>
        <time>2014-01-20T14:47:23Z</time>
      </trkpt>
      <trkpt lat="48.01908" lon="-4.55931">
        <ele>42.44</ele>
        <time>2014-01-20T14:47:29Z</time>
      </trkpt>
      <trkpt lat="48.01921" lon="-4.55917">
        <ele>41.95</ele>
        <time>2014-01-20T14:47:41Z</time>
      </trkpt>
      <trkpt lat="48.01931" lon="-4.55897">
        <ele>42.92</ele>
        <time>2014-01-20T14:47:53Z</time>
      </trkpt>
      <trkpt lat="48.01939" lon="-4.55869">
        <ele>42.44</ele>
        <time>2014-01-20T14:48:07Z</time>
      </trkpt>
      <trkpt lat="48.01946" lon="-4.55847">
        <ele>41.47</ele>
        <time>2014-01-20T14:48:19Z</time>
      </trkpt>
      <trkpt lat="48.0195" lon="-4.55826">
        <ele>41.47</ele>
        <time>2014-01-20T14:48:30Z</time>
      </trkpt>
      <trkpt lat="48.01953" lon="-4.55809">
        <ele>40.03</ele>
        <time>2014-01-20T14:48:39Z</time>
      </trkpt>
      <trkpt lat="48.01957" lon="-4.55783">
        <ele>40.51</ele>
        <time>2014-01-20T14:48:51Z</time>
      </trkpt>
      <trkpt lat="48.01959" lon="-4.5576">
        <ele>39.55</ele>
        <time>2014-01-20T14:49:03Z</time>
      </trkpt>
      <trkpt lat="48.01962" lon="-4.55733">
        <ele>38.59</ele>
        <time>2014-01-20T14:49:16Z</time>
      </trkpt>
      <trkpt lat="48.01964" lon="-4.55711">
        <ele>39.07</ele>
        <time>2014-01-20T14:49:27Z</time>
      </trkpt>
      <trkpt lat="48.01972" lon="-4.55689">
        <ele>37.63</ele>
        <time>2014-01-20T14:49:39Z</time>
      </trkpt>
      <trkpt lat="48.01979" lon="-4.55672">
        <ele>36.19</ele>
        <time>2014-01-20T14:49:50Z</time>
      </trkpt>
      <trkpt lat="48.01988" lon="-4.55652">
        <ele>35.23</ele>
        <time>2014-01-20T14:50:02Z</time>
      </trkpt>
      <trkpt lat="48.01993" lon="-4.55642">
        <ele>35.23</ele>
        <time>2014-01-20T14:50:08Z</time>
      </trkpt>
      <trkpt lat="48.01997" lon="-4.55635">
        <ele>34.74</ele>
        <time>2014-01-20T14:50:13Z</time>
      </trkpt>
      <trkpt lat="48.01998" lon="-4.5563">
        <ele>33.78</ele>
        <time>2014-01-20T14:50:16Z</time>
      </trkpt>
      <trkpt lat="48.02003" lon="-4.55614">
        <ele>33.3</ele>
        <time>2014-01-20T14:50:25Z</time>
      </trkpt>
      <trkpt lat="48.02005" lon="-4.55596">
        <ele>30.42</ele>
        <time>2014-01-20T14:50:35Z</time>
      </trkpt>
      <trkpt lat="48.02007" lon="-4.55582">
        <ele>28.98</ele>
        <time>2014-01-20T14:50:45Z</time>
      </trkpt>
      <trkpt lat="48.02007" lon="-4.55578">
        <ele>28.98</ele>
        <time>2014-01-20T14:50:47Z</time>
      </trkpt>
      <trkpt lat="48.02001" lon="-4.55549">
        <ele>30.42</ele>
        <time>2014-01-20T14:50:59Z</time>
      </trkpt>
      <trkpt lat="48.01997" lon="-4.55528">
        <ele>31.38</ele>
        <time>2014-01-20T14:51:10Z</time>
      </trkpt>
      <trkpt lat="48.01993" lon="-4.55512">
        <ele>31.38</ele>
        <time>2014-01-20T14:51:19Z</time>
      </trkpt>
      <trkpt lat="48.01991" lon="-4.55502">
        <ele>31.86</ele>
        <time>2014-01-20T14:51:23Z</time>
      </trkpt>
      <trkpt lat="48.01986" lon="-4.55481">
        <ele>32.34</ele>
        <time>2014-01-20T14:51:33Z</time>
      </trkpt>
      <trkpt lat="48.01982" lon="-4.5546">
        <ele>32.34</ele>
        <time>2014-01-20T14:51:44Z</time>
      </trkpt>
      <trkpt lat="48.01985" lon="-4.55459">
        <ele>32.34</ele>
        <time>2014-01-20T14:51:51Z</time>
      </trkpt>
      <trkpt lat="48.01987" lon="-4.55459">
        <ele>32.34</ele>
        <time>2014-01-20T14:51:54Z</time>
      </trkpt>
      <trkpt lat="48.01982" lon="-4.55447">
        <ele>32.34</ele>
        <time>2014-01-20T14:52:04Z</time>
      </trkpt>
      <trkpt lat="48.01982" lon="-4.55446">
        <ele>32.34</ele>
        <time>2014-01-20T14:52:05Z</time>
      </trkpt>
      <trkpt lat="48.01981" lon="-4.55436">
        <ele>31.86</ele>
        <time>2014-01-20T14:52:12Z</time>
      </trkpt>
      <trkpt lat="48.01982" lon="-4.55433">
        <ele>31.86</ele>
        <time>2014-01-20T14:52:14Z</time>
      </trkpt>
      <trkpt lat="48.01979" lon="-4.55422">
        <ele>31.38</ele>
        <time>2014-01-20T14:52:20Z</time>
      </trkpt>
      <trkpt lat="48.01973" lon="-4.554">
        <ele>29.94</ele>
        <time>2014-01-20T14:52:31Z</time>
      </trkpt>
      <trkpt lat="48.01973" lon="-4.55395">
        <ele>29.46</ele>
        <time>2014-01-20T14:52:33Z</time>
      </trkpt>
      <trkpt lat="48.01967" lon="-4.55376">
        <ele>28.5</ele>
        <time>2014-01-20T14:52:43Z</time>
      </trkpt>
      <trkpt lat="48.01966" lon="-4.55374">
        <ele>28.98</ele>
        <time>2014-01-20T14:52:44Z</time>
      </trkpt>
      <trkpt lat="48.01965" lon="-4.55368">
        <ele>28.98</ele>
        <time>2014-01-20T14:52:47Z</time>
      </trkpt>
      <trkpt lat="48.01955" lon="-4.55344">
        <ele>27.53</ele>
        <time>2014-01-20T14:53:00Z</time>
      </trkpt>
      <trkpt lat="48.01952" lon="-4.55338">
        <ele>27.53</ele>
        <time>2014-01-20T14:53:03Z</time>
      </trkpt>
      <trkpt lat="48.01946" lon="-4.55324">
        <ele>25.61</ele>
        <time>2014-01-20T14:53:13Z</time>
      </trkpt>
      <trkpt lat="48.01936" lon="-4.55306">
        <ele>24.65</ele>
        <time>2014-01-20T14:53:24Z</time>
      </trkpt>
      <trkpt lat="48.01935" lon="-4.55302">
        <ele>24.65</ele>
        <time>2014-01-20T14:53:26Z</time>
      </trkpt>
      <trkpt lat="48.01931" lon="-4.55289">
        <ele>25.13</ele>
        <time>2014-01-20T14:53:34Z</time>
      </trkpt>
      <trkpt lat="48.0193" lon="-4.55285">
        <ele>25.61</ele>
        <time>2014-01-20T14:53:36Z</time>
      </trkpt>
      <trkpt lat="48.01925" lon="-4.55262">
        <ele>27.53</ele>
        <time>2014-01-20T14:53:47Z</time>
      </trkpt>
      <trkpt lat="48.01923" lon="-4.55249">
        <ele>28.98</ele>
        <time>2014-01-20T14:53:53Z</time>
      </trkpt>
      <trkpt lat="48.01923" lon="-4.55229">
        <ele>30.9</ele>
        <time>2014-01-20T14:54:03Z</time>
      </trkpt>
      <trkpt lat="48.01923" lon="-4.55227">
        <ele>30.42</ele>
        <time>2014-01-20T14:54:04Z</time>
      </trkpt>
      <trkpt lat="48.01928" lon="-4.55204">
        <ele>28.5</ele>
        <time>2014-01-20T14:54:17Z</time>
      </trkpt>
      <trkpt lat="48.01934" lon="-4.55186">
        <ele>29.94</ele>
        <time>2014-01-20T14:54:27Z</time>
      </trkpt>
      <trkpt lat="48.01943" lon="-4.55168">
        <ele>31.38</ele>
        <time>2014-01-20T14:54:38Z</time>
      </trkpt>
      <trkpt lat="48.01944" lon="-4.55166">
        <ele>31.38</ele>
        <time>2014-01-20T14:54:39Z</time>
      </trkpt>
      <trkpt lat="48.01949" lon="-4.55159">
        <ele>31.38</ele>
        <time>2014-01-20T14:54:44Z</time>
      </trkpt>
      <trkpt lat="48.01957" lon="-4.55141">
        <ele>28.98</ele>
        <time>2014-01-20T14:54:56Z</time>
      </trkpt>
      <trkpt lat="48.01961" lon="-4.55125">
        <ele>26.09</ele>
        <time>2014-01-20T14:55:06Z</time>
      </trkpt>
      <trkpt lat="48.01963" lon="-4.5512">
        <ele>24.65</ele>
        <time>2014-01-20T14:55:10Z</time>
      </trkpt>
      <trkpt lat="48.01963" lon="-4.55113">
        <ele>23.69</ele>
        <time>2014-01-20T14:55:14Z</time>
      </trkpt>
      <trkpt lat="48.0196" lon="-4.55102">
        <ele>22.25</ele>
        <time>2014-01-20T14:55:22Z</time>
      </trkpt>
      <trkpt lat="48.0196" lon="-4.55098">
        <ele>21.77</ele>
        <time>2014-01-20T14:55:24Z</time>
      </trkpt>
      <trkpt lat="48.01957" lon="-4.55082">
        <ele>20.32</ele>
        <time>2014-01-20T14:55:33Z</time>
      </trkpt>
      <trkpt lat="48.01956" lon="-4.55079">
        <ele>20.32</ele>
        <time>2014-01-20T14:55:35Z</time>
      </trkpt>
      <trkpt lat="48.01952" lon="-4.55054">
        <ele>19.84</ele>
        <time>2014-01-20T14:55:46Z</time>
      </trkpt>
      <trkpt lat="48.0195" lon="-4.55032">
        <ele>19.36</ele>
        <time>2014-01-20T14:55:57Z</time>
      </trkpt>
      <trkpt lat="48.01949" lon="-4.5502">
        <ele>19.36</ele>
        <time>2014-01-20T14:56:04Z</time>
      </trkpt>
      <trkpt lat="48.01947" lon="-4.55001">
        <ele>19.36</ele>
        <time>2014-01-20T14:56:14Z</time>
      </trkpt>
      <trkpt lat="48.01947" lon="-4.54999">
        <ele>18.88</ele>
        <time>2014-01-20T14:56:15Z</time>
      </trkpt>
      <trkpt lat="48.01947" lon="-4.54988">
        <ele>17.92</ele>
        <time>2014-01-20T14:56:22Z</time>
      </trkpt>
      <trkpt lat="48.01946" lon="-4.54976">
        <ele>17.92</ele>
        <time>2014-01-20T14:56:29Z</time>
      </trkpt>
      <trkpt lat="48.01945" lon="-4.5497">
        <ele>18.4</ele>
        <time>2014-01-20T14:56:32Z</time>
      </trkpt>
      <trkpt lat="48.01941" lon="-4.54958">
        <ele>19.84</ele>
        <time>2014-01-20T14:56:37Z</time>
      </trkpt>
      <trkpt lat="48.01935" lon="-4.54944">
        <ele>21.77</ele>
        <time>2014-01-20T14:56:45Z</time>
      </trkpt>
      <trkpt lat="48.0193" lon="-4.54931">
        <ele>23.69</ele>
        <time>2014-01-20T14:56:54Z</time>
      </trkpt>
      <trkpt lat="48.01928" lon="-4.54927">
        <ele>24.17</ele>
        <time>2014-01-20T14:56:57Z</time>
      </trkpt>
      <trkpt lat="48.0192" lon="-4.54915">
        <ele>25.61</ele>
        <time>2014-01-20T14:57:07Z</time>
      </trkpt>
      <trkpt lat="48.01921" lon="-4.54919">
        <ele>26.57</ele>
        <time>2014-01-20T14:57:16Z</time>
      </trkpt>
      <trkpt lat="48.01925" lon="-4.54925">
        <ele>26.09</ele>
        <time>2014-01-20T14:57:21Z</time>
      </trkpt>
      <trkpt lat="48.01938" lon="-4.54952">
        <ele>26.57</ele>
        <time>2014-01-20T14:57:35Z</time>
      </trkpt>
      <trkpt lat="48.01942" lon="-4.54976">
        <ele>26.09</ele>
        <time>2014-01-20T14:57:47Z</time>
      </trkpt>
      <trkpt lat="48.01943" lon="-4.54993">
        <ele>26.57</ele>
        <time>2014-01-20T14:57:56Z</time>
      </trkpt>
      <trkpt lat="48.01945" lon="-4.55016">
        <ele>26.09</ele>
        <time>2014-01-20T14:58:08Z</time>
      </trkpt>
      <trkpt lat="48.01945" lon="-4.55036">
        <ele>25.13</ele>
        <time>2014-01-20T14:58:19Z</time>
      </trkpt>
      <trkpt lat="48.01944" lon="-4.55039">
        <ele>24.65</ele>
        <time>2014-01-20T14:58:20Z</time>
      </trkpt>
      <trkpt lat="48.01949" lon="-4.55061">
        <ele>23.21</ele>
        <time>2014-01-20T14:58:32Z</time>
      </trkpt>
      <trkpt lat="48.01949" lon="-4.55063">
        <ele>22.73</ele>
        <time>2014-01-20T14:58:37Z</time>
      </trkpt>
      <trkpt lat="48.01952" lon="-4.55058">
        <ele>21.77</ele>
        <time>2014-01-20T14:58:42Z</time>
      </trkpt>
      <trkpt lat="48.01956" lon="-4.55055">
        <ele>21.77</ele>
        <time>2014-01-20T14:58:49Z</time>
      </trkpt>
      <trkpt lat="48.01962" lon="-4.5505">
        <ele>23.21</ele>
        <time>2014-01-20T14:58:58Z</time>
      </trkpt>
      <trkpt lat="48.01967" lon="-4.55042">
        <ele>22.25</ele>
        <time>2014-01-20T14:59:08Z</time>
      </trkpt>
      <trkpt lat="48.01978" lon="-4.55029">
        <ele>19.36</ele>
        <time>2014-01-20T14:59:18Z</time>
      </trkpt>
      <trkpt lat="48.01992" lon="-4.55012">
        <ele>16.96</ele>
        <time>2014-01-20T14:59:30Z</time>
      </trkpt>
      <trkpt lat="48.02" lon="-4.55002">
        <ele>17.44</ele>
        <time>2014-01-20T14:59:42Z</time>
      </trkpt>
      <trkpt lat="48.02019" lon="-4.54981">
        <ele>17.92</ele>
        <time>2014-01-20T14:59:56Z</time>
      </trkpt>
      <trkpt lat="48.02034" lon="-4.54966">
        <ele>16.96</ele>
        <time>2014-01-20T15:00:10Z</time>
      </trkpt>
      <trkpt lat="48.02042" lon="-4.54949">
        <ele>20.81</ele>
        <time>2014-01-20T15:00:23Z</time>
      </trkpt>
      <trkpt lat="48.02044" lon="-4.54943">
        <ele>20.32</ele>
        <time>2014-01-20T15:00:26Z</time>
      </trkpt>
      <trkpt lat="48.02052" lon="-4.54926">
        <ele>23.21</ele>
        <time>2014-01-20T15:00:38Z</time>
      </trkpt>
      <trkpt lat="48.02056" lon="-4.54913">
        <ele>25.13</ele>
        <time>2014-01-20T15:00:48Z</time>
      </trkpt>
      <trkpt lat="48.02064" lon="-4.54907">
        <ele>29.46</ele>
        <time>2014-01-20T15:01:00Z</time>
      </trkpt>
      <trkpt lat="48.02078" lon="-4.54916">
        <ele>31.38</ele>
        <time>2014-01-20T15:01:11Z</time>
      </trkpt>
      <trkpt lat="48.02086" lon="-4.5492">
        <ele>32.82</ele>
        <time>2014-01-20T15:01:18Z</time>
      </trkpt>
      <trkpt lat="48.02089" lon="-4.54921">
        <ele>33.3</ele>
        <time>2014-01-20T15:01:20Z</time>
      </trkpt>
      <trkpt lat="48.02103" lon="-4.54925">
        <ele>36.19</ele>
        <time>2014-01-20T15:01:33Z</time>
      </trkpt>
      <trkpt lat="48.02118" lon="-4.54931">
        <ele>37.63</ele>
        <time>2014-01-20T15:01:45Z</time>
      </trkpt>
      <trkpt lat="48.0213" lon="-4.54932">
        <ele>35.71</ele>
        <time>2014-01-20T15:01:57Z</time>
      </trkpt>
      <trkpt lat="48.02136" lon="-4.54932">
        <ele>33.3</ele>
        <time>2014-01-20T15:02:07Z</time>
      </trkpt>
      <trkpt lat="48.02139" lon="-4.54929">
        <ele>32.82</ele>
        <time>2014-01-20T15:02:16Z</time>
      </trkpt>
      <trkpt lat="48.02149" lon="-4.54915">
        <ele>34.74</ele>
        <time>2014-01-20T15:02:26Z</time>
      </trkpt>
      <trkpt lat="48.02163" lon="-4.54906">
        <ele>39.55</ele>
        <time>2014-01-20T15:02:37Z</time>
      </trkpt>
      <trkpt lat="48.02167" lon="-4.54903">
        <ele>40.51</ele>
        <time>2014-01-20T15:02:40Z</time>
      </trkpt>
      <trkpt lat="48.02175" lon="-4.54896">
        <ele>42.92</ele>
        <time>2014-01-20T15:02:48Z</time>
      </trkpt>
      <trkpt lat="48.02184" lon="-4.54883">
        <ele>43.4</ele>
        <time>2014-01-20T15:02:58Z</time>
      </trkpt>
      <trkpt lat="48.02191" lon="-4.54872">
        <ele>44.36</ele>
        <time>2014-01-20T15:03:06Z</time>
      </trkpt>
      <trkpt lat="48.02193" lon="-4.54865">
        <ele>44.84</ele>
        <time>2014-01-20T15:03:10Z</time>
      </trkpt>
      <trkpt lat="48.022" lon="-4.54842">
        <ele>44.84</ele>
        <time>2014-01-20T15:03:23Z</time>
      </trkpt>
      <trkpt lat="48.02204" lon="-4.54817">
        <ele>43.88</ele>
        <time>2014-01-20T15:03:36Z</time>
      </trkpt>
      <trkpt lat="48.02205" lon="-4.54804">
        <ele>43.4</ele>
        <time>2014-01-20T15:03:43Z</time>
      </trkpt>
      <trkpt lat="48.02209" lon="-4.54781">
        <ele>42.44</ele>
        <time>2014-01-20T15:03:55Z</time>
      </trkpt>
      <trkpt lat="48.0221" lon="-4.54776">
        <ele>41.95</ele>
        <time>2014-01-20T15:03:58Z</time>
      </trkpt>
      <trkpt lat="48.02211" lon="-4.54767">
        <ele>41.95</ele>
        <time>2014-01-20T15:04:02Z</time>
      </trkpt>
      <trkpt lat="48.02213" lon="-4.54759">
        <ele>40.99</ele>
        <time>2014-01-20T15:04:06Z</time>
      </trkpt>
      <trkpt lat="48.02213" lon="-4.54745">
        <ele>39.07</ele>
        <time>2014-01-20T15:04:14Z</time>
      </trkpt>
      <trkpt lat="48.02215" lon="-4.54739">
        <ele>39.07</ele>
        <time>2014-01-20T15:04:18Z</time>
      </trkpt>
      <trkpt lat="48.02217" lon="-4.54718">
        <ele>38.59</ele>
        <time>2014-01-20T15:04:29Z</time>
      </trkpt>
      <trkpt lat="48.02219" lon="-4.54703">
        <ele>37.15</ele>
        <time>2014-01-20T15:04:37Z</time>
      </trkpt>
      <trkpt lat="48.0222" lon="-4.54698">
        <ele>36.19</ele>
        <time>2014-01-20T15:04:40Z</time>
      </trkpt>
      <trkpt lat="48.02228" lon="-4.54675">
        <ele>34.74</ele>
        <time>2014-01-20T15:04:52Z</time>
      </trkpt>
      <trkpt lat="48.02237" lon="-4.54655">
        <ele>36.19</ele>
        <time>2014-01-20T15:05:03Z</time>
      </trkpt>
      <trkpt lat="48.02239" lon="-4.54651">
        <ele>35.71</ele>
        <time>2014-01-20T15:05:06Z</time>
      </trkpt>
      <trkpt lat="48.02248" lon="-4.54637">
        <ele>31.86</ele>
        <time>2014-01-20T15:05:18Z</time>
      </trkpt>
      <trkpt lat="48.02259" lon="-4.54625">
        <ele>30.9</ele>
        <time>2014-01-20T15:05:28Z</time>
      </trkpt>
      <trkpt lat="48.02276" lon="-4.54611">
        <ele>30.9</ele>
        <time>2014-01-20T15:05:41Z</time>
      </trkpt>
      <trkpt lat="48.02278" lon="-4.54609">
        <ele>30.42</ele>
        <time>2014-01-20T15:05:44Z</time>
      </trkpt>
      <trkpt lat="48.02291" lon="-4.546">
        <ele>27.05</ele>
        <time>2014-01-20T15:05:56Z</time>
      </trkpt>
      <trkpt lat="48.02304" lon="-4.5459">
        <ele>25.61</ele>
        <time>2014-01-20T15:06:08Z</time>
      </trkpt>
      <trkpt lat="48.02306" lon="-4.5459">
        <ele>25.61</ele>
        <time>2014-01-20T15:06:09Z</time>
      </trkpt>
      <trkpt lat="48.02313" lon="-4.54584">
        <ele>22.73</ele>
        <time>2014-01-20T15:06:17Z</time>
      </trkpt>
      <trkpt lat="48.02321" lon="-4.54579">
        <ele>21.29</ele>
        <time>2014-01-20T15:06:24Z</time>
      </trkpt>
      <trkpt lat="48.02333" lon="-4.5457">
        <ele>25.13</ele>
        <time>2014-01-20T15:06:31Z</time>
      </trkpt>
      <trkpt lat="48.02352" lon="-4.54569">
        <ele>27.05</ele>
        <time>2014-01-20T15:06:44Z</time>
      </trkpt>
      <trkpt lat="48.02363" lon="-4.54577">
        <ele>26.57</ele>
        <time>2014-01-20T15:06:54Z</time>
      </trkpt>
      <trkpt lat="48.02371" lon="-4.54592">
        <ele>26.09</ele>
        <time>2014-01-20T15:07:06Z</time>
      </trkpt>
      <trkpt lat="48.02373" lon="-4.54597">
        <ele>25.13</ele>
        <time>2014-01-20T15:07:10Z</time>
      </trkpt>
      <trkpt lat="48.02387" lon="-4.54618">
        <ele>30.42</ele>
        <time>2014-01-20T15:07:24Z</time>
      </trkpt>
      <trkpt lat="48.02394" lon="-4.54632">
        <ele>32.34</ele>
        <time>2014-01-20T15:07:33Z</time>
      </trkpt>
      <trkpt lat="48.02402" lon="-4.54643">
        <ele>37.63</ele>
        <time>2014-01-20T15:07:41Z</time>
      </trkpt>
      <trkpt lat="48.02405" lon="-4.5465">
        <ele>40.51</ele>
        <time>2014-01-20T15:07:48Z</time>
      </trkpt>
      <trkpt lat="48.02406" lon="-4.54651">
        <ele>40.99</ele>
        <time>2014-01-20T15:07:51Z</time>
      </trkpt>
      <trkpt lat="48.02412" lon="-4.54658">
        <ele>42.44</ele>
        <time>2014-01-20T15:08:04Z</time>
      </trkpt>
      <trkpt lat="48.02416" lon="-4.54666">
        <ele>42.92</ele>
        <time>2014-01-20T15:08:20Z</time>
      </trkpt>
      <trkpt lat="48.02419" lon="-4.54671">
        <ele>42.44</ele>
        <time>2014-01-20T15:08:24Z</time>
      </trkpt>
      <trkpt lat="48.02423" lon="-4.54676">
        <ele>42.44</ele>
        <time>2014-01-20T15:08:28Z</time>
      </trkpt>
      <trkpt lat="48.02426" lon="-4.54686">
        <ele>41.95</ele>
        <time>2014-01-20T15:08:41Z</time>
      </trkpt>
      <trkpt lat="48.02428" lon="-4.54691">
        <ele>41.95</ele>
        <time>2014-01-20T15:08:55Z</time>
      </trkpt>
      <trkpt lat="48.02433" lon="-4.54701">
        <ele>42.44</ele>
        <time>2014-01-20T15:09:02Z</time>
      </trkpt>
      <trkpt lat="48.02448" lon="-4.54718">
        <ele>42.44</ele>
        <time>2014-01-20T15:09:16Z</time>
      </trkpt>
      <trkpt lat="48.02455" lon="-4.54727">
        <ele>43.88</ele>
        <time>2014-01-20T15:09:26Z</time>
      </trkpt>
      <trkpt lat="48.02456" lon="-4.54729">
        <ele>43.88</ele>
        <time>2014-01-20T15:09:28Z</time>
      </trkpt>
      <trkpt lat="48.0246" lon="-4.54735">
        <ele>42.92</ele>
        <time>2014-01-20T15:09:33Z</time>
      </trkpt>
      <trkpt lat="48.02463" lon="-4.5475">
        <ele>42.44</ele>
        <time>2014-01-20T15:09:42Z</time>
      </trkpt>
      <trkpt lat="48.02466" lon="-4.54761">
        <ele>42.44</ele>
        <time>2014-01-20T15:09:48Z</time>
      </trkpt>
      <trkpt lat="48.02469" lon="-4.54782">
        <ele>41.47</ele>
        <time>2014-01-20T15:09:59Z</time>
      </trkpt>
      <trkpt lat="48.02473" lon="-4.54799">
        <ele>42.44</ele>
        <time>2014-01-20T15:10:08Z</time>
      </trkpt>
      <trkpt lat="48.02475" lon="-4.54818">
        <ele>42.92</ele>
        <time>2014-01-20T15:10:18Z</time>
      </trkpt>
      <trkpt lat="48.02475" lon="-4.5482">
        <ele>42.44</ele>
        <time>2014-01-20T15:10:19Z</time>
      </trkpt>
      <trkpt lat="48.02474" lon="-4.54839">
        <ele>41.95</ele>
        <time>2014-01-20T15:10:29Z</time>
      </trkpt>
      <trkpt lat="48.02472" lon="-4.54851">
        <ele>41.47</ele>
        <time>2014-01-20T15:10:35Z</time>
      </trkpt>
      <trkpt lat="48.02472" lon="-4.54859">
        <ele>41.95</ele>
        <time>2014-01-20T15:10:39Z</time>
      </trkpt>
      <trkpt lat="48.02468" lon="-4.54878">
        <ele>40.99</ele>
        <time>2014-01-20T15:10:50Z</time>
      </trkpt>
      <trkpt lat="48.02467" lon="-4.54896">
        <ele>40.51</ele>
        <time>2014-01-20T15:10:59Z</time>
      </trkpt>
      <trkpt lat="48.02467" lon="-4.54898">
        <ele>40.99</ele>
        <time>2014-01-20T15:11:00Z</time>
      </trkpt>
      <trkpt lat="48.02468" lon="-4.54912">
        <ele>42.44</ele>
        <time>2014-01-20T15:11:07Z</time>
      </trkpt>
      <trkpt lat="48.02473" lon="-4.54933">
        <ele>44.36</ele>
        <time>2014-01-20T15:11:18Z</time>
      </trkpt>
      <trkpt lat="48.0248" lon="-4.54946">
        <ele>45.8</ele>
        <time>2014-01-20T15:11:26Z</time>
      </trkpt>
      <trkpt lat="48.02489" lon="-4.54964">
        <ele>45.32</ele>
        <time>2014-01-20T15:11:38Z</time>
      </trkpt>
      <trkpt lat="48.02499" lon="-4.54978">
        <ele>45.32</ele>
        <time>2014-01-20T15:11:48Z</time>
      </trkpt>
      <trkpt lat="48.02511" lon="-4.54996">
        <ele>45.8</ele>
        <time>2014-01-20T15:12:01Z</time>
      </trkpt>
      <trkpt lat="48.02514" lon="-4.55">
        <ele>45.32</ele>
        <time>2014-01-20T15:12:04Z</time>
      </trkpt>
      <trkpt lat="48.02525" lon="-4.55018">
        <ele>47.72</ele>
        <time>2014-01-20T15:12:15Z</time>
      </trkpt>
      <trkpt lat="48.02529" lon="-4.55024">
        <ele>49.16</ele>
        <time>2014-01-20T15:12:20Z</time>
      </trkpt>
      <trkpt lat="48.02531" lon="-4.55033">
        <ele>50.61</ele>
        <time>2014-01-20T15:12:24Z</time>
      </trkpt>
      <trkpt lat="48.02539" lon="-4.55051">
        <ele>50.13</ele>
        <time>2014-01-20T15:12:35Z</time>
      </trkpt>
      <trkpt lat="48.02543" lon="-4.55059">
        <ele>50.61</ele>
        <time>2014-01-20T15:12:39Z</time>
      </trkpt>
      <trkpt lat="48.0255" lon="-4.5507">
        <ele>50.61</ele>
        <time>2014-01-20T15:12:47Z</time>
      </trkpt>
      <trkpt lat="48.0256" lon="-4.55083">
        <ele>49.16</ele>
        <time>2014-01-20T15:12:58Z</time>
      </trkpt>
      <trkpt lat="48.02569" lon="-4.55097">
        <ele>46.28</ele>
        <time>2014-01-20T15:13:08Z</time>
      </trkpt>
      <trkpt lat="48.02575" lon="-4.55116">
        <ele>45.8</ele>
        <time>2014-01-20T15:13:20Z</time>
      </trkpt>
      <trkpt lat="48.02579" lon="-4.55132">
        <ele>44.84</ele>
        <time>2014-01-20T15:13:30Z</time>
      </trkpt>
      <trkpt lat="48.0258" lon="-4.55135">
        <ele>44.36</ele>
        <time>2014-01-20T15:13:32Z</time>
      </trkpt>
      <trkpt lat="48.02584" lon="-4.55152">
        <ele>42.92</ele>
        <time>2014-01-20T15:13:40Z</time>
      </trkpt>
      <trkpt lat="48.02589" lon="-4.55172">
        <ele>42.92</ele>
        <time>2014-01-20T15:13:52Z</time>
      </trkpt>
      <trkpt lat="48.02596" lon="-4.55197">
        <ele>44.36</ele>
        <time>2014-01-20T15:14:05Z</time>
      </trkpt>
      <trkpt lat="48.02602" lon="-4.55218">
        <ele>43.88</ele>
        <time>2014-01-20T15:14:17Z</time>
      </trkpt>
      <trkpt lat="48.02606" lon="-4.55243">
        <ele>44.84</ele>
        <time>2014-01-20T15:14:29Z</time>
      </trkpt>
      <trkpt lat="48.02609" lon="-4.55264">
        <ele>47.24</ele>
        <time>2014-01-20T15:14:39Z</time>
      </trkpt>
      <trkpt lat="48.02609" lon="-4.55282">
        <ele>48.68</ele>
        <time>2014-01-20T15:14:48Z</time>
      </trkpt>
      <trkpt lat="48.0261" lon="-4.55297">
        <ele>49.16</ele>
        <time>2014-01-20T15:14:55Z</time>
      </trkpt>
      <trkpt lat="48.02611" lon="-4.55307">
        <ele>48.68</ele>
        <time>2014-01-20T15:15:00Z</time>
      </trkpt>
      <trkpt lat="48.02618" lon="-4.55323">
        <ele>48.2</ele>
        <time>2014-01-20T15:15:11Z</time>
      </trkpt>
      <trkpt lat="48.02622" lon="-4.55323">
        <ele>47.72</ele>
        <time>2014-01-20T15:15:15Z</time>
      </trkpt>
      <trkpt lat="48.02623" lon="-4.55328">
        <ele>47.24</ele>
        <time>2014-01-20T15:15:19Z</time>
      </trkpt>
      <trkpt lat="48.02627" lon="-4.55348">
        <ele>47.24</ele>
        <time>2014-01-20T15:15:30Z</time>
      </trkpt>
      <trkpt lat="48.02635" lon="-4.55363">
        <ele>46.28</ele>
        <time>2014-01-20T15:15:40Z</time>
      </trkpt>
      <trkpt lat="48.02643" lon="-4.5538">
        <ele>45.8</ele>
        <time>2014-01-20T15:15:51Z</time>
      </trkpt>
      <trkpt lat="48.02644" lon="-4.5539">
        <ele>45.32</ele>
        <time>2014-01-20T15:15:59Z</time>
      </trkpt>
      <trkpt lat="48.02649" lon="-4.5538">
        <ele>44.84</ele>
        <time>2014-01-20T15:16:07Z</time>
      </trkpt>
      <trkpt lat="48.0266" lon="-4.55363">
        <ele>43.4</ele>
        <time>2014-01-20T15:16:19Z</time>
      </trkpt>
      <trkpt lat="48.02667" lon="-4.55345">
        <ele>40.03</ele>
        <time>2014-01-20T15:16:32Z</time>
      </trkpt>
      <trkpt lat="48.02679" lon="-4.55329">
        <ele>37.15</ele>
        <time>2014-01-20T15:16:44Z</time>
      </trkpt>
      <trkpt lat="48.02684" lon="-4.55325">
        <ele>38.59</ele>
        <time>2014-01-20T15:16:47Z</time>
      </trkpt>
      <trkpt lat="48.027" lon="-4.5531">
        <ele>41.47</ele>
        <time>2014-01-20T15:16:59Z</time>
      </trkpt>
      <trkpt lat="48.02703" lon="-4.55306">
        <ele>40.99</ele>
        <time>2014-01-20T15:17:02Z</time>
      </trkpt>
      <trkpt lat="48.02717" lon="-4.55302">
        <ele>41.47</ele>
        <time>2014-01-20T15:17:12Z</time>
      </trkpt>
      <trkpt lat="48.02732" lon="-4.55305">
        <ele>41.95</ele>
        <time>2014-01-20T15:17:25Z</time>
      </trkpt>
      <trkpt lat="48.02745" lon="-4.5531">
        <ele>42.44</ele>
        <time>2014-01-20T15:17:35Z</time>
      </trkpt>
      <trkpt lat="48.02756" lon="-4.55316">
        <ele>43.4</ele>
        <time>2014-01-20T15:17:44Z</time>
      </trkpt>
      <trkpt lat="48.02767" lon="-4.55325">
        <ele>44.84</ele>
        <time>2014-01-20T15:17:55Z</time>
      </trkpt>
      <trkpt lat="48.02777" lon="-4.55329">
        <ele>45.32</ele>
        <time>2014-01-20T15:18:04Z</time>
      </trkpt>
      <trkpt lat="48.02789" lon="-4.55331">
        <ele>46.28</ele>
        <time>2014-01-20T15:18:16Z</time>
      </trkpt>
      <trkpt lat="48.02803" lon="-4.55333">
        <ele>48.68</ele>
        <time>2014-01-20T15:18:25Z</time>
      </trkpt>
      <trkpt lat="48.0282" lon="-4.55334">
        <ele>49.16</ele>
        <time>2014-01-20T15:18:36Z</time>
      </trkpt>
      <trkpt lat="48.02835" lon="-4.55334">
        <ele>51.09</ele>
        <time>2014-01-20T15:18:47Z</time>
      </trkpt>
      <trkpt lat="48.02837" lon="-4.55335">
        <ele>52.05</ele>
        <time>2014-01-20T15:18:53Z</time>
      </trkpt>
      <trkpt lat="48.0282" lon="-4.55338">
        <ele>50.61</ele>
        <time>2014-01-20T15:19:07Z</time>
      </trkpt>
      <trkpt lat="48.02818" lon="-4.55338">
        <ele>51.09</ele>
        <time>2014-01-20T15:19:15Z</time>
      </trkpt>
      <trkpt lat="48.02812" lon="-4.55338">
        <ele>51.57</ele>
        <time>2014-01-20T15:19:22Z</time>
      </trkpt>
      <trkpt lat="48.02811" lon="-4.55343">
        <ele>52.05</ele>
        <time>2014-01-20T15:19:29Z</time>
      </trkpt>
      <trkpt lat="48.02811" lon="-4.55345">
        <ele>52.05</ele>
        <time>2014-01-20T15:19:30Z</time>
      </trkpt>
      <trkpt lat="48.02808" lon="-4.55353">
        <ele>52.05</ele>
        <time>2014-01-20T15:19:36Z</time>
      </trkpt>
      <trkpt lat="48.02808" lon="-4.55373">
        <ele>52.05</ele>
        <time>2014-01-20T15:19:46Z</time>
      </trkpt>
      <trkpt lat="48.02807" lon="-4.5539">
        <ele>52.53</ele>
        <time>2014-01-20T15:19:55Z</time>
      </trkpt>
      <trkpt lat="48.02807" lon="-4.55398">
        <ele>52.53</ele>
        <time>2014-01-20T15:19:59Z</time>
      </trkpt>
      <trkpt lat="48.02808" lon="-4.55411">
        <ele>52.53</ele>
        <time>2014-01-20T15:20:06Z</time>
      </trkpt>
      <trkpt lat="48.0281" lon="-4.55422">
        <ele>52.53</ele>
        <time>2014-01-20T15:20:12Z</time>
      </trkpt>
      <trkpt lat="48.02817" lon="-4.55428">
        <ele>53.49</ele>
        <time>2014-01-20T15:20:19Z</time>
      </trkpt>
      <trkpt lat="48.02824" lon="-4.55429">
        <ele>53.97</ele>
        <time>2014-01-20T15:20:24Z</time>
      </trkpt>
      <trkpt lat="48.02839" lon="-4.55429">
        <ele>55.41</ele>
        <time>2014-01-20T15:20:36Z</time>
      </trkpt>
      <trkpt lat="48.02853" lon="-4.55433">
        <ele>56.86</ele>
        <time>2014-01-20T15:20:47Z</time>
      </trkpt>
      <trkpt lat="48.0287" lon="-4.55442">
        <ele>59.26</ele>
        <time>2014-01-20T15:21:01Z</time>
      </trkpt>
      <trkpt lat="48.02879" lon="-4.55448">
        <ele>60.22</ele>
        <time>2014-01-20T15:21:09Z</time>
      </trkpt>
      <trkpt lat="48.02887" lon="-4.55456">
        <ele>58.3</ele>
        <time>2014-01-20T15:21:19Z</time>
      </trkpt>
      <trkpt lat="48.029" lon="-4.55471">
        <ele>59.74</ele>
        <time>2014-01-20T15:21:32Z</time>
      </trkpt>
      <trkpt lat="48.02906" lon="-4.55465">
        <ele>59.26</ele>
        <time>2014-01-20T15:21:37Z</time>
      </trkpt>
      <trkpt lat="48.02909" lon="-4.55458">
        <ele>57.82</ele>
        <time>2014-01-20T15:21:42Z</time>
      </trkpt>
      <trkpt lat="48.02915" lon="-4.55439">
        <ele>56.37</ele>
        <time>2014-01-20T15:21:52Z</time>
      </trkpt>
      <trkpt lat="48.02915" lon="-4.55437">
        <ele>56.37</ele>
        <time>2014-01-20T15:21:53Z</time>
      </trkpt>
      <trkpt lat="48.02918" lon="-4.55422">
        <ele>55.89</ele>
        <time>2014-01-20T15:22:01Z</time>
      </trkpt>
      <trkpt lat="48.02916" lon="-4.55402">
        <ele>54.45</ele>
        <time>2014-01-20T15:22:13Z</time>
      </trkpt>
      <trkpt lat="48.02916" lon="-4.55388">
        <ele>53.97</ele>
        <time>2014-01-20T15:22:24Z</time>
      </trkpt>
      <trkpt lat="48.0292" lon="-4.55376">
        <ele>50.13</ele>
        <time>2014-01-20T15:22:35Z</time>
      </trkpt>
      <trkpt lat="48.02919" lon="-4.55367">
        <ele>48.2</ele>
        <time>2014-01-20T15:22:41Z</time>
      </trkpt>
      <trkpt lat="48.02912" lon="-4.55352">
        <ele>48.2</ele>
        <time>2014-01-20T15:22:50Z</time>
      </trkpt>
      <trkpt lat="48.02903" lon="-4.5534">
        <ele>50.61</ele>
        <time>2014-01-20T15:22:59Z</time>
      </trkpt>
      <trkpt lat="48.02898" lon="-4.55334">
        <ele>51.57</ele>
        <time>2014-01-20T15:23:03Z</time>
      </trkpt>
      <trkpt lat="48.02896" lon="-4.55332">
        <ele>51.09</ele>
        <time>2014-01-20T15:23:05Z</time>
      </trkpt>
      <trkpt lat="48.02883" lon="-4.55332">
        <ele>48.2</ele>
        <time>2014-01-20T15:23:15Z</time>
      </trkpt>
      <trkpt lat="48.02868" lon="-4.55328">
        <ele>47.24</ele>
        <time>2014-01-20T15:23:27Z</time>
      </trkpt>
      <trkpt lat="48.02853" lon="-4.55326">
        <ele>47.72</ele>
        <time>2014-01-20T15:23:38Z</time>
      </trkpt>
      <trkpt lat="48.02838" lon="-4.55324">
        <ele>47.72</ele>
        <time>2014-01-20T15:23:50Z</time>
      </trkpt>
      <trkpt lat="48.0283" lon="-4.55315">
        <ele>47.24</ele>
        <time>2014-01-20T15:23:58Z</time>
      </trkpt>
      <trkpt lat="48.0283" lon="-4.55293">
        <ele>47.24</ele>
        <time>2014-01-20T15:24:10Z</time>
      </trkpt>
      <trkpt lat="48.0283" lon="-4.55291">
        <ele>47.24</ele>
        <time>2014-01-20T15:24:11Z</time>
      </trkpt>
      <trkpt lat="48.02829" lon="-4.55279">
        <ele>46.76</ele>
        <time>2014-01-20T15:24:18Z</time>
      </trkpt>
      <trkpt lat="48.0283" lon="-4.55273">
        <ele>46.28</ele>
        <time>2014-01-20T15:24:21Z</time>
      </trkpt>
      <trkpt lat="48.02828" lon="-4.55245">
        <ele>45.8</ele>
        <time>2014-01-20T15:24:35Z</time>
      </trkpt>
      <trkpt lat="48.02827" lon="-4.55226">
        <ele>44.84</ele>
        <time>2014-01-20T15:24:44Z</time>
      </trkpt>
      <trkpt lat="48.02829" lon="-4.55221">
        <ele>44.84</ele>
        <time>2014-01-20T15:24:47Z</time>
      </trkpt>
      <trkpt lat="48.02826" lon="-4.55194">
        <ele>44.84</ele>
        <time>2014-01-20T15:25:00Z</time>
      </trkpt>
      <trkpt lat="48.02825" lon="-4.55183">
        <ele>43.4</ele>
        <time>2014-01-20T15:25:06Z</time>
      </trkpt>
      <trkpt lat="48.02824" lon="-4.55161">
        <ele>43.88</ele>
        <time>2014-01-20T15:25:17Z</time>
      </trkpt>
      <trkpt lat="48.02823" lon="-4.55148">
        <ele>44.84</ele>
        <time>2014-01-20T15:25:23Z</time>
      </trkpt>
      <trkpt lat="48.02825" lon="-4.55145">
        <ele>44.36</ele>
        <time>2014-01-20T15:25:26Z</time>
      </trkpt>
      <trkpt lat="48.02826" lon="-4.55137">
        <ele>43.88</ele>
        <time>2014-01-20T15:25:30Z</time>
      </trkpt>
      <trkpt lat="48.02825" lon="-4.55115">
        <ele>42.92</ele>
        <time>2014-01-20T15:25:41Z</time>
      </trkpt>
      <trkpt lat="48.02825" lon="-4.55092">
        <ele>41.47</ele>
        <time>2014-01-20T15:25:52Z</time>
      </trkpt>
      <trkpt lat="48.02825" lon="-4.55088">
        <ele>41.47</ele>
        <time>2014-01-20T15:25:54Z</time>
      </trkpt>
      <trkpt lat="48.02825" lon="-4.55069">
        <ele>40.51</ele>
        <time>2014-01-20T15:26:04Z</time>
      </trkpt>
      <trkpt lat="48.02824" lon="-4.5506">
        <ele>40.51</ele>
        <time>2014-01-20T15:26:09Z</time>
      </trkpt>
      <trkpt lat="48.0282" lon="-4.55052">
        <ele>40.03</ele>
        <time>2014-01-20T15:26:13Z</time>
      </trkpt>
      <trkpt lat="48.02811" lon="-4.5503">
        <ele>40.99</ele>
        <time>2014-01-20T15:26:26Z</time>
      </trkpt>
      <trkpt lat="48.02806" lon="-4.55015">
        <ele>41.47</ele>
        <time>2014-01-20T15:26:35Z</time>
      </trkpt>
      <trkpt lat="48.02795" lon="-4.54997">
        <ele>41.47</ele>
        <time>2014-01-20T15:26:47Z</time>
      </trkpt>
      <trkpt lat="48.02791" lon="-4.54993">
        <ele>41.47</ele>
        <time>2014-01-20T15:26:52Z</time>
      </trkpt>
      <trkpt lat="48.02775" lon="-4.5498">
        <ele>41.95</ele>
        <time>2014-01-20T15:27:04Z</time>
      </trkpt>
      <trkpt lat="48.02766" lon="-4.54967">
        <ele>41.95</ele>
        <time>2014-01-20T15:27:15Z</time>
      </trkpt>
      <trkpt lat="48.02753" lon="-4.54964">
        <ele>43.88</ele>
        <time>2014-01-20T15:27:25Z</time>
      </trkpt>
      <trkpt lat="48.02751" lon="-4.54964">
        <ele>45.8</ele>
        <time>2014-01-20T15:27:27Z</time>
      </trkpt>
      <trkpt lat="48.02746" lon="-4.54959">
        <ele>49.65</ele>
        <time>2014-01-20T15:27:31Z</time>
      </trkpt>
      <trkpt lat="48.02737" lon="-4.54948">
        <ele>53.49</ele>
        <time>2014-01-20T15:27:38Z</time>
      </trkpt>
      <trkpt lat="48.0273" lon="-4.54932">
        <ele>54.93</ele>
        <time>2014-01-20T15:27:48Z</time>
      </trkpt>
      <trkpt lat="48.02717" lon="-4.54917">
        <ele>48.2</ele>
        <time>2014-01-20T15:27:58Z</time>
      </trkpt>
      <trkpt lat="48.02705" lon="-4.54909">
        <ele>43.88</ele>
        <time>2014-01-20T15:28:07Z</time>
      </trkpt>
      <trkpt lat="48.02697" lon="-4.54901">
        <ele>42.92</ele>
        <time>2014-01-20T15:28:17Z</time>
      </trkpt>
      <trkpt lat="48.02689" lon="-4.54895">
        <ele>38.59</ele>
        <time>2014-01-20T15:28:25Z</time>
      </trkpt>
      <trkpt lat="48.02682" lon="-4.54889">
        <ele>34.26</ele>
        <time>2014-01-20T15:28:34Z</time>
      </trkpt>
      <trkpt lat="48.0268" lon="-4.54884">
        <ele>33.3</ele>
        <time>2014-01-20T15:28:38Z</time>
      </trkpt>
      <trkpt lat="48.02675" lon="-4.54867">
        <ele>28.5</ele>
        <time>2014-01-20T15:28:49Z</time>
      </trkpt>
      <trkpt lat="48.02679" lon="-4.54856">
        <ele>25.13</ele>
        <time>2014-01-20T15:28:58Z</time>
      </trkpt>
      <trkpt lat="48.02679" lon="-4.5485">
        <ele>25.13</ele>
        <time>2014-01-20T15:29:01Z</time>
      </trkpt>
      <trkpt lat="48.02682" lon="-4.54837">
        <ele>25.13</ele>
        <time>2014-01-20T15:29:08Z</time>
      </trkpt>
      <trkpt lat="48.02682" lon="-4.54821">
        <ele>24.65</ele>
        <time>2014-01-20T15:29:15Z</time>
      </trkpt>
      <trkpt lat="48.02683" lon="-4.54809">
        <ele>24.65</ele>
        <time>2014-01-20T15:29:21Z</time>
      </trkpt>
      <trkpt lat="48.02682" lon="-4.54805">
        <ele>24.65</ele>
        <time>2014-01-20T15:29:23Z</time>
      </trkpt>
      <trkpt lat="48.02681" lon="-4.54789">
        <ele>25.13</ele>
        <time>2014-01-20T15:29:33Z</time>
      </trkpt>
      <trkpt lat="48.02679" lon="-4.54778">
        <ele>25.61</ele>
        <time>2014-01-20T15:29:38Z</time>
      </trkpt>
      <trkpt lat="48.02677" lon="-4.54772">
        <ele>25.61</ele>
        <time>2014-01-20T15:29:41Z</time>
      </trkpt>
      <trkpt lat="48.0267" lon="-4.54748">
        <ele>26.57</ele>
        <time>2014-01-20T15:29:53Z</time>
      </trkpt>
      <trkpt lat="48.02665" lon="-4.54731">
        <ele>23.21</ele>
        <time>2014-01-20T15:30:03Z</time>
      </trkpt>
      <trkpt lat="48.02659" lon="-4.54711">
        <ele>20.32</ele>
        <time>2014-01-20T15:30:13Z</time>
      </trkpt>
      <trkpt lat="48.02654" lon="-4.54699">
        <ele>20.81</ele>
        <time>2014-01-20T15:30:20Z</time>
      </trkpt>
      <trkpt lat="48.02644" lon="-4.54685">
        <ele>22.73</ele>
        <time>2014-01-20T15:30:32Z</time>
      </trkpt>
      <trkpt lat="48.02637" lon="-4.5468">
        <ele>24.65</ele>
        <time>2014-01-20T15:30:37Z</time>
      </trkpt>
      <trkpt lat="48.02633" lon="-4.54681">
        <ele>22.73</ele>
        <time>2014-01-20T15:30:40Z</time>
      </trkpt>
      <trkpt lat="48.02623" lon="-4.54696">
        <ele>21.29</ele>
        <time>2014-01-20T15:30:51Z</time>
      </trkpt>
      <trkpt lat="48.02623" lon="-4.54696">
        <ele>21.29</ele>
        <time>2014-01-20T15:30:52Z</time>
      </trkpt>
      <trkpt lat="48.02609" lon="-4.54694">
        <ele>23.69</ele>
        <time>2014-01-20T15:31:03Z</time>
      </trkpt>
      <trkpt lat="48.02608" lon="-4.54692">
        <ele>24.17</ele>
        <time>2014-01-20T15:31:05Z</time>
      </trkpt>
      <trkpt lat="48.02605" lon="-4.54685">
        <ele>24.17</ele>
        <time>2014-01-20T15:31:11Z</time>
      </trkpt>
      <trkpt lat="48.02597" lon="-4.54683">
        <ele>23.69</ele>
        <time>2014-01-20T15:31:18Z</time>
      </trkpt>
      <trkpt lat="48.02586" lon="-4.54683">
        <ele>23.21</ele>
        <time>2014-01-20T15:31:28Z</time>
      </trkpt>
      <trkpt lat="48.0258" lon="-4.5468">
        <ele>26.09</ele>
        <time>2014-01-20T15:31:35Z</time>
      </trkpt>
      <trkpt lat="48.02591" lon="-4.54694">
        <ele>25.61</ele>
        <time>2014-01-20T15:31:46Z</time>
      </trkpt>
      <trkpt lat="48.0259" lon="-4.54696">
        <ele>25.61</ele>
        <time>2014-01-20T15:31:59Z</time>
      </trkpt>
      <trkpt lat="48.0259" lon="-4.54696">
        <ele>25.61</ele>
        <time>2014-01-20T15:32:06Z</time>
      </trkpt>
      <trkpt lat="48.02589" lon="-4.54697">
        <ele>25.61</ele>
        <time>2014-01-20T15:32:08Z</time>
      </trkpt>
      <trkpt lat="48.02586" lon="-4.547">
        <ele>25.61</ele>
        <time>2014-01-20T15:32:12Z</time>
      </trkpt>
      <trkpt lat="48.02578" lon="-4.54714">
        <ele>26.09</ele>
        <time>2014-01-20T15:32:23Z</time>
      </trkpt>
      <trkpt lat="48.02571" lon="-4.54728">
        <ele>27.53</ele>
        <time>2014-01-20T15:32:33Z</time>
      </trkpt>
      <trkpt lat="48.02568" lon="-4.54738">
        <ele>28.5</ele>
        <time>2014-01-20T15:32:40Z</time>
      </trkpt>
      <trkpt lat="48.02564" lon="-4.54751">
        <ele>28.98</ele>
        <time>2014-01-20T15:32:49Z</time>
      </trkpt>
      <trkpt lat="48.02558" lon="-4.54768">
        <ele>29.94</ele>
        <time>2014-01-20T15:32:59Z</time>
      </trkpt>
      <trkpt lat="48.02555" lon="-4.54776">
        <ele>30.9</ele>
        <time>2014-01-20T15:33:04Z</time>
      </trkpt>
      <trkpt lat="48.02549" lon="-4.54795">
        <ele>33.78</ele>
        <time>2014-01-20T15:33:15Z</time>
      </trkpt>
      <trkpt lat="48.02545" lon="-4.54809">
        <ele>32.82</ele>
        <time>2014-01-20T15:33:24Z</time>
      </trkpt>
      <trkpt lat="48.02545" lon="-4.5481">
        <ele>33.3</ele>
        <time>2014-01-20T15:33:25Z</time>
      </trkpt>
      <trkpt lat="48.02544" lon="-4.54817">
        <ele>34.26</ele>
        <time>2014-01-20T15:33:33Z</time>
      </trkpt>
      <trkpt lat="48.02544" lon="-4.5481">
        <ele>33.78</ele>
        <time>2014-01-20T15:33:37Z</time>
      </trkpt>
      <trkpt lat="48.02546" lon="-4.54805">
        <ele>30.9</ele>
        <time>2014-01-20T15:33:45Z</time>
      </trkpt>
      <trkpt lat="48.02542" lon="-4.54806">
        <ele>30.9</ele>
        <time>2014-01-20T15:33:49Z</time>
      </trkpt>
      <trkpt lat="48.02533" lon="-4.54802">
        <ele>30.9</ele>
        <time>2014-01-20T15:33:57Z</time>
      </trkpt>
      <trkpt lat="48.02526" lon="-4.54795">
        <ele>31.38</ele>
        <time>2014-01-20T15:34:06Z</time>
      </trkpt>
      <trkpt lat="48.02525" lon="-4.54794">
        <ele>31.38</ele>
        <time>2014-01-20T15:34:07Z</time>
      </trkpt>
      <trkpt lat="48.02517" lon="-4.54784">
        <ele>29.94</ele>
        <time>2014-01-20T15:34:15Z</time>
      </trkpt>
      <trkpt lat="48.02516" lon="-4.54783">
        <ele>29.94</ele>
        <time>2014-01-20T15:34:16Z</time>
      </trkpt>
      <trkpt lat="48.02514" lon="-4.54776">
        <ele>29.94</ele>
        <time>2014-01-20T15:34:19Z</time>
      </trkpt>
      <trkpt lat="48.02508" lon="-4.54767">
        <ele>33.78</ele>
        <time>2014-01-20T15:34:28Z</time>
      </trkpt>
      <trkpt lat="48.0251" lon="-4.5476">
        <ele>34.74</ele>
        <time>2014-01-20T15:34:33Z</time>
      </trkpt>
      <trkpt lat="48.02517" lon="-4.54742">
        <ele>33.78</ele>
        <time>2014-01-20T15:34:45Z</time>
      </trkpt>
      <trkpt lat="48.02518" lon="-4.54724">
        <ele>33.3</ele>
        <time>2014-01-20T15:34:56Z</time>
      </trkpt>
      <trkpt lat="48.02512" lon="-4.54707">
        <ele>33.3</ele>
        <time>2014-01-20T15:35:07Z</time>
      </trkpt>
      <trkpt lat="48.02504" lon="-4.54683">
        <ele>34.74</ele>
        <time>2014-01-20T15:35:20Z</time>
      </trkpt>
      <trkpt lat="48.02497" lon="-4.54665">
        <ele>36.67</ele>
        <time>2014-01-20T15:35:31Z</time>
      </trkpt>
      <trkpt lat="48.0249" lon="-4.54649">
        <ele>37.15</ele>
        <time>2014-01-20T15:35:41Z</time>
      </trkpt>
      <trkpt lat="48.02479" lon="-4.54633">
        <ele>36.19</ele>
        <time>2014-01-20T15:35:53Z</time>
      </trkpt>
      <trkpt lat="48.02474" lon="-4.54628">
        <ele>36.67</ele>
        <time>2014-01-20T15:36:00Z</time>
      </trkpt>
      <trkpt lat="48.02462" lon="-4.54638">
        <ele>36.19</ele>
        <time>2014-01-20T15:36:10Z</time>
      </trkpt>
      <trkpt lat="48.02452" lon="-4.54652">
        <ele>36.19</ele>
        <time>2014-01-20T15:36:20Z</time>
      </trkpt>
      <trkpt lat="48.02452" lon="-4.54653">
        <ele>35.71</ele>
        <time>2014-01-20T15:36:21Z</time>
      </trkpt>
      <trkpt lat="48.02447" lon="-4.54663">
        <ele>33.3</ele>
        <time>2014-01-20T15:36:29Z</time>
      </trkpt>
      <trkpt lat="48.02435" lon="-4.54675">
        <ele>30.42</ele>
        <time>2014-01-20T15:36:41Z</time>
      </trkpt>
      <trkpt lat="48.02429" lon="-4.54678">
        <ele>30.9</ele>
        <time>2014-01-20T15:36:47Z</time>
      </trkpt>
      <trkpt lat="48.0242" lon="-4.54666">
        <ele>33.78</ele>
        <time>2014-01-20T15:36:58Z</time>
      </trkpt>
      <trkpt lat="48.02416" lon="-4.5466">
        <ele>33.78</ele>
        <time>2014-01-20T15:37:02Z</time>
      </trkpt>
      <trkpt lat="48.02406" lon="-4.54651">
        <ele>34.26</ele>
        <time>2014-01-20T15:37:09Z</time>
      </trkpt>
      <trkpt lat="48.02401" lon="-4.5464">
        <ele>34.26</ele>
        <time>2014-01-20T15:37:16Z</time>
      </trkpt>
      <trkpt lat="48.02392" lon="-4.54623">
        <ele>34.26</ele>
        <time>2014-01-20T15:37:27Z</time>
      </trkpt>
      <trkpt lat="48.02384" lon="-4.54607">
        <ele>33.3</ele>
        <time>2014-01-20T15:37:38Z</time>
      </trkpt>
      <trkpt lat="48.02377" lon="-4.54594">
        <ele>31.86</ele>
        <time>2014-01-20T15:37:47Z</time>
      </trkpt>
      <trkpt lat="48.0237" lon="-4.54581">
        <ele>30.9</ele>
        <time>2014-01-20T15:37:57Z</time>
      </trkpt>
      <trkpt lat="48.02366" lon="-4.54575">
        <ele>30.42</ele>
        <time>2014-01-20T15:38:01Z</time>
      </trkpt>
      <trkpt lat="48.02362" lon="-4.54569">
        <ele>29.46</ele>
        <time>2014-01-20T15:38:06Z</time>
      </trkpt>
      <trkpt lat="48.02357" lon="-4.54563">
        <ele>28.98</ele>
        <time>2014-01-20T15:38:10Z</time>
      </trkpt>
      <trkpt lat="48.02354" lon="-4.5456">
        <ele>28.98</ele>
        <time>2014-01-20T15:38:13Z</time>
      </trkpt>
      <trkpt lat="48.02345" lon="-4.54537">
        <ele>29.46</ele>
        <time>2014-01-20T15:38:27Z</time>
      </trkpt>
      <trkpt lat="48.02342" lon="-4.54528">
        <ele>28.02</ele>
        <time>2014-01-20T15:38:32Z</time>
      </trkpt>
      <trkpt lat="48.02335" lon="-4.54507">
        <ele>25.13</ele>
        <time>2014-01-20T15:38:45Z</time>
      </trkpt>
      <trkpt lat="48.02329" lon="-4.54489">
        <ele>24.65</ele>
        <time>2014-01-20T15:38:56Z</time>
      </trkpt>
      <trkpt lat="48.02327" lon="-4.54476">
        <ele>22.73</ele>
        <time>2014-01-20T15:39:04Z</time>
      </trkpt>
      <trkpt lat="48.02323" lon="-4.54466">
        <ele>22.73</ele>
        <time>2014-01-20T15:39:10Z</time>
      </trkpt>
      <trkpt lat="48.02319" lon="-4.54457">
        <ele>23.69</ele>
        <time>2014-01-20T15:39:16Z</time>
      </trkpt>
      <trkpt lat="48.02313" lon="-4.54445">
        <ele>23.69</ele>
        <time>2014-01-20T15:39:26Z</time>
      </trkpt>
      <trkpt lat="48.02307" lon="-4.54432">
        <ele>22.73</ele>
        <time>2014-01-20T15:39:34Z</time>
      </trkpt>
      <trkpt lat="48.02304" lon="-4.54421">
        <ele>19.84</ele>
        <time>2014-01-20T15:39:43Z</time>
      </trkpt>
      <trkpt lat="48.02301" lon="-4.54402">
        <ele>18.88</ele>
        <time>2014-01-20T15:39:53Z</time>
      </trkpt>
      <trkpt lat="48.02298" lon="-4.54387">
        <ele>17.44</ele>
        <time>2014-01-20T15:40:02Z</time>
      </trkpt>
      <trkpt lat="48.02299" lon="-4.54384">
        <ele>17.44</ele>
        <time>2014-01-20T15:40:03Z</time>
      </trkpt>
      <trkpt lat="48.02294" lon="-4.54362">
        <ele>18.4</ele>
        <time>2014-01-20T15:40:13Z</time>
      </trkpt>
      <trkpt lat="48.02294" lon="-4.54362">
        <ele>18.88</ele>
        <time>2014-01-20T15:40:19Z</time>
      </trkpt>
      <trkpt lat="48.02298" lon="-4.54371">
        <ele>17.92</ele>
        <time>2014-01-20T15:40:31Z</time>
      </trkpt>
      <trkpt lat="48.02298" lon="-4.54368">
        <ele>18.88</ele>
        <time>2014-01-20T15:40:37Z</time>
      </trkpt>
      <trkpt lat="48.02298" lon="-4.54364">
        <ele>19.36</ele>
        <time>2014-01-20T15:40:41Z</time>
      </trkpt>
      <trkpt lat="48.02296" lon="-4.54347">
        <ele>19.36</ele>
        <time>2014-01-20T15:40:54Z</time>
      </trkpt>
      <trkpt lat="48.02296" lon="-4.54348">
        <ele>19.36</ele>
        <time>2014-01-20T15:40:55Z</time>
      </trkpt>
      <trkpt lat="48.02299" lon="-4.54356">
        <ele>18.4</ele>
        <time>2014-01-20T15:41:01Z</time>
      </trkpt>
      <trkpt lat="48.02307" lon="-4.54364">
        <ele>16</ele>
        <time>2014-01-20T15:41:09Z</time>
      </trkpt>
      <trkpt lat="48.02318" lon="-4.54361">
        <ele>15.04</ele>
        <time>2014-01-20T15:41:20Z</time>
      </trkpt>
      <trkpt lat="48.0233" lon="-4.54356">
        <ele>17.92</ele>
        <time>2014-01-20T15:41:31Z</time>
      </trkpt>
      <trkpt lat="48.02342" lon="-4.54347">
        <ele>22.73</ele>
        <time>2014-01-20T15:41:42Z</time>
      </trkpt>
      <trkpt lat="48.02353" lon="-4.54339">
        <ele>24.17</ele>
        <time>2014-01-20T15:41:52Z</time>
      </trkpt>
      <trkpt lat="48.02367" lon="-4.54329">
        <ele>26.09</ele>
        <time>2014-01-20T15:42:04Z</time>
      </trkpt>
      <trkpt lat="48.02378" lon="-4.5432">
        <ele>28.02</ele>
        <time>2014-01-20T15:42:14Z</time>
      </trkpt>
      <trkpt lat="48.02381" lon="-4.54313">
        <ele>27.53</ele>
        <time>2014-01-20T15:42:19Z</time>
      </trkpt>
      <trkpt lat="48.02382" lon="-4.54309">
        <ele>27.53</ele>
        <time>2014-01-20T15:42:21Z</time>
      </trkpt>
      <trkpt lat="48.02379" lon="-4.54289">
        <ele>27.53</ele>
        <time>2014-01-20T15:42:32Z</time>
      </trkpt>
      <trkpt lat="48.02378" lon="-4.54282">
        <ele>28.02</ele>
        <time>2014-01-20T15:42:36Z</time>
      </trkpt>
      <trkpt lat="48.02375" lon="-4.54272">
        <ele>28.02</ele>
        <time>2014-01-20T15:42:42Z</time>
      </trkpt>
      <trkpt lat="48.02368" lon="-4.54259">
        <ele>27.05</ele>
        <time>2014-01-20T15:42:51Z</time>
      </trkpt>
      <trkpt lat="48.02363" lon="-4.54254">
        <ele>27.05</ele>
        <time>2014-01-20T15:42:55Z</time>
      </trkpt>
      <trkpt lat="48.02353" lon="-4.5424">
        <ele>26.09</ele>
        <time>2014-01-20T15:43:06Z</time>
      </trkpt>
      <trkpt lat="48.02347" lon="-4.54234">
        <ele>25.13</ele>
        <time>2014-01-20T15:43:12Z</time>
      </trkpt>
      <trkpt lat="48.02347" lon="-4.54215">
        <ele>24.65</ele>
        <time>2014-01-20T15:43:24Z</time>
      </trkpt>
      <trkpt lat="48.02358" lon="-4.54203">
        <ele>25.13</ele>
        <time>2014-01-20T15:43:35Z</time>
      </trkpt>
      <trkpt lat="48.02371" lon="-4.54195">
        <ele>25.61</ele>
        <time>2014-01-20T15:43:45Z</time>
      </trkpt>
      <trkpt lat="48.02383" lon="-4.54188">
        <ele>26.09</ele>
        <time>2014-01-20T15:43:55Z</time>
      </trkpt>
      <trkpt lat="48.02394" lon="-4.54181">
        <ele>24.17</ele>
        <time>2014-01-20T15:44:05Z</time>
      </trkpt>
      <trkpt lat="48.02395" lon="-4.54179">
        <ele>24.17</ele>
        <time>2014-01-20T15:44:08Z</time>
      </trkpt>
      <trkpt lat="48.02393" lon="-4.54175">
        <ele>23.21</ele>
        <time>2014-01-20T15:44:11Z</time>
      </trkpt>
      <trkpt lat="48.02381" lon="-4.54159">
        <ele>21.77</ele>
        <time>2014-01-20T15:44:23Z</time>
      </trkpt>
      <trkpt lat="48.02373" lon="-4.54143">
        <ele>21.77</ele>
        <time>2014-01-20T15:44:33Z</time>
      </trkpt>
      <trkpt lat="48.02362" lon="-4.54131">
        <ele>19.36</ele>
        <time>2014-01-20T15:44:45Z</time>
      </trkpt>
      <trkpt lat="48.02351" lon="-4.5412">
        <ele>17.44</ele>
        <time>2014-01-20T15:44:56Z</time>
      </trkpt>
      <trkpt lat="48.0234" lon="-4.54114">
        <ele>16.96</ele>
        <time>2014-01-20T15:45:06Z</time>
      </trkpt>
      <trkpt lat="48.02338" lon="-4.54112">
        <ele>16</ele>
        <time>2014-01-20T15:45:10Z</time>
      </trkpt>
      <trkpt lat="48.02333" lon="-4.54101">
        <ele>12.63</ele>
        <time>2014-01-20T15:45:20Z</time>
      </trkpt>
      <trkpt lat="48.02332" lon="-4.54098">
        <ele>11.67</ele>
        <time>2014-01-20T15:45:30Z</time>
      </trkpt>
      <trkpt lat="48.0233" lon="-4.54104">
        <ele>11.67</ele>
        <time>2014-01-20T15:45:39Z</time>
      </trkpt>
      <trkpt lat="48.02327" lon="-4.54106">
        <ele>12.63</ele>
        <time>2014-01-20T15:45:41Z</time>
      </trkpt>
      <trkpt lat="48.02317" lon="-4.54117">
        <ele>14.08</ele>
        <time>2014-01-20T15:45:50Z</time>
      </trkpt>
      <trkpt lat="48.02304" lon="-4.54129">
        <ele>13.6</ele>
        <time>2014-01-20T15:46:03Z</time>
      </trkpt>
      <trkpt lat="48.02304" lon="-4.54129">
        <ele>12.15</ele>
        <time>2014-01-20T15:46:05Z</time>
      </trkpt>
      <trkpt lat="48.02304" lon="-4.54125">
        <ele>10.71</ele>
        <time>2014-01-20T15:46:14Z</time>
      </trkpt>
      <trkpt lat="48.02304" lon="-4.54124">
        <ele>10.23</ele>
        <time>2014-01-20T15:46:21Z</time>
      </trkpt>
      <trkpt lat="48.023" lon="-4.54121">
        <ele>9.27</ele>
        <time>2014-01-20T15:46:29Z</time>
      </trkpt>
      <trkpt lat="48.02293" lon="-4.54121">
        <ele>9.27</ele>
        <time>2014-01-20T15:46:38Z</time>
      </trkpt>
      <trkpt lat="48.02285" lon="-4.54126">
        <ele>5.91</ele>
        <time>2014-01-20T15:46:49Z</time>
      </trkpt>
      <trkpt lat="48.02284" lon="-4.54134">
        <ele>5.91</ele>
        <time>2014-01-20T15:46:57Z</time>
      </trkpt>
      <trkpt lat="48.02284" lon="-4.54136">
        <ele>5.91</ele>
        <time>2014-01-20T15:47:07Z</time>
      </trkpt>
      <trkpt lat="48.02282" lon="-4.54135">
        <ele>5.42</ele>
        <time>2014-01-20T15:47:17Z</time>
      </trkpt>
      <trkpt lat="48.02283" lon="-4.54134">
        <ele>5.42</ele>
        <time>2014-01-20T15:47:25Z</time>
      </trkpt>
      <trkpt lat="48.02283" lon="-4.54132">
        <ele>5.42</ele>
        <time>2014-01-20T15:47:33Z</time>
      </trkpt>
      <trkpt lat="48.02285" lon="-4.54128">
        <ele>5.91</ele>
        <time>2014-01-20T15:47:43Z</time>
      </trkpt>
      <trkpt lat="48.02286" lon="-4.54126">
        <ele>6.87</ele>
        <time>2014-01-20T15:47:51Z</time>
      </trkpt>
      <trkpt lat="48.02286" lon="-4.54126">
        <ele>6.87</ele>
        <time>2014-01-20T15:47:52Z</time>
      </trkpt>
      <trkpt lat="48.02292" lon="-4.54118">
        <ele>8.31</ele>
        <time>2014-01-20T15:48:05Z</time>
      </trkpt>
      <trkpt lat="48.02295" lon="-4.54114">
        <ele>7.83</ele>
        <time>2014-01-20T15:48:16Z</time>
      </trkpt>
      <trkpt lat="48.023" lon="-4.54112">
        <ele>6.87</ele>
        <time>2014-01-20T15:48:26Z</time>
      </trkpt>
      <trkpt lat="48.02297" lon="-4.54106">
        <ele>3.98</ele>
        <time>2014-01-20T15:48:35Z</time>
      </trkpt>
      <trkpt lat="48.02297" lon="-4.54105">
        <ele>3.98</ele>
        <time>2014-01-20T15:48:36Z</time>
      </trkpt>
      <trkpt lat="48.02286" lon="-4.5408">
        <ele>7.35</ele>
        <time>2014-01-20T15:48:49Z</time>
      </trkpt>
      <trkpt lat="48.02282" lon="-4.54072">
        <ele>5.91</ele>
        <time>2014-01-20T15:48:58Z</time>
      </trkpt>
      <trkpt lat="48.02281" lon="-4.54071">
        <ele>5.91</ele>
        <time>2014-01-20T15:48:59Z</time>
      </trkpt>
      <trkpt lat="48.02278" lon="-4.5407">
        <ele>6.39</ele>
        <time>2014-01-20T15:49:01Z</time>
      </trkpt>
      <trkpt lat="48.02275" lon="-4.54073">
        <ele>5.91</ele>
        <time>2014-01-20T15:49:04Z</time>
      </trkpt>
      <trkpt lat="48.02272" lon="-4.54078">
        <ele>4.94</ele>
        <time>2014-01-20T15:49:08Z</time>
      </trkpt>
      <trkpt lat="48.02266" lon="-4.54084">
        <ele>3.98</ele>
        <time>2014-01-20T15:49:15Z</time>
      </trkpt>
      <trkpt lat="48.02262" lon="-4.54089">
        <ele>3.5</ele>
        <time>2014-01-20T15:49:19Z</time>
      </trkpt>
      <trkpt lat="48.02255" lon="-4.54095">
        <ele>3.5</ele>
        <time>2014-01-20T15:49:25Z</time>
      </trkpt>
      <trkpt lat="48.0225" lon="-4.541">
        <ele>3.5</ele>
        <time>2014-01-20T15:49:29Z</time>
      </trkpt>
      <trkpt lat="48.02249" lon="-4.54102">
        <ele>3.5</ele>
        <time>2014-01-20T15:49:31Z</time>
      </trkpt>
      <trkpt lat="48.02242" lon="-4.54115">
        <ele>4.94</ele>
        <time>2014-01-20T15:49:41Z</time>
      </trkpt>
      <trkpt lat="48.02237" lon="-4.5413">
        <ele>4.94</ele>
        <time>2014-01-20T15:49:52Z</time>
      </trkpt>
      <trkpt lat="48.02235" lon="-4.54146">
        <ele>5.42</ele>
        <time>2014-01-20T15:50:01Z</time>
      </trkpt>
      <trkpt lat="48.02235" lon="-4.54149">
        <ele>5.42</ele>
        <time>2014-01-20T15:50:03Z</time>
      </trkpt>
      <trkpt lat="48.02235" lon="-4.54152">
        <ele>5.42</ele>
        <time>2014-01-20T15:50:05Z</time>
      </trkpt>
      <trkpt lat="48.02233" lon="-4.54162">
        <ele>6.39</ele>
        <time>2014-01-20T15:50:10Z</time>
      </trkpt>
      <trkpt lat="48.02229" lon="-4.54166">
        <ele>5.42</ele>
        <time>2014-01-20T15:50:15Z</time>
      </trkpt>
      <trkpt lat="48.02215" lon="-4.54163">
        <ele>6.39</ele>
        <time>2014-01-20T15:50:27Z</time>
      </trkpt>
      <trkpt lat="48.02208" lon="-4.54162">
        <ele>7.83</ele>
        <time>2014-01-20T15:50:37Z</time>
      </trkpt>
      <trkpt lat="48.02199" lon="-4.54165">
        <ele>13.12</ele>
        <time>2014-01-20T15:50:48Z</time>
      </trkpt>
      <trkpt lat="48.02191" lon="-4.54167">
        <ele>16</ele>
        <time>2014-01-20T15:50:58Z</time>
      </trkpt>
      <trkpt lat="48.02184" lon="-4.54169">
        <ele>17.44</ele>
        <time>2014-01-20T15:51:06Z</time>
      </trkpt>
      <trkpt lat="48.02175" lon="-4.54173">
        <ele>22.25</ele>
        <time>2014-01-20T15:51:18Z</time>
      </trkpt>
      <trkpt lat="48.0217" lon="-4.54172">
        <ele>22.25</ele>
        <time>2014-01-20T15:51:24Z</time>
      </trkpt>
      <trkpt lat="48.02163" lon="-4.54162">
        <ele>23.69</ele>
        <time>2014-01-20T15:51:37Z</time>
      </trkpt>
      <trkpt lat="48.02163" lon="-4.54161">
        <ele>23.69</ele>
        <time>2014-01-20T15:51:39Z</time>
      </trkpt>
      <trkpt lat="48.02151" lon="-4.54153">
        <ele>27.05</ele>
        <time>2014-01-20T15:51:50Z</time>
      </trkpt>
      <trkpt lat="48.02145" lon="-4.54149">
        <ele>27.53</ele>
        <time>2014-01-20T15:51:57Z</time>
      </trkpt>
      <trkpt lat="48.02135" lon="-4.54141">
        <ele>28.98</ele>
        <time>2014-01-20T15:52:07Z</time>
      </trkpt>
      <trkpt lat="48.02144" lon="-4.5413">
        <ele>28.98</ele>
        <time>2014-01-20T15:52:17Z</time>
      </trkpt>
      <trkpt lat="48.02157" lon="-4.5412">
        <ele>28.5</ele>
        <time>2014-01-20T15:52:28Z</time>
      </trkpt>
      <trkpt lat="48.02158" lon="-4.54119">
        <ele>28.5</ele>
        <time>2014-01-20T15:52:29Z</time>
      </trkpt>
      <trkpt lat="48.02166" lon="-4.54104">
        <ele>23.21</ele>
        <time>2014-01-20T15:52:41Z</time>
      </trkpt>
      <trkpt lat="48.02167" lon="-4.54102">
        <ele>22.73</ele>
        <time>2014-01-20T15:52:42Z</time>
      </trkpt>
      <trkpt lat="48.02171" lon="-4.54094">
        <ele>21.29</ele>
        <time>2014-01-20T15:52:48Z</time>
      </trkpt>
      <trkpt lat="48.02177" lon="-4.54081">
        <ele>18.4</ele>
        <time>2014-01-20T15:52:56Z</time>
      </trkpt>
      <trkpt lat="48.0218" lon="-4.54075">
        <ele>16.96</ele>
        <time>2014-01-20T15:53:00Z</time>
      </trkpt>
      <trkpt lat="48.02189" lon="-4.54072">
        <ele>20.32</ele>
        <time>2014-01-20T15:53:07Z</time>
      </trkpt>
      <trkpt lat="48.02193" lon="-4.54065">
        <ele>22.25</ele>
        <time>2014-01-20T15:53:12Z</time>
      </trkpt>
      <trkpt lat="48.02196" lon="-4.5405">
        <ele>26.57</ele>
        <time>2014-01-20T15:53:19Z</time>
      </trkpt>
      <trkpt lat="48.02198" lon="-4.54026">
        <ele>28.5</ele>
        <time>2014-01-20T15:53:31Z</time>
      </trkpt>
      <trkpt lat="48.022" lon="-4.54021">
        <ele>28.5</ele>
        <time>2014-01-20T15:53:34Z</time>
      </trkpt>
      <trkpt lat="48.02195" lon="-4.53995">
        <ele>26.57</ele>
        <time>2014-01-20T15:53:48Z</time>
      </trkpt>
      <trkpt lat="48.02194" lon="-4.53992">
        <ele>26.57</ele>
        <time>2014-01-20T15:53:50Z</time>
      </trkpt>
      <trkpt lat="48.02186" lon="-4.53973">
        <ele>25.13</ele>
        <time>2014-01-20T15:54:02Z</time>
      </trkpt>
      <trkpt lat="48.02185" lon="-4.53972">
        <ele>25.13</ele>
        <time>2014-01-20T15:54:03Z</time>
      </trkpt>
      <trkpt lat="48.02179" lon="-4.53966">
        <ele>25.61</ele>
        <time>2014-01-20T15:54:09Z</time>
      </trkpt>
      <trkpt lat="48.02168" lon="-4.5395">
        <ele>25.13</ele>
        <time>2014-01-20T15:54:20Z</time>
      </trkpt>
      <trkpt lat="48.02163" lon="-4.53942">
        <ele>24.65</ele>
        <time>2014-01-20T15:54:26Z</time>
      </trkpt>
      <trkpt lat="48.02153" lon="-4.53927">
        <ele>24.17</ele>
        <time>2014-01-20T15:54:37Z</time>
      </trkpt>
      <trkpt lat="48.02145" lon="-4.53911">
        <ele>24.17</ele>
        <time>2014-01-20T15:54:48Z</time>
      </trkpt>
      <trkpt lat="48.02143" lon="-4.5391">
        <ele>24.17</ele>
        <time>2014-01-20T15:54:50Z</time>
      </trkpt>
      <trkpt lat="48.02135" lon="-4.53901">
        <ele>22.25</ele>
        <time>2014-01-20T15:54:59Z</time>
      </trkpt>
      <trkpt lat="48.02129" lon="-4.53893">
        <ele>21.77</ele>
        <time>2014-01-20T15:55:06Z</time>
      </trkpt>
      <trkpt lat="48.02122" lon="-4.53876">
        <ele>20.32</ele>
        <time>2014-01-20T15:55:16Z</time>
      </trkpt>
      <trkpt lat="48.02116" lon="-4.53853">
        <ele>17.92</ele>
        <time>2014-01-20T15:55:28Z</time>
      </trkpt>
      <trkpt lat="48.02115" lon="-4.5385">
        <ele>16</ele>
        <time>2014-01-20T15:55:35Z</time>
      </trkpt>
      <trkpt lat="48.02112" lon="-4.53843">
        <ele>14.56</ele>
        <time>2014-01-20T15:55:46Z</time>
      </trkpt>
      <trkpt lat="48.02111" lon="-4.53842">
        <ele>15.04</ele>
        <time>2014-01-20T15:55:48Z</time>
      </trkpt>
      <trkpt lat="48.02104" lon="-4.53836">
        <ele>17.44</ele>
        <time>2014-01-20T15:55:53Z</time>
      </trkpt>
      <trkpt lat="48.02097" lon="-4.53829">
        <ele>20.32</ele>
        <time>2014-01-20T15:55:59Z</time>
      </trkpt>
      <trkpt lat="48.02092" lon="-4.53836">
        <ele>20.32</ele>
        <time>2014-01-20T15:56:05Z</time>
      </trkpt>
      <trkpt lat="48.02084" lon="-4.53832">
        <ele>19.84</ele>
        <time>2014-01-20T15:56:13Z</time>
      </trkpt>
      <trkpt lat="48.0208" lon="-4.53831">
        <ele>20.32</ele>
        <time>2014-01-20T15:56:17Z</time>
      </trkpt>
      <trkpt lat="48.02071" lon="-4.53831">
        <ele>19.84</ele>
        <time>2014-01-20T15:56:23Z</time>
      </trkpt>
      <trkpt lat="48.02058" lon="-4.5383">
        <ele>20.32</ele>
        <time>2014-01-20T15:56:33Z</time>
      </trkpt>
      <trkpt lat="48.02036" lon="-4.53831">
        <ele>23.69</ele>
        <time>2014-01-20T15:56:49Z</time>
      </trkpt>
      <trkpt lat="48.02021" lon="-4.53834">
        <ele>25.61</ele>
        <time>2014-01-20T15:57:01Z</time>
      </trkpt>
      <trkpt lat="48.02007" lon="-4.53841">
        <ele>28.02</ele>
        <time>2014-01-20T15:57:12Z</time>
      </trkpt>
      <trkpt lat="48.01997" lon="-4.53851">
        <ele>27.53</ele>
        <time>2014-01-20T15:57:21Z</time>
      </trkpt>
      <trkpt lat="48.0198" lon="-4.53852">
        <ele>28.5</ele>
        <time>2014-01-20T15:57:34Z</time>
      </trkpt>
      <trkpt lat="48.01966" lon="-4.53852">
        <ele>28.98</ele>
        <time>2014-01-20T15:57:44Z</time>
      </trkpt>
      <trkpt lat="48.01963" lon="-4.53852">
        <ele>29.46</ele>
        <time>2014-01-20T15:57:46Z</time>
      </trkpt>
      <trkpt lat="48.01949" lon="-4.53851">
        <ele>29.94</ele>
        <time>2014-01-20T15:57:57Z</time>
      </trkpt>
      <trkpt lat="48.01936" lon="-4.53851">
        <ele>29.94</ele>
        <time>2014-01-20T15:58:08Z</time>
      </trkpt>
      <trkpt lat="48.01924" lon="-4.53852">
        <ele>29.46</ele>
        <time>2014-01-20T15:58:18Z</time>
      </trkpt>
      <trkpt lat="48.01915" lon="-4.53853">
        <ele>26.57</ele>
        <time>2014-01-20T15:58:28Z</time>
      </trkpt>
      <trkpt lat="48.01904" lon="-4.53853">
        <ele>22.73</ele>
        <time>2014-01-20T15:58:38Z</time>
      </trkpt>
      <trkpt lat="48.01897" lon="-4.53851">
        <ele>20.81</ele>
        <time>2014-01-20T15:58:43Z</time>
      </trkpt>
      <trkpt lat="48.01895" lon="-4.53851">
        <ele>19.84</ele>
        <time>2014-01-20T15:58:45Z</time>
      </trkpt>
      <trkpt lat="48.01879" lon="-4.53852">
        <ele>16.96</ele>
        <time>2014-01-20T15:58:57Z</time>
      </trkpt>
      <trkpt lat="48.01866" lon="-4.5385">
        <ele>15.52</ele>
        <time>2014-01-20T15:59:08Z</time>
      </trkpt>
      <trkpt lat="48.01851" lon="-4.53847">
        <ele>14.56</ele>
        <time>2014-01-20T15:59:19Z</time>
      </trkpt>
      <trkpt lat="48.01844" lon="-4.53846">
        <ele>14.56</ele>
        <time>2014-01-20T15:59:25Z</time>
      </trkpt>
      <trkpt lat="48.0183" lon="-4.53848">
        <ele>16.96</ele>
        <time>2014-01-20T15:59:36Z</time>
      </trkpt>
      <trkpt lat="48.01818" lon="-4.5385">
        <ele>19.36</ele>
        <time>2014-01-20T15:59:44Z</time>
      </trkpt>
      <trkpt lat="48.01811" lon="-4.53844">
        <ele>19.84</ele>
        <time>2014-01-20T15:59:51Z</time>
      </trkpt>
      <trkpt lat="48.0181" lon="-4.53823">
        <ele>18.4</ele>
        <time>2014-01-20T16:00:04Z</time>
      </trkpt>
      <trkpt lat="48.01811" lon="-4.53799">
        <ele>16.48</ele>
        <time>2014-01-20T16:00:17Z</time>
      </trkpt>
      <trkpt lat="48.01812" lon="-4.53784">
        <ele>15.04</ele>
        <time>2014-01-20T16:00:25Z</time>
      </trkpt>
      <trkpt lat="48.01814" lon="-4.5377">
        <ele>14.56</ele>
        <time>2014-01-20T16:00:33Z</time>
      </trkpt>
      <trkpt lat="48.01814" lon="-4.53746">
        <ele>13.12</ele>
        <time>2014-01-20T16:00:46Z</time>
      </trkpt>
      <trkpt lat="48.01815" lon="-4.53725">
        <ele>10.71</ele>
        <time>2014-01-20T16:00:58Z</time>
      </trkpt>
      <trkpt lat="48.01815" lon="-4.53719">
        <ele>10.23</ele>
        <time>2014-01-20T16:01:01Z</time>
      </trkpt>
      <trkpt lat="48.01817" lon="-4.537">
        <ele>6.87</ele>
        <time>2014-01-20T16:01:12Z</time>
      </trkpt>
      <trkpt lat="48.01818" lon="-4.53692">
        <ele>4.94</ele>
        <time>2014-01-20T16:01:18Z</time>
      </trkpt>
      <trkpt lat="48.01816" lon="-4.53682">
        <ele>4.46</ele>
        <time>2014-01-20T16:01:23Z</time>
      </trkpt>
      <trkpt lat="48.01816" lon="-4.53679">
        <ele>3.98</ele>
        <time>2014-01-20T16:01:25Z</time>
      </trkpt>
      <trkpt lat="48.01812" lon="-4.53674">
        <ele>4.46</ele>
        <time>2014-01-20T16:01:29Z</time>
      </trkpt>
      <trkpt lat="48.01808" lon="-4.53674">
        <ele>4.94</ele>
        <time>2014-01-20T16:01:33Z</time>
      </trkpt>
      <trkpt lat="48.01805" lon="-4.53677">
        <ele>4.46</ele>
        <time>2014-01-20T16:01:36Z</time>
      </trkpt>
      <trkpt lat="48.01802" lon="-4.53682">
        <ele>3.5</ele>
        <time>2014-01-20T16:01:40Z</time>
      </trkpt>
      <trkpt lat="48.01797" lon="-4.53697">
        <ele>1.1</ele>
        <time>2014-01-20T16:01:50Z</time>
      </trkpt>
      <trkpt lat="48.01792" lon="-4.53713">
        <ele>0.62</ele>
        <time>2014-01-20T16:02:00Z</time>
      </trkpt>
      <trkpt lat="48.01791" lon="-4.53715">
        <ele>0.62</ele>
        <time>2014-01-20T16:02:01Z</time>
      </trkpt>
      <trkpt lat="48.01788" lon="-4.53721">
        <ele>0.62</ele>
        <time>2014-01-20T16:02:05Z</time>
      </trkpt>
      <trkpt lat="48.0178" lon="-4.53742">
        <ele>2.54</ele>
        <time>2014-01-20T16:02:18Z</time>
      </trkpt>
      <trkpt lat="48.01774" lon="-4.53754">
        <ele>3.5</ele>
        <time>2014-01-20T16:02:25Z</time>
      </trkpt>
      <trkpt lat="48.01766" lon="-4.53776">
        <ele>3.02</ele>
        <time>2014-01-20T16:02:38Z</time>
      </trkpt>
      <trkpt lat="48.01764" lon="-4.5378">
        <ele>3.5</ele>
        <time>2014-01-20T16:02:40Z</time>
      </trkpt>
      <trkpt lat="48.01759" lon="-4.5378">
        <ele>4.94</ele>
        <time>2014-01-20T16:02:44Z</time>
      </trkpt>
      <trkpt lat="48.01748" lon="-4.53794">
        <ele>4.46</ele>
        <time>2014-01-20T16:02:55Z</time>
      </trkpt>
      <trkpt lat="48.01746" lon="-4.53797">
        <ele>4.46</ele>
        <time>2014-01-20T16:02:57Z</time>
      </trkpt>
      <trkpt lat="48.01734" lon="-4.5381">
        <ele>3.02</ele>
        <time>2014-01-20T16:03:09Z</time>
      </trkpt>
      <trkpt lat="48.0172" lon="-4.53821">
        <ele>6.87</ele>
        <time>2014-01-20T16:03:20Z</time>
      </trkpt>
      <trkpt lat="48.01706" lon="-4.53825">
        <ele>10.23</ele>
        <time>2014-01-20T16:03:31Z</time>
      </trkpt>
      <trkpt lat="48.01691" lon="-4.53827">
        <ele>12.15</ele>
        <time>2014-01-20T16:03:42Z</time>
      </trkpt>
      <trkpt lat="48.01684" lon="-4.53827">
        <ele>12.15</ele>
        <time>2014-01-20T16:03:47Z</time>
      </trkpt>
      <trkpt lat="48.01664" lon="-4.53829">
        <ele>11.19</ele>
        <time>2014-01-20T16:04:02Z</time>
      </trkpt>
      <trkpt lat="48.0165" lon="-4.53832">
        <ele>9.27</ele>
        <time>2014-01-20T16:04:13Z</time>
      </trkpt>
      <trkpt lat="48.01636" lon="-4.53833">
        <ele>7.35</ele>
        <time>2014-01-20T16:04:26Z</time>
      </trkpt>
      <trkpt lat="48.01635" lon="-4.53834">
        <ele>7.35</ele>
        <time>2014-01-20T16:04:27Z</time>
      </trkpt>
      <trkpt lat="48.01634" lon="-4.5382">
        <ele>4.46</ele>
        <time>2014-01-20T16:04:38Z</time>
      </trkpt>
      <trkpt lat="48.01641" lon="-4.53818">
        <ele>3.5</ele>
        <time>2014-01-20T16:04:43Z</time>
      </trkpt>
      <trkpt lat="48.01644" lon="-4.53815">
        <ele>3.5</ele>
        <time>2014-01-20T16:04:46Z</time>
      </trkpt>
      <trkpt lat="48.01658" lon="-4.53812">
        <ele>2.06</ele>
        <time>2014-01-20T16:04:57Z</time>
      </trkpt>
      <trkpt lat="48.01666" lon="-4.53811">
        <ele>1.1</ele>
        <time>2014-01-20T16:05:03Z</time>
      </trkpt>
      <trkpt lat="48.01675" lon="-4.53807">
        <ele>2.06</ele>
        <time>2014-01-20T16:05:12Z</time>
      </trkpt>
      <trkpt lat="48.01676" lon="-4.53806">
        <ele>2.54</ele>
        <time>2014-01-20T16:05:21Z</time>
      </trkpt>
      <trkpt lat="48.01675" lon="-4.53806">
        <ele>1.58</ele>
        <time>2014-01-20T16:05:38Z</time>
      </trkpt>
      <trkpt lat="48.01676" lon="-4.53806">
        <ele>1.1</ele>
        <time>2014-01-20T16:05:59Z</time>
      </trkpt>
      <trkpt lat="48.01676" lon="-4.53806">
        <ele>1.1</ele>
        <time>2014-01-20T16:06:19Z</time>
      </trkpt>
      <trkpt lat="48.01676" lon="-4.53806">
        <ele>1.58</ele>
        <time>2014-01-20T16:06:39Z</time>
      </trkpt>
      <trkpt lat="48.01676" lon="-4.53806">
        <ele>1.58</ele>
        <time>2014-01-20T16:06:44Z</time>
      </trkpt>
      <trkpt lat="48.01679" lon="-4.53802">
        <ele>0.62</ele>
        <time>2014-01-20T16:11:18Z</time>
      </trkpt>
      <trkpt lat="48.0167" lon="-4.53816">
        <ele>13.12</ele>
        <time>2014-01-20T16:11:38Z</time>
      </trkpt>
      <trkpt lat="48.01675" lon="-4.53812">
        <ele>7.83</ele>
        <time>2014-01-20T16:11:54Z</time>
      </trkpt>
      <trkpt lat="48.01676" lon="-4.53811">
        <ele>6.39</ele>
        <time>2014-01-20T16:12:16Z</time>
      </trkpt>
      <trkpt lat="48.01676" lon="-4.53812">
        <ele>5.42</ele>
        <time>2014-01-20T16:12:38Z</time>
      </trkpt>
      <trkpt lat="48.01677" lon="-4.53814">
        <ele>5.91</ele>
        <time>2014-01-20T16:13:00Z</time>
      </trkpt>
      <trkpt lat="48.01677" lon="-4.53814">
        <ele>6.39</ele>
        <time>2014-01-20T16:13:18Z</time>
      </trkpt>
      <trkpt lat="48.01678" lon="-4.53814">
        <ele>6.39</ele>
        <time>2014-01-20T16:13:38Z</time>
      </trkpt>
      <trkpt lat="48.01678" lon="-4.53814">
        <ele>5.42</ele>
        <time>2014-01-20T16:13:58Z</time>
      </trkpt>
      <trkpt lat="48.01677" lon="-4.53814">
        <ele>5.42</ele>
        <time>2014-01-20T16:14:18Z</time>
      </trkpt>
    </trkseg>
  </trk>
</gpx>